Provisional Data: Chest Creek near Patton, PA


Please select a monitoring station.
Please select start date.
Please select start date.

Toggle Unit: C/F Toggle Unit: C/F
Sample Time Temperature (C) Temperature (F) Specific Conductivity (mS/cm) pH   Turbidity (NTU+) DO (mg/L)
8/1/2022 12:00:00 AM 18.92 66.056 0.374 7.13 140.68 0.28
8/1/2022 12:15:00 AM 18.88 65.984 0.351 7.14 140.95 0.28
8/1/2022 12:30:00 AM 18.84 65.912 0.317 7.12 141.32 0.28
8/1/2022 12:45:00 AM 18.8 65.84 0.312 7.14 141.36 0.28
8/1/2022 1:00:00 AM 18.76 65.768 0.232 7.17 141.3 0.28
8/1/2022 1:15:00 AM 18.72 65.696 0.231 7.12 142.08 0.28
8/1/2022 1:30:00 AM 18.68 65.624 0.23 7.15 142.28 0.28
8/1/2022 1:45:00 AM 18.65 65.57 0.229 7.14 142.34 0.28
8/1/2022 2:00:00 AM 18.61 65.498 0.228 7.15 142.4 0.28
8/1/2022 2:15:00 AM 18.57 65.426 0.225 7.18 142.67 0.28
8/1/2022 2:30:00 AM 18.54 65.372 0.225 7.18 142.81 0.29
8/1/2022 2:45:00 AM 18.51 65.318 0.225 7.21 142.88 0.29
8/1/2022 3:00:00 AM 18.48 65.264 0.225 7.19 143.11 0.28
8/1/2022 3:15:00 AM 18.45 65.21 0.224 7.19 143.2 0.29
8/1/2022 3:30:00 AM 18.42 65.156 0.222 7.21 143.25 0.29
8/1/2022 3:45:00 AM 18.39 65.102 0.219 7.23 143.18 0.29
8/1/2022 4:00:00 AM 18.35 65.03 0.221 7.19 143.64 0.29
8/1/2022 4:15:00 AM 18.32 64.976 0.221 7.19 143.94 0.29
8/1/2022 4:30:00 AM 18.29 64.922 0.22 7.19 143.98 0.29
8/1/2022 4:45:00 AM 18.25 64.85 0.221 7.18 144.01 0.29
8/1/2022 5:00:00 AM 18.22 64.796 0.22 7.18 144.34 0.29
8/1/2022 5:15:00 AM 18.19 64.742 0.218 7.09 144.4 0.29
8/1/2022 5:30:00 AM 18.16 64.688 0.219 7.19 144.52 0.29
8/1/2022 5:45:00 AM 18.14 64.652 0.22 7.16 144.7 0.29
8/1/2022 6:00:00 AM 18.12 64.616 0.22 7.16 144.84 0.29
8/1/2022 6:15:00 AM 18.09 64.562 0.22 7.16 144.95 0.29
8/1/2022 6:30:00 AM 18.08 64.544 0.22 7.19 144.81 0.29
8/1/2022 6:45:00 AM 18.07 64.526 0.221 7.15 145.41 0.29
8/1/2022 7:00:00 AM 18.07 64.526 0.221 7.16 145.61 0.29
8/1/2022 7:15:00 AM 18.07 64.526 0.495 7.23 146.18 0.29
8/1/2022 7:30:00 AM 18.07 64.526 0.412 7.2 146.37 0.29
8/1/2022 7:45:00 AM 18.09 64.562 0.272 7.25 146.47 0.29
8/1/2022 8:00:00 AM 18.12 64.616 0.276 7.22 146.71 0.29
8/1/2022 8:15:00 AM 18.16 64.688 0.301 7.22 146.91 0.29
8/1/2022 8:30:00 AM 18.24 64.832 0.284 7.23 147.05 0.29
8/1/2022 8:45:00 AM 18.32 64.976 0.223 7.21 147.22 0.29
8/1/2022 9:00:00 AM 18.51 65.318 0.222 7.22 147.34 0.28
8/1/2022 9:15:00 AM 18.61 65.498 0.221 7.25 147.47 0.28
8/1/2022 9:30:00 AM 18.76 65.768 0.221 7.16 148.22 0.28
8/1/2022 9:45:00 AM 18.93 66.074 0.22 7.17 148.78 0.28
8/1/2022 10:00:00 AM 19.05 66.29 0.22 7.2 148.43 0.28
8/1/2022 10:15:00 AM 19.16 66.488 0.219 7.21 148.46 0.28
8/1/2022 10:30:00 AM 19.31 66.758 0.218 7.24 149.71 0.28
8/1/2022 10:45:00 AM 19.48 67.064 0.217 7.18 149.96 0.28
8/1/2022 11:00:00 AM 19.57 67.226 0.217 7.21 149.97 0.28
8/1/2022 11:15:00 AM 20.03 68.054 0.217 7.24 150.85 0.27
8/1/2022 11:30:00 AM 20.49 68.882 0.217 7.23 150.23 0.27
8/1/2022 11:45:00 AM 20.78 69.404 0.217 7.24 149.88 0.27
8/1/2022 12:00:00 PM 20.79 69.422 0.217 7.26 149.32 0.27
8/1/2022 12:15:00 PM 20.8 69.44 0.216 7.22 149.75 0.27
8/1/2022 12:30:00 PM 20.95 69.71 0.217 7.24 149.78 0.27
8/1/2022 12:45:00 PM 21.13 70.034 0.215 7.21 150.16 0.26
8/1/2022 1:00:00 PM 21.2 70.16 0.216 7.23 150.15 0.26
8/1/2022 1:15:00 PM 21.26 70.268 0.217 7.24 150.35 0.26
8/1/2022 1:30:00 PM 21.34 70.412 0.215 7.23 150.7 0.26
8/1/2022 1:45:00 PM 21.48 70.664 0.215 7.23 150.93 0.26
8/1/2022 2:00:00 PM 21.46 70.628 0.215 7.22 150.92 0.26
8/1/2022 2:15:00 PM 21.54 70.772 0.216 7.23 151.28 0.26
8/1/2022 2:30:00 PM 21.56 70.808 0.216 7.22 151.65 0.26
8/1/2022 2:45:00 PM 21.53 70.754 0.215 7.28 151.22 0.26
8/1/2022 3:00:00 PM 21.84 71.312 0.217 7.26 152.75 0.26
8/1/2022 3:15:00 PM 22.35 72.23 0.217 7.22 153.31 0.26
8/1/2022 3:30:00 PM 22.67 72.806 0.216 7.29 153.86 0.25
8/1/2022 3:45:00 PM 22.88 73.184 0.218 7.22 153.87 0.25
8/1/2022 4:00:00 PM 23.07 73.526 0.218 7.23 153.95 0.25
8/1/2022 4:15:00 PM 23.15 73.67 0.218 7.29 154.2 0.25
8/1/2022 4:30:00 PM 23.23 73.814 0.219 7.28 154.47 0.25
8/1/2022 4:45:00 PM 23.12 73.616 0.219 7.29 155.24 0.25
8/1/2022 5:00:00 PM 22.98 73.364 0.22 7.22 153.15 0.25
8/1/2022 5:15:00 PM 22.97 73.346 0.22 7.23 148.37 0.25
8/1/2022 5:30:00 PM 23.01 73.418 0.22 7.29 143.67 0.25
8/1/2022 5:45:00 PM 23.13 73.634 0.221 7.29 144.25 0.25
8/1/2022 6:00:00 PM 23.16 73.688 0.221 7.25 142.23 0.25
8/1/2022 6:15:00 PM 23.07 73.526 0.222 7.29 143.05 0.25
8/1/2022 6:30:00 PM 22.99 73.382 0.222 7.26 143.97 0.25
8/1/2022 6:45:00 PM 22.87 73.166 0.223 7.29 142.95 0.25
8/1/2022 7:00:00 PM 22.7 72.86 0.222 7.25 142.95 0.25
8/1/2022 7:15:00 PM 22.56 72.608 0.223 7.27 139.23 0.26
8/1/2022 7:30:00 PM 22.42 72.356 0.222 7.31 136.74 0.26
8/1/2022 7:45:00 PM 22.28 72.104 0.222 7.26 136.18 0.26
8/1/2022 8:00:00 PM 22.15 71.87 0.221 7.33 136.42 0.26
8/1/2022 8:15:00 PM 22.02 71.636 0.223 7.34 135.37 0.26
8/1/2022 8:30:00 PM 21.88 71.384 0.224 7.27 141.15 0.26
8/1/2022 8:45:00 PM 21.74 71.132 0.223 7.29 160.47 0.26
8/1/2022 9:00:00 PM 21.6 70.88 0.223 7.3 157.98 0.26
8/1/2022 9:15:00 PM 21.47 70.646 0.224 7.27 158.71 0.27
8/1/2022 9:30:00 PM 21.33 70.394 0.225 7.29 156.8 0.27
8/1/2022 9:45:00 PM 21.19 70.142 0.223 7.31 155.7 0.27
8/1/2022 10:00:00 PM 21.05 69.89 0.224 7.32 154.87 0.27
8/1/2022 10:15:00 PM 20.93 69.674 0.225 7.31 153.94 0.27
8/1/2022 10:30:00 PM 20.81 69.458 0.224 7.32 153.72 0.27
8/1/2022 10:45:00 PM 20.68 69.224 0.224 7.32 153.34 0.27
8/1/2022 11:00:00 PM 20.58 69.044 0.225 7.36 151.59 0.27
8/1/2022 11:15:00 PM 20.5 68.9 0.225 7.27 152.34 0.27
8/1/2022 11:30:00 PM 20.41 68.738 0.225 7.26 152.35 0.27
8/1/2022 11:45:00 PM 20.3 68.54 0.225 7.27 152.27 0.27
8/2/2022 12:00:00 AM 20.19 68.342 0.226 7.34 152.8 0.27
8/2/2022 12:15:00 AM 20.08 68.144 0.226 7.35 152.7 0.28
8/2/2022 12:30:00 AM 19.97 67.946 0.227 7.28 152.71 0.28
8/2/2022 12:45:00 AM 19.87 67.766 0.227 7.29 152.27 0.28
8/2/2022 1:00:00 AM 19.8 67.64 0.227 7.29 152.69 0.28
8/2/2022 1:15:00 AM 19.73 67.514 0.227 7.28 153.08 0.28
8/2/2022 1:30:00 AM 19.67 67.406 0.227 7.28 153.83 0.28
8/2/2022 1:45:00 AM 19.61 67.298 0.225 7.38 152.16 0.28
8/2/2022 2:00:00 AM 19.56 67.208 0.228 7.37 153.94 0.28
8/2/2022 2:15:00 AM 19.51 67.118 0.227 7.37 154.2 0.28
8/2/2022 2:30:00 AM 19.48 67.064 0.228 7.29 154.7 0.28
8/2/2022 2:45:00 AM 19.46 67.028 0.229 7.36 154.52 0.28
8/2/2022 3:00:00 AM 19.43 66.974 0.229 7.32 154.84 0.28
8/2/2022 3:15:00 AM 19.41 66.938 0.229 7.31 147.87 0.28
8/2/2022 3:30:00 AM 19.37 66.866 0.229 7.31 147.18 0.28
8/2/2022 3:45:00 AM 19.34 66.812 0.229 7.31 147.58 0.28
8/2/2022 4:00:00 AM 19.32 66.776 0.229 7.3 150.53 0.28
8/2/2022 4:15:00 AM 19.3 66.74 0.23 7.33 147.44 0.28
8/2/2022 4:30:00 AM 19.27 66.686 0.228 7.4 147.5 0.28
8/2/2022 4:45:00 AM 19.25 66.65 0.23 7.43 148.46 0.28
8/2/2022 5:00:00 AM 19.24 66.632 0.231 7.37 146.21 0.28
8/2/2022 5:15:00 AM 19.23 66.614 0.229 7.39 145.7 0.28
8/2/2022 5:30:00 AM 19.21 66.578 0.231 7.4 144.13 0.28
8/2/2022 5:45:00 AM 19.2 66.56 0.23 7.44 142.36 0.28
8/2/2022 6:00:00 AM 19.18 66.524 0.233 7.38 142.38 0.28
8/2/2022 6:15:00 AM 19.17 66.506 0.23 7.37 142.48 0.28
8/2/2022 6:30:00 AM 19.15 66.47 0.23 7.39 141.38 0.28
8/2/2022 6:45:00 AM 19.14 66.452 0.232 7.44 140.52 0.28
8/2/2022 7:00:00 AM 19.14 66.452 0.232 7.42 139.33 0.28
8/2/2022 7:15:00 AM 19.15 66.47 0.233 7.42 138.41 0.28
8/2/2022 7:30:00 AM 19.17 66.506 0.231 7.34 138.58 0.28
8/2/2022 7:45:00 AM 19.2 66.56 0.234 7.35 138.52 0.28
8/2/2022 8:00:00 AM 19.22 66.596 0.231 7.34 135.79 0.28
8/2/2022 8:15:00 AM 19.23 66.614 0.234 7.4 133.87 0.28
8/2/2022 8:30:00 AM 19.28 66.704 0.232 7.35 133.73 0.28
8/2/2022 8:45:00 AM 19.38 66.884 0.233 7.35 133.99 0.28
8/2/2022 9:00:00 AM 19.49 67.082 0.231 7.36 132.56 0.28
8/2/2022 9:15:00 AM 19.57 67.226 0.235 7.35 133.41 0.28
8/2/2022 9:30:00 AM 19.67 67.406 0.232 7.36 132.29 0.28
8/2/2022 9:45:00 AM 19.93 67.874 0.233 7.36 131.9 0.28
8/2/2022 10:00:00 AM 20.11 68.198 0.234 7.42 130.62 0.27
8/2/2022 10:15:00 AM 20.39 68.702 0.236 7.35 131.15 0.27
8/2/2022 10:30:00 AM 20.45 68.81 0.235 7.34 130.48 0.27
8/2/2022 10:45:00 AM 20.74 69.332 0.237 7.34 129.02 0.27
8/2/2022 11:00:00 AM 20.97 69.746 0.233 7.34 128.59 0.27
8/2/2022 11:15:00 AM 21.45 70.61 0.236 7.33 127.32 0.26
8/2/2022 11:30:00 AM 21.86 71.348 0.238 7.34 126.76 0.26
8/2/2022 11:45:00 AM 22.2 71.96 0.235 7.33 125.96 0.26
8/2/2022 12:00:00 PM 22.57 72.626 0.239 7.35 125.27 0.26
8/2/2022 12:15:00 PM 22.71 72.878 0.238 7.38 124.18 0.25
8/2/2022 12:30:00 PM 22.67 72.806 0.237 7.33 123.22 0.25
8/2/2022 12:45:00 PM 23.09 73.562 0.238 7.38 119.5 0.25
8/2/2022 1:00:00 PM 23.35 74.03 0.238 7.36 119.7 0.25
8/2/2022 1:15:00 PM 23.65 74.57 0.239 7.42 119.99 0.25
8/2/2022 1:30:00 PM 23.81 74.858 0.237 7.41 120.56 0.25
8/2/2022 1:45:00 PM 24.29 75.722 0.24 7.38 119.41 0.24
8/2/2022 2:00:00 PM 24.76 76.568 0.24 7.35 119.82 0.24
8/2/2022 2:15:00 PM 24.96 76.92799 0.238 7.36 121.95 0.24
8/2/2022 2:30:00 PM 25.32 77.576 0.239 7.3 119.55 0.24
8/2/2022 2:45:00 PM 25.59 78.062 0.239 7.32 118.9 0.24
8/2/2022 3:00:00 PM 25.82 78.476 0.242 7.37 117.66 0.24
8/2/2022 3:15:00 PM 25.79 78.422 0.242 7.3 117.97 0.24
8/2/2022 3:30:00 PM 25.67 78.206 0.242 7.33 118.51 0.24
8/2/2022 3:45:00 PM 25.89 78.602 0.242 7.31 118.42 0.24
8/2/2022 4:00:00 PM 26.07 78.926 0.243 7.29 117.99 0.24
8/2/2022 4:15:00 PM 26.17 79.106 0.244 7.29 117.31 0.24
8/2/2022 4:30:00 PM 26.04 78.872 0.242 7.29 116.66 0.24
8/2/2022 4:45:00 PM 26.11 78.998 0.244 7.3 114.76 0.24
8/2/2022 5:00:00 PM 26 78.8 0.244 7.3 114.41 0.24
8/2/2022 5:15:00 PM 25.97 78.746 0.244 7.3 114.18 0.24
8/2/2022 5:30:00 PM 25.97 78.746 0.244 7.31 114 0.24
8/2/2022 5:45:00 PM 25.89 78.602 0.244 7.31 114.35 0.24
8/2/2022 6:00:00 PM 25.66 78.188 0.243 7.33 115.64 0.24
8/2/2022 6:15:00 PM 25.44 77.792 0.243 7.37 113.77 0.24
8/2/2022 6:30:00 PM 25.3 77.54 0.244 7.35 114.4 0.24
8/2/2022 6:45:00 PM 25.19 77.342 0.243 7.38 115.48 0.24
8/2/2022 7:00:00 PM 25.04 77.07201 0.242 7.37 111.96 0.25
8/2/2022 7:15:00 PM 24.88 76.784 0.243 7.39 108.99 0.25
8/2/2022 7:30:00 PM 24.68 76.424 0.242 7.4 109.05 0.25
8/2/2022 7:45:00 PM 24.47 76.046 0.244 7.4 108.43 0.25
8/2/2022 8:00:00 PM 24.25 75.65 0.244 7.4 111.08 0.25
8/2/2022 8:15:00 PM 24.03 75.254 0.244 7.37 110.43 0.25
8/2/2022 8:30:00 PM 23.77 74.786 0.244 7.4 112.07 0.25
8/2/2022 8:45:00 PM 23.53 74.354 0.243 7.38 111.43 0.25
8/2/2022 9:00:00 PM 23.28 73.904 0.244 7.43 106.93 0.26
8/2/2022 9:15:00 PM 23.05 73.49 0.243 7.34 109.37 0.26
8/2/2022 9:30:00 PM 22.83 73.094 0.244 7.35 109.17 0.26
8/2/2022 9:45:00 PM 22.62 72.716 0.244 7.42 108.51 0.26
8/2/2022 10:00:00 PM 22.42 72.356 0.244 7.35 109.63 0.26
8/2/2022 10:15:00 PM 22.22 71.996 0.245 7.42 106.81 0.26
8/2/2022 10:30:00 PM 22.06 71.708 0.244 7.42 106.97 0.26
8/2/2022 10:45:00 PM 21.92 71.456 0.245 7.4 107.31 0.26
8/2/2022 11:00:00 PM 21.74 71.132 0.245 7.39 107.42 0.27
8/2/2022 11:15:00 PM 21.56 70.808 0.244 7.35 108.54 0.27
8/2/2022 11:30:00 PM 21.4 70.52 0.245 7.4 107.31 0.27
8/2/2022 11:45:00 PM 21.26 70.268 0.243 7.41 106.24 0.27
8/3/2022 12:00:00 AM 21.11 69.998 0.245 7.41 104.09 0.27
8/3/2022 12:15:00 AM 20.96 69.728 0.245 7.35 104.46 0.27
8/3/2022 12:30:00 AM 20.83 69.494 0.245 7.4 105.82 0.27
8/3/2022 12:45:00 AM 20.7 69.26 0.243 7.4 106.91 0.27
8/3/2022 1:00:00 AM 20.55 68.99 0.243 7.39 105.9 0.27
8/3/2022 1:15:00 AM 20.41 68.738 0.245 7.39 105.22 0.27
8/3/2022 1:30:00 AM 20.27 68.486 0.244 7.35 105.72 0.27
8/3/2022 1:45:00 AM 20.14 68.252 0.244 7.4 104.06 0.28
8/3/2022 2:00:00 AM 20.05 68.09 0.244 7.4 103.06 0.28
8/3/2022 2:15:00 AM 19.95 67.91 0.245 7.41 103.7 0.28
8/3/2022 2:30:00 AM 19.87 67.766 0.246 7.44 103.32 0.28
8/3/2022 2:45:00 AM 19.75 67.55 0.245 7.41 103.4 0.28
8/3/2022 3:00:00 AM 19.65 67.37 0.245 7.46 105.15 0.28
8/3/2022 3:15:00 AM 19.58 67.244 0.246 7.43 105.63 0.28
8/3/2022 3:30:00 AM 19.5 67.1 0.245 7.43 104.43 0.28
8/3/2022 3:45:00 AM 19.42 66.956 0.246 7.47 104.01 0.28
8/3/2022 4:00:00 AM 19.32 66.776 0.247 7.43 103.41 0.28
8/3/2022 4:15:00 AM 19.2 66.56 0.246 7.46 102.88 0.28
8/3/2022 4:30:00 AM 19.09 66.362 0.245 7.43 101.39 0.28
8/3/2022 4:45:00 AM 18.98 66.164 0.245 7.41 101.37 0.28
8/3/2022 5:00:00 AM 18.89 66.002 0.245 7.45 102.51 0.28
8/3/2022 5:15:00 AM 18.79 65.82201 0.245 7.42 101.13 0.28
8/3/2022 5:30:00 AM 18.69 65.642 0.247 7.36 100.77 0.28
8/3/2022 5:45:00 AM 18.62 65.516 0.246 7.36 98.57 0.28
8/3/2022 6:00:00 AM 18.51 65.318 0.247 7.37 99.48 0.29
8/3/2022 6:15:00 AM 18.43 65.174 0.246 7.37 95.78 0.29
8/3/2022 6:30:00 AM 18.36 65.048 0.247 7.34 98.76 0.29
8/3/2022 6:45:00 AM 18.29 64.922 0.247 7.34 98.7 0.29
8/3/2022 7:00:00 AM 18.26 64.868 0.246 7.32 100.31 0.29
8/3/2022 7:15:00 AM 18.23 64.814 0.245 7.35 96.73 0.29
8/3/2022 7:30:00 AM 18.24 64.832 0.246 7.34 98.88 0.29
8/3/2022 7:45:00 AM 18.27 64.886 0.246 7.33 97.2 0.29
8/3/2022 8:00:00 AM 18.34 65.012 0.247 7.39 96.26 0.29
8/3/2022 8:15:00 AM 18.43 65.174 0.247 7.32 97.26 0.29
8/3/2022 8:30:00 AM 18.56 65.408 0.247 7.32 96.32 0.29
8/3/2022 8:45:00 AM 18.73 65.714 0.247 7.3 97.99 0.28
8/3/2022 9:00:00 AM 18.95 66.11 0.248 7.37 98.47 0.28
8/3/2022 9:15:00 AM 19.2 66.56 0.249 7.35 95.42 0.28
8/3/2022 9:30:00 AM 19.48 67.064 0.249 7.34 94.83 0.28
8/3/2022 9:45:00 AM 19.75 67.55 0.249 7.36 94.82 0.28
8/3/2022 10:00:00 AM 20.07 68.126 0.248 7.35 94.58 0.27
8/3/2022 10:15:00 AM 20.41 68.738 0.247 7.31 96.17 0.27
8/3/2022 10:30:00 AM 20.74 69.332 0.248 7.28 94.79 0.27
8/3/2022 10:45:00 AM 21.08 69.944 0.248 7.34 93.52 0.26
8/3/2022 11:00:00 AM 21.44 70.592 0.248 7.29 96.15 0.26
8/3/2022 11:15:00 AM 21.82 71.276 0.249 7.26 95.07 0.26
8/3/2022 11:30:00 AM 22.23 72.014 0.249 7.26 95.74 0.26
8/3/2022 11:45:00 AM 22.6 72.68 0.249 7.25 96.26 0.25
8/3/2022 12:00:00 PM 22.86 73.148 0.249 7.24 91.61 0.25
8/3/2022 12:15:00 PM 22.97 73.346 0.248 7.25 92.52 0.25
8/3/2022 12:30:00 PM 23.41 74.138 0.249 7.25 91.4 0.25
8/3/2022 12:45:00 PM 23.85 74.93 0.248 7.27 90.13 0.25
8/3/2022 1:00:00 PM 24.26 75.668 0.25 7.29 88.86 0.24
8/3/2022 1:15:00 PM 24.59 76.262 0.25 7.26 88.68 0.24
8/3/2022 1:30:00 PM 24.93 76.874 0.251 7.31 89.31 0.24
8/3/2022 1:45:00 PM 25.21 77.378 0.251 7.28 88.49 0.24
8/3/2022 2:00:00 PM 25.51 77.918 0.251 7.28 88.67 0.24
8/3/2022 2:15:00 PM 25.72 78.296 0.252 7.26 88.52 0.24
8/3/2022 2:30:00 PM 26 78.8 0.252 7.23 87.96 0.23
8/3/2022 2:45:00 PM 26.34 79.412 0.252 7.28 89.19 0.23
8/3/2022 3:00:00 PM 26.59 79.862 0.253 7.22 87.43 0.23
8/3/2022 3:15:00 PM 26.84 80.312 0.253 7.24 86.88 0.23
8/3/2022 3:30:00 PM 27.06 80.708 0.253 7.23 86.2 0.23
8/3/2022 3:45:00 PM 27.24 81.032 0.254 7.23 86.22 0.23
8/3/2022 4:00:00 PM 27.39 81.302 0.254 7.23 85.03 0.23
8/3/2022 4:15:00 PM 27.51 81.518 0.254 7.27 85.93 0.23
8/3/2022 4:30:00 PM 27.57 81.626 0.255 7.23 84.01 0.23
8/3/2022 4:45:00 PM 27.62 81.716 0.255 7.23 85.19 0.23
8/3/2022 5:00:00 PM 27.63 81.734 0.254 7.23 84.4 0.23
8/3/2022 5:15:00 PM 27.61 81.698 0.254 7.25 84.88 0.23
8/3/2022 5:30:00 PM 27.55 81.59 0.254 7.23 84.24 0.23
8/3/2022 5:45:00 PM 27.5 81.5 0.255 7.24 84.6 0.23
8/3/2022 6:00:00 PM 27.42 81.356 0.255 7.24 84.24 0.23
8/3/2022 6:15:00 PM 27.29 81.122 0.255 7.23 83.26 0.23
8/3/2022 6:30:00 PM 27.13 80.834 0.252 7.23 82.81 0.23
8/3/2022 6:45:00 PM 26.96 80.528 0.252 7.24 83.38 0.23
8/3/2022 7:00:00 PM 26.76 80.168 0.252 7.27 83.04 0.24
8/3/2022 7:15:00 PM 26.55 79.79 0.252 7.26 83.07 0.24
8/3/2022 7:30:00 PM 26.32 79.376 0.251 7.25 83.24 0.24
8/3/2022 7:45:00 PM 26.09 78.962 0.243 7.25 82.9 0.24
8/3/2022 8:00:00 PM 25.87 78.566 0.241 7.26 82.99 0.24
8/3/2022 8:15:00 PM 25.64 78.152 0.239 7.27 81.72 0.24
8/3/2022 8:30:00 PM 25.39 77.702 0.24 7.27 80.62 0.24
8/3/2022 8:45:00 PM 25.11 77.198 0.239 7.26 81.36 0.25
8/3/2022 9:00:00 PM 24.84 76.712 0.238 7.24 81.8 0.25
8/3/2022 9:15:00 PM 24.57 76.226 0.236 7.25 82.34 0.25
8/3/2022 9:30:00 PM 24.32 75.776 0.236 7.26 81.35 0.25
8/3/2022 9:45:00 PM 24.07 75.326 0.236 7.26 81.05 0.25
8/3/2022 10:00:00 PM 23.83 74.894 0.236 7.29 79.45 0.25
8/3/2022 10:15:00 PM 23.6 74.48 0.236 7.29 81.86 0.26
8/3/2022 10:30:00 PM 23.39 74.102 0.236 7.28 81.09 0.26
8/3/2022 10:45:00 PM 23.2 73.76 0.236 7.28 80.87 0.26
8/3/2022 11:00:00 PM 23 73.4 0.236 7.3 80.74 0.26
8/3/2022 11:15:00 PM 22.82 73.076 0.236 7.3 80.71 0.26
8/3/2022 11:30:00 PM 22.65 72.77 0.236 7.31 79.62 0.26
8/3/2022 11:45:00 PM 22.47 72.446 0.236 7.3 80.57 0.26
8/4/2022 12:00:00 AM 22.3 72.14 0.236 7.31 80.01 0.26
8/4/2022 12:15:00 AM 22.14 71.852 0.235 7.31 81.01 0.26
8/4/2022 12:30:00 AM 21.99 71.582 0.235 7.33 80.68 0.26
8/4/2022 12:45:00 AM 21.84 71.312 0.236 7.32 80.61 0.27
8/4/2022 1:00:00 AM 21.7 71.06 0.235 7.3 79.51 0.27
8/4/2022 1:15:00 AM 21.56 70.808 0.235 7.31 79.51 0.27
8/4/2022 1:30:00 AM 21.43 70.574 0.235 7.3 79.26 0.27
8/4/2022 1:45:00 AM 21.3 70.34 0.235 7.31 78.89 0.27
8/4/2022 2:00:00 AM 21.16 70.088 0.235 7.33 78.96 0.27
8/4/2022 2:15:00 AM 21.06 69.908 0.235 7.34 78.77 0.27
8/4/2022 2:30:00 AM 20.94 69.692 0.235 7.33 79.44 0.27
8/4/2022 2:45:00 AM 20.83 69.494 0.235 7.34 80.66 0.27
8/4/2022 3:00:00 AM 20.71 69.278 0.235 7.33 80.46 0.27
8/4/2022 3:15:00 AM 20.62 69.116 0.234 7.38 79.63 0.27
8/4/2022 3:30:00 AM 20.52 68.936 0.235 7.34 81.45 0.27
8/4/2022 3:45:00 AM 20.42 68.756 0.234 7.34 81.69 0.27
8/4/2022 4:00:00 AM 20.34 68.612 0.235 7.34 82 0.27
8/4/2022 4:15:00 AM 20.26 68.468 0.234 7.33 81.83 0.27
8/4/2022 4:30:00 AM 20.17 68.306 0.234 7.34 82.17 0.28
8/4/2022 4:45:00 AM 20.1 68.18 0.234 7.34 85.41 0.28
8/4/2022 5:00:00 AM 20.02 68.036 0.234 7.34 85.06 0.28
8/4/2022 5:15:00 AM 19.94 67.892 0.234 7.38 84.15 0.28
8/4/2022 5:30:00 AM 19.87 67.766 0.234 7.35 85.79 0.28
8/4/2022 5:45:00 AM 19.81 67.658 0.231 7.37 84.75 0.28
8/4/2022 6:00:00 AM 19.74 67.532 0.23 7.4 77.86 0.28
8/4/2022 6:15:00 AM 19.7 67.46 0.232 7.38 79.4 0.28
8/4/2022 6:30:00 AM 19.67 67.406 0.231 7.37 78.23 0.28
8/4/2022 6:45:00 AM 19.62 67.316 0.232 7.36 78.67 0.28
8/4/2022 7:00:00 AM 19.58 67.244 0.232 7.38 80.72 0.28
8/4/2022 7:15:00 AM 19.58 67.244 0.232 7.37 80.78 0.28
8/4/2022 7:30:00 AM 19.59 67.262 0.232 7.38 81.65 0.28
8/4/2022 7:45:00 AM 19.64 67.352 0.233 7.38 78.84 0.28
8/4/2022 8:00:00 AM 19.72 67.496 0.233 7.38 81.38 0.28
8/4/2022 8:15:00 AM 19.83 67.694 0.233 7.37 80.23 0.28
8/4/2022 8:30:00 AM 19.97 67.946 0.234 7.36 82.79 0.28
8/4/2022 8:45:00 AM 20.15 68.27 0.233 7.38 78.24 0.27
8/4/2022 9:00:00 AM 20.38 68.684 0.234 7.36 81.26 0.27
8/4/2022 9:15:00 AM 20.66 69.188 0.234 7.37 79.84 0.27
8/4/2022 9:30:00 AM 20.98 69.764 0.235 7.39 79.93 0.27
8/4/2022 9:45:00 AM 21.22 70.196 0.235 7.35 82.56 0.26
8/4/2022 10:00:00 AM 21.51 70.718 0.235 7.38 82.16 0.26
8/4/2022 10:15:00 AM 21.86 71.348 0.237 7.38 82.12 0.26
8/4/2022 10:30:00 AM 22.23 72.014 0.238 7.35 76.38 0.25
8/4/2022 10:45:00 AM 22.53 72.554 0.238 7.34 75.72 0.25
8/4/2022 11:00:00 AM 22.81 73.058 0.238 7.33 77.41 0.25
8/4/2022 11:15:00 AM 22.94 73.292 0.237 7.33 75.3 0.25
8/4/2022 11:30:00 AM 23.2 73.76 0.238 7.38 72.02 0.25
8/4/2022 11:45:00 AM 23.54 74.372 0.239 7.35 74.05 0.25
8/4/2022 12:00:00 PM 23.95 75.11 0.24 7.32 74.46 0.24
8/4/2022 12:15:00 PM 24.06 75.308 0.24 7.34 73.9 0.24
8/4/2022 12:30:00 PM 23.98 75.164 0.24 7.32 76.27 0.25
8/4/2022 12:45:00 PM 23.91 75.038 0.24 7.31 75.72 0.25
8/4/2022 1:00:00 PM 23.96 75.128 0.241 7.32 75.61 0.25
8/4/2022 1:15:00 PM 24.37 75.866 0.242 7.31 75.46 0.24
8/4/2022 1:30:00 PM 24.69 76.442 0.241 7.36 74.23 0.24
8/4/2022 1:45:00 PM 25.04 77.07201 0.241 7.34 73.18 0.24
8/4/2022 2:00:00 PM 25.16 77.288 0.241 7.3 75.29 0.24
8/4/2022 2:15:00 PM 25.29 77.522 0.241 7.34 74.03 0.24
8/4/2022 2:30:00 PM 25.51 77.918 0.242 7.33 75.04 0.24
8/4/2022 2:45:00 PM 25.54 77.972 0.242 7.31 73.92 0.24
8/4/2022 3:00:00 PM 25.38 77.684 0.241 7.31 72.3 0.24
8/4/2022 3:15:00 PM 25.14 77.252 0.241 7.3 73.92 0.24
8/4/2022 3:30:00 PM 24.93 76.874 0.241 7.32 75.71 0.24
8/4/2022 3:45:00 PM 24.76 76.568 0.241 7.31 74.75 0.24
8/4/2022 4:00:00 PM 24.29 75.722 0.238 7.32 74.54 0.25
8/4/2022 4:15:00 PM 23.45 74.21 0.226 7.3 70.93 0.25
8/4/2022 4:30:00 PM 23.33 73.994 0.224 7.34 70.62 0.26
8/4/2022 4:45:00 PM 22.89 73.202 0.223 7.35 70.3 0.26
8/4/2022 5:00:00 PM 22.62 72.716 0.222 7.38 68.96 0.26
8/4/2022 5:15:00 PM 22.57 72.626 0.22 7.39 69.86 0.26
8/4/2022 5:30:00 PM 22.48 72.464 0.217 7.41 70.8 0.26
8/4/2022 5:45:00 PM 22.32 72.176 0.214 7.4 71.89 0.26
8/4/2022 6:00:00 PM 22.17 71.906 0.212 7.43 71.57 0.26
8/4/2022 6:15:00 PM 22.07 71.726 0.211 7.43 70.22 0.26
8/4/2022 6:30:00 PM 22.01 71.618 0.21 7.44 70.24 0.26
8/4/2022 6:45:00 PM 21.95 71.51 0.209 7.44 69.04 0.26
8/4/2022 7:00:00 PM 21.91 71.438 0.207 7.43 70.33 0.27
8/4/2022 7:15:00 PM 21.86 71.348 0.207 7.44 70.85 0.27
8/4/2022 7:30:00 PM 21.8 71.24 0.207 7.43 71.67 0.27
8/4/2022 7:45:00 PM 21.73 71.114 0.206 7.46 69.75 0.27
8/4/2022 8:00:00 PM 21.65 70.97 0.207 7.42 71.64 0.27
8/4/2022 8:15:00 PM 21.57 70.826 0.208 7.43 70.08 0.27
8/4/2022 8:30:00 PM 21.48 70.664 0.208 7.43 70.27 0.27
8/4/2022 8:45:00 PM 21.39 70.502 0.205 7.41 69.98 0.27
8/4/2022 9:00:00 PM 21.3 70.34 0.204 7.43 69.62 0.27
8/4/2022 9:15:00 PM 21.22 70.196 0.204 7.42 69.27 0.27
8/4/2022 9:30:00 PM 21.13 70.034 0.204 7.42 71.56 0.27
8/4/2022 9:45:00 PM 21.05 69.89 0.205 7.42 71.93 0.27
8/4/2022 10:00:00 PM 20.97 69.746 0.205 7.43 71.38 0.27
8/4/2022 10:15:00 PM 20.89 69.602 0.207 7.43 70.2 0.27
8/4/2022 10:30:00 PM 20.8 69.44 0.206 7.45 67.72 0.27
8/4/2022 10:45:00 PM 20.72 69.296 0.207 7.41 68.27 0.27
8/4/2022 11:00:00 PM 20.64 69.152 0.209 7.4 69.07 0.27
8/4/2022 11:15:00 PM 20.57 69.026 0.209 7.42 66.9 0.27
8/4/2022 11:30:00 PM 20.5 68.9 0.208 7.4 67.08 0.27
8/4/2022 11:45:00 PM 20.43 68.774 0.208 7.41 68.69 0.27
8/5/2022 12:00:00 AM 20.37 68.666 0.209 7.41 68.36 0.27
8/5/2022 12:15:00 AM 20.32 68.576 0.208 7.41 66.83 0.27
8/5/2022 12:30:00 AM 20.27 68.486 0.21 7.43 68.17 0.28
8/5/2022 12:45:00 AM 20.21 68.378 0.211 7.43 69.68 0.28
8/5/2022 1:00:00 AM 20.17 68.306 0.211 7.44 70.47 0.28
8/5/2022 1:15:00 AM 20.12 68.216 0.21 7.43 71.56 0.28
8/5/2022 1:30:00 AM 20.08 68.144 0.211 7.44 73.34 0.28
8/5/2022 1:45:00 AM 20.07 68.126 0.212 7.4 73.65 0.28
8/5/2022 2:00:00 AM 20.11 68.198 0.211 7.43 75.42 0.28
8/5/2022 2:15:00 AM 20.07 68.126 0.211 7.37 81.7 0.28
8/5/2022 2:30:00 AM 20 68 0.211 7.44 78.51 0.28
8/5/2022 2:45:00 AM 19.94 67.892 0.21 7.43 77.29 0.28
8/5/2022 3:00:00 AM 19.89 67.802 0.212 7.43 78.28 0.28
8/5/2022 3:15:00 AM 19.82 67.676 0.211 7.39 78.59 0.28
8/5/2022 3:30:00 AM 19.76 67.568 0.212 7.43 78.98 0.28
8/5/2022 3:45:00 AM 19.69 67.442 0.212 7.43 78.71 0.28
8/5/2022 4:00:00 AM 19.63 67.334 0.213 7.45 77.12 0.28
8/5/2022 4:15:00 AM 19.58 67.244 0.214 7.45 78.48 0.28
8/5/2022 4:30:00 AM 19.53 67.154 0.214 7.43 76.8 0.28
8/5/2022 4:45:00 AM 19.49 67.082 0.215 7.43 77.38 0.28
8/5/2022 5:00:00 AM 19.46 67.028 0.215 7.42 76.62 0.28
8/5/2022 5:15:00 AM 19.42 66.956 0.215 7.38 76.61 0.28
8/5/2022 5:30:00 AM 19.38 66.884 0.216 7.42 77.1 0.28
8/5/2022 5:45:00 AM 19.35 66.83 0.216 7.43 74.87 0.28
8/5/2022 6:00:00 AM 19.31 66.758 0.217 7.42 75.4 0.28
8/5/2022 6:15:00 AM 19.28 66.704 0.217 7.43 76.56 0.28
8/5/2022 6:30:00 AM 19.25 66.65 0.217 7.39 76.21 0.28
8/5/2022 6:45:00 AM 19.22 66.596 0.218 7.46 69.69 0.28
8/5/2022 7:00:00 AM 19.2 66.56 0.218 7.49 70.89 0.28
8/5/2022 7:15:00 AM 19.18 66.524 0.219 7.47 72.41 0.28
8/5/2022 7:30:00 AM 19.18 66.524 0.219 7.49 71.55 0.28
8/5/2022 7:45:00 AM 19.17 66.506 0.219 7.49 72.33 0.28
8/5/2022 8:00:00 AM 19.17 66.506 0.22 7.5 73.01 0.28
8/5/2022 8:15:00 AM 19.18 66.524 0.22 7.49 72.94 0.28
8/5/2022 8:30:00 AM 19.21 66.578 0.221 7.48 72.98 0.28
8/5/2022 8:45:00 AM 19.26 66.668 0.222 7.49 72.86 0.28
8/5/2022 9:00:00 AM 19.32 66.776 0.221 7.49 73.34 0.28
8/5/2022 9:15:00 AM 19.39 66.902 0.221 7.47 74.95 0.28
8/5/2022 9:30:00 AM 19.46 67.028 0.221 7.43 71.48 0.28
8/5/2022 9:45:00 AM 19.59 67.262 0.221 7.42 75.24 0.28
8/5/2022 10:00:00 AM 19.73 67.514 0.221 7.48 79.09 0.28
8/5/2022 10:15:00 AM 19.87 67.766 0.221 7.47 78.25 0.28
8/5/2022 10:30:00 AM 20.08 68.144 0.222 7.41 78.63 0.27
8/5/2022 10:45:00 AM 20.38 68.684 0.222 7.43 80.3 0.27
8/5/2022 11:00:00 AM 20.72 69.296 0.222 7.47 78.96 0.26
8/5/2022 11:15:00 AM 20.97 69.746 0.223 7.46 80.34 0.26
8/5/2022 11:30:00 AM 21.2 70.16 0.223 7.41 80.09 0.26
8/5/2022 11:45:00 AM 21.39 70.502 0.224 7.42 79.34 0.26
8/5/2022 12:00:00 PM 21.55 70.79 0.224 7.39 78.58 0.26
8/5/2022 12:15:00 PM 21.75 71.15 0.224 7.41 75.82 0.26
8/5/2022 12:30:00 PM 21.9 71.42 0.224 7.4 78.71 0.26
8/5/2022 12:45:00 PM 22.11 71.798 0.224 7.4 79.52 0.26
8/5/2022 1:00:00 PM 22.35 72.23 0.224 7.39 80.82 0.25
8/5/2022 1:15:00 PM 22.65 72.77 0.225 7.39 81.4 0.25
8/5/2022 1:30:00 PM 22.83 73.094 0.225 7.36 82.28 0.25
8/5/2022 1:45:00 PM 22.9 73.22 0.224 7.37 81.45 0.25
8/5/2022 2:00:00 PM 22.99 73.382 0.225 7.36 82.03 0.25
8/5/2022 2:15:00 PM 23.07 73.526 0.224 7.36 80.48 0.25
8/5/2022 2:30:00 PM 23.21 73.778 0.224 7.35 80.53 0.25
8/5/2022 2:45:00 PM 23.44 74.192 0.223 7.37 82.39 0.25
8/5/2022 3:00:00 PM 24.16 75.488 0.221 7.37 81.26 0.24
8/5/2022 3:15:00 PM 24.68 76.424 0.218 7.35 81.27 0.24
8/5/2022 3:30:00 PM 24.85 76.73 0.216 7.35 82.68 0.24
8/5/2022 3:45:00 PM 24.96 76.92799 0.215 7.34 84.38 0.24
8/5/2022 4:00:00 PM 24.94 76.892 0.216 7.34 84.22 0.24
8/5/2022 4:15:00 PM 24.7 76.46 0.217 7.33 83.17 0.24
8/5/2022 4:30:00 PM 24.48 76.064 0.218 7.35 82.97 0.24
8/5/2022 4:45:00 PM 24.34 75.812 0.219 7.34 83.65 0.24
8/5/2022 5:00:00 PM 24.25 75.65 0.219 7.35 84.19 0.25
8/5/2022 5:15:00 PM 24.18 75.524 0.219 7.34 83.97 0.25
8/5/2022 5:30:00 PM 24.09 75.362 0.216 7.34 84.15 0.25
8/5/2022 5:45:00 PM 24.08 75.344 0.203 7.36 82.34 0.25
8/5/2022 6:00:00 PM 23.82 74.876 0.2 7.35 85.37 0.25
8/5/2022 6:15:00 PM 23.49 74.282 0.202 7.3 85.75 0.25
8/5/2022 6:30:00 PM 23.34 74.012 0.199 7.3 86.07 0.26
8/5/2022 6:45:00 PM 23.21 73.778 0.196 7.36 86.52 0.26
8/5/2022 7:00:00 PM 23.08 73.544 0.194 7.32 85.27 0.26
8/5/2022 7:15:00 PM 22.96 73.328 0.19 7.31 89.88 0.26
8/5/2022 7:30:00 PM 22.85 73.13 0.187 7.32 90.69 0.26
8/5/2022 7:45:00 PM 22.75 72.95 0.185 7.3 94.03 0.26
8/5/2022 8:00:00 PM 22.64 72.752 0.184 7.32 94.43 0.26
8/5/2022 8:15:00 PM 22.53 72.554 0.183 7.32 92.86 0.26
8/5/2022 8:30:00 PM 22.41 72.338 0.184 7.37 90.41 0.26
8/5/2022 8:45:00 PM 22.27 72.086 0.185 7.35 94.84 0.26
8/5/2022 9:00:00 PM 21.98 71.564 0.187 7.35 94.03 0.27
8/5/2022 9:15:00 PM 21.65 70.97 0.189 7.4 93.71 0.27
8/5/2022 9:30:00 PM 21.41 70.538 0.192 7.4 93.9 0.27
8/5/2022 9:45:00 PM 21.24 70.232 0.194 7.37 95.29 0.27
8/5/2022 10:00:00 PM 21.13 70.034 0.197 7.37 97.15 0.27
8/5/2022 10:15:00 PM 21.04 69.872 0.199 7.4 95.12 0.27
8/5/2022 10:30:00 PM 20.98 69.764 0.2 7.39 96.28 0.27
8/5/2022 10:45:00 PM 20.92 69.656 0.202 7.35 96.47 0.27
8/5/2022 11:00:00 PM 20.86 69.548 0.203 7.36 96.29 0.27
8/5/2022 11:15:00 PM 20.81 69.458 0.203 7.39 94.89 0.27
8/5/2022 11:30:00 PM 20.76 69.368 0.205 7.37 96.77 0.27
8/5/2022 11:45:00 PM 20.72 69.296 0.206 7.4 94.42 0.27
8/6/2022 12:00:00 AM 20.68 69.224 0.207 7.42 93.87 0.27
8/6/2022 12:15:00 AM 20.66 69.188 0.207 7.35 95.14 0.27
8/6/2022 12:30:00 AM 20.68 69.224 0.207 7.38 95.4 0.27
8/6/2022 12:45:00 AM 20.86 69.548 0.207 7.37 96.03 0.27
8/6/2022 1:00:00 AM 21.04 69.872 0.207 7.39 95.8 0.27
8/6/2022 1:15:00 AM 21.17 70.106 0.207 7.37 97.89 0.27
8/6/2022 1:30:00 AM 21.32 70.376 0.209 7.37 98.24 0.26
8/6/2022 1:45:00 AM 21.49 70.682 0.208 7.37 98.78 0.27
8/6/2022 2:00:00 AM 21.63 70.934 0.205 7.34 96.12 0.26
8/6/2022 2:15:00 AM 21.7 71.06 0.206 7.34 99.55 0.26
8/6/2022 2:30:00 AM 21.72 71.096 0.205 7.34 99.18 0.26
8/6/2022 2:45:00 AM 21.69 71.042 0.203 7.35 98.07 0.26
8/6/2022 3:00:00 AM 21.65 70.97 0.203 7.37 97.47 0.26
8/6/2022 3:15:00 AM 21.62 70.916 0.2 7.33 97.19 0.26
8/6/2022 3:30:00 AM 21.59 70.862 0.196 7.32 97.02 0.26
8/6/2022 3:45:00 AM 21.57 70.826 0.195 7.35 96.51 0.26
8/6/2022 4:00:00 AM 21.56 70.808 0.195 7.34 96.3 0.26
8/6/2022 4:15:00 AM 21.55 70.79 0.195 7.35 95.32 0.26
8/6/2022 4:30:00 AM 21.55 70.79 0.194 7.34 95.04 0.26
8/6/2022 4:45:00 AM 21.56 70.808 0.191 7.34 92.41 0.26
8/6/2022 5:00:00 AM 21.56 70.808 0.193 7.35 94.37 0.26
8/6/2022 5:15:00 AM 21.55 70.79 0.192 7.33 94.29 0.26
8/6/2022 5:30:00 AM 21.54 70.772 0.192 7.33 94.13 0.26
8/6/2022 5:45:00 AM 21.51 70.718 0.192 7.33 94.03 0.26
8/6/2022 6:00:00 AM 21.47 70.646 0.191 7.34 89.53 0.27
8/6/2022 6:15:00 AM 21.43 70.574 0.191 7.34 90.98 0.27
8/6/2022 6:30:00 AM 21.38 70.484 0.19 7.34 92.29 0.27
8/6/2022 6:45:00 AM 21.32 70.376 0.189 7.35 92.98 0.27
8/6/2022 7:00:00 AM 21.25 70.25 0.189 7.34 93.97 0.27
8/6/2022 7:15:00 AM 21.2 70.16 0.188 7.35 95.9 0.27
8/6/2022 7:30:00 AM 21.15 70.07 0.185 7.37 94.54 0.27
8/6/2022 7:45:00 AM 21.11 69.998 0.187 7.39 94.77 0.27
8/6/2022 8:00:00 AM 21.08 69.944 0.186 7.39 94.31 0.27
8/6/2022 8:15:00 AM 21.09 69.962 0.185 7.38 94.59 0.27
8/6/2022 8:30:00 AM 21.12 70.016 0.185 7.34 93.11 0.27
8/6/2022 8:45:00 AM 21.15 70.07 0.184 7.38 93.16 0.27
8/6/2022 9:00:00 AM 21.19 70.142 0.184 7.38 92.66 0.27
8/6/2022 9:15:00 AM 21.24 70.232 0.184 7.39 92.44 0.27
8/6/2022 9:30:00 AM 21.33 70.394 0.184 7.39 92.09 0.27
8/6/2022 9:45:00 AM 21.42 70.556 0.184 7.39 92.2 0.27
8/6/2022 10:00:00 AM 21.53 70.754 0.184 7.37 93.11 0.27
8/6/2022 10:15:00 AM 21.64 70.952 0.181 7.42 91.53 0.27
8/6/2022 10:30:00 AM 21.7 71.06 0.182 7.41 93.8 0.27
8/6/2022 10:45:00 AM 21.77 71.186 0.183 7.4 94.23 0.27
8/6/2022 11:00:00 AM 21.87 71.366 0.183 7.36 93.53 0.26
8/6/2022 11:15:00 AM 21.94 71.492 0.182 7.38 94.87 0.26
8/6/2022 11:30:00 AM 21.99 71.582 0.182 7.36 95.44 0.26
8/6/2022 11:45:00 AM 22.07 71.726 0.181 7.4 95.83 0.26
8/6/2022 12:00:00 PM 22.09 71.762 0.181 7.37 96.35 0.26
8/6/2022 12:15:00 PM 22.17 71.906 0.181 7.44 95.75 0.26
8/6/2022 12:30:00 PM 22.26 72.068 0.182 7.41 95.83 0.26
8/6/2022 12:45:00 PM 22.38 72.284 0.181 7.39 96.3 0.26
8/6/2022 1:00:00 PM 22.46 72.42799 0.179 7.42 95.61 0.26
8/6/2022 1:15:00 PM 22.55 72.59 0.179 7.38 96.88 0.26
8/6/2022 1:30:00 PM 22.69 72.842 0.178 7.43 95.59 0.26
8/6/2022 1:45:00 PM 22.76 72.968 0.177 7.45 97.25 0.26
8/6/2022 2:00:00 PM 22.87 73.166 0.176 7.45 98.77 0.26
8/6/2022 2:15:00 PM 22.97 73.346 0.175 7.44 100.64 0.26
8/6/2022 2:30:00 PM 23.21 73.778 0.176 7.36 99.76 0.25
8/6/2022 2:45:00 PM 23.3 73.94 0.176 7.4 100.02 0.25
8/6/2022 3:00:00 PM 23.39 74.102 0.176 7.36 99.43 0.25
8/6/2022 3:15:00 PM 23.47 74.246 0.176 7.43 99 0.25
8/6/2022 3:30:00 PM 23.63 74.534 0.177 7.43 100.58 0.25
8/6/2022 3:45:00 PM 23.74 74.732 0.175 7.4 100.39 0.25
8/6/2022 4:00:00 PM 23.85 74.93 0.177 7.38 100.96 0.25
8/6/2022 4:15:00 PM 23.87 74.966 0.177 7.45 100.16 0.25
8/6/2022 4:30:00 PM 23.84 74.912 0.177 7.4 100.28 0.25
8/6/2022 4:45:00 PM 23.73 74.714 0.176 7.4 100.33 0.25
8/6/2022 5:00:00 PM 23.93 75.074 0.176 7.47 100 0.25
8/6/2022 5:15:00 PM 24.01 75.218 0.174 7.4 99.41 0.25
8/6/2022 5:30:00 PM 23.99 75.182 0.174 7.43 99.74 0.25
8/6/2022 5:45:00 PM 23.99 75.182 0.173 7.41 99.72 0.25
8/6/2022 6:00:00 PM 23.98 75.164 0.174 7.48 100.14 0.25
8/6/2022 6:15:00 PM 23.98 75.164 0.173 7.41 101.18 0.25
8/6/2022 6:30:00 PM 23.91 75.038 0.172 7.45 100.6 0.25
8/6/2022 6:45:00 PM 23.8 74.84 0.173 7.44 101.32 0.25
8/6/2022 7:00:00 PM 23.67 74.606 0.172 7.43 96.8 0.26
8/6/2022 7:15:00 PM 23.53 74.354 0.172 7.41 97.26 0.26
8/6/2022 7:30:00 PM 23.43 74.174 0.172 7.47 98.86 0.26
8/6/2022 7:45:00 PM 23.34 74.012 0.172 7.43 98.88 0.26
8/6/2022 8:00:00 PM 23.25 73.85 0.172 7.43 100.25 0.26
8/6/2022 8:15:00 PM 23.15 73.67 0.171 7.44 101.01 0.26
8/6/2022 8:30:00 PM 23.04 73.472 0.171 7.46 101.54 0.26
8/6/2022 8:45:00 PM 22.93 73.274 0.17 7.48 102.19 0.26
8/6/2022 9:00:00 PM 22.83 73.094 0.17 7.43 103.06 0.26
8/6/2022 9:15:00 PM 22.73 72.914 0.17 7.47 101.04 0.26
8/6/2022 9:30:00 PM 22.65 72.77 0.171 7.43 100.12 0.26
8/6/2022 9:45:00 PM 22.57 72.626 0.171 7.42 101.82 0.26
8/6/2022 10:00:00 PM 22.48 72.464 0.171 7.42 100.41 0.26
8/6/2022 10:15:00 PM 22.41 72.338 0.172 7.44 97.93 0.26
8/6/2022 10:30:00 PM 22.33 72.194 0.172 7.41 95.94 0.27
8/6/2022 10:45:00 PM 22.25 72.05 0.173 7.42 95.24 0.27
8/6/2022 11:00:00 PM 22.17 71.906 0.173 7.4 94.85 0.27
8/6/2022 11:15:00 PM 22.1 71.78 0.173 7.44 94.42 0.27
8/6/2022 11:30:00 PM 22.03 71.654 0.174 7.42 94.74 0.27
8/6/2022 11:45:00 PM 21.96 71.528 0.174 7.4 94.73 0.27
8/7/2022 12:00:00 AM 21.89 71.402 0.173 7.43 94.36 0.27
8/7/2022 12:15:00 AM 21.82 71.276 0.174 7.45 94.88 0.27
8/7/2022 12:30:00 AM 21.75 71.15 0.175 7.43 96.25 0.27
8/7/2022 12:45:00 AM 21.68 71.024 0.175 7.43 96.82 0.27
8/7/2022 1:00:00 AM 21.61 70.898 0.175 7.43 97.34 0.27
8/7/2022 1:15:00 AM 21.54 70.772 0.176 7.41 97.53 0.27
8/7/2022 1:30:00 AM 21.47 70.646 0.176 7.44 98.37 0.27
8/7/2022 1:45:00 AM 21.4 70.52 0.176 7.44 98.45 0.27
8/7/2022 2:00:00 AM 21.34 70.412 0.177 7.46 98.37 0.27
8/7/2022 2:15:00 AM 21.28 70.304 0.177 7.44 98.28 0.27
8/7/2022 2:30:00 AM 21.22 70.196 0.177 7.48 99.45 0.27
8/7/2022 2:45:00 AM 21.16 70.088 0.177 7.48 99.22 0.27
8/7/2022 3:00:00 AM 21.11 69.998 0.178 7.46 101.27 0.27
8/7/2022 3:15:00 AM 21.05 69.89 0.179 7.45 104.63 0.27
8/7/2022 3:30:00 AM 21 69.8 0.179 7.48 106.96 0.27
8/7/2022 3:45:00 AM 20.96 69.728 0.179 7.49 107.09 0.27
8/7/2022 4:00:00 AM 20.93 69.674 0.18 7.42 108.17 0.27
8/7/2022 4:15:00 AM 20.89 69.602 0.18 7.48 108.42 0.27
8/7/2022 4:30:00 AM 20.85 69.53 0.18 7.5 107.78 0.27
8/7/2022 4:45:00 AM 20.82 69.476 0.181 7.47 108 0.27
8/7/2022 5:00:00 AM 20.79 69.422 0.181 7.49 108.01 0.27
8/7/2022 5:15:00 AM 20.76 69.368 0.182 7.53 107.55 0.27
8/7/2022 5:30:00 AM 20.72 69.296 0.181 7.51 105.2 0.27
8/7/2022 5:45:00 AM 20.69 69.242 0.181 7.48 105.9 0.27
8/7/2022 6:00:00 AM 20.66 69.188 0.182 7.53 105.92 0.28
8/7/2022 6:15:00 AM 20.64 69.152 0.183 7.53 109.11 0.27
8/7/2022 6:30:00 AM 20.61 69.098 0.183 7.46 108.35 0.27
8/7/2022 6:45:00 AM 20.59 69.062 0.183 7.48 108.47 0.28
8/7/2022 7:00:00 AM 20.58 69.044 0.183 7.52 107.7 0.28
8/7/2022 7:15:00 AM 20.57 69.026 0.183 7.52 104.23 0.28
8/7/2022 7:30:00 AM 20.57 69.026 0.183 7.53 104.87 0.27
8/7/2022 7:45:00 AM 20.59 69.062 0.182 7.53 103.73 0.27
8/7/2022 8:00:00 AM 20.63 69.134 0.183 7.53 101.98 0.27
8/7/2022 8:15:00 AM 20.67 69.206 0.181 7.51 102.59 0.27
8/7/2022 8:30:00 AM 20.71 69.278 0.184 7.47 103.25 0.27
8/7/2022 8:45:00 AM 20.76 69.368 0.185 7.48 103.85 0.27
8/7/2022 9:00:00 AM 20.85 69.53 0.186 7.48 104.85 0.27
8/7/2022 9:15:00 AM 20.92 69.656 0.186 7.5 104.87 0.27
8/7/2022 9:30:00 AM 21.01 69.818 0.187 7.47 104.29 0.27
8/7/2022 9:45:00 AM 21.08 69.944 0.188 7.46 104.72 0.27
8/7/2022 10:00:00 AM 21.13 70.034 0.187 7.48 105.16 0.27
8/7/2022 10:15:00 AM 21.24 70.232 0.188 7.49 105.08 0.27
8/7/2022 10:30:00 AM 21.36 70.448 0.188 7.48 105.11 0.27
8/7/2022 10:45:00 AM 21.51 70.718 0.189 7.48 104.39 0.27
8/7/2022 11:00:00 AM 21.72 71.096 0.188 7.49 104.81 0.26
8/7/2022 11:15:00 AM 22.05 71.69 0.19 7.46 105.78 0.26
8/7/2022 11:30:00 AM 22.39 72.302 0.191 7.45 105.88 0.26
8/7/2022 11:45:00 AM 22.62 72.716 0.192 7.46 106.64 0.26
8/7/2022 12:00:00 PM 22.95 73.31 0.193 7.44 107 0.25
8/7/2022 12:15:00 PM 23.23 73.814 0.193 7.41 104.8 0.25
8/7/2022 12:30:00 PM 23.3 73.94 0.193 7.45 106.51 0.25
8/7/2022 12:45:00 PM 23.59 74.462 0.193 7.43 106.53 0.25
8/7/2022 1:00:00 PM 23.95 75.11 0.194 7.43 106.84 0.25
8/7/2022 1:15:00 PM 24.19 75.542 0.195 7.41 107.64 0.25
8/7/2022 1:30:00 PM 24.41 75.938 0.195 7.41 107.69 0.25
8/7/2022 1:45:00 PM 24.59 76.262 0.192 7.44 107.43 0.24
8/7/2022 2:00:00 PM 24.86 76.748 0.195 7.4 107.94 0.24
8/7/2022 2:15:00 PM 25.1 77.18 0.194 7.41 107.7 0.24
8/7/2022 2:30:00 PM 25.18 77.324 0.194 7.4 108.81 0.24
8/7/2022 2:45:00 PM 25.22 77.396 0.196 7.39 108.85 0.24
8/7/2022 3:00:00 PM 25.24 77.432 0.196 7.4 108.82 0.24
8/7/2022 3:15:00 PM 25.28 77.504 0.196 7.39 109.07 0.24
8/7/2022 3:30:00 PM 25.31 77.558 0.196 7.39 109.17 0.24
8/7/2022 3:45:00 PM 25.31 77.558 0.196 7.39 109.19 0.24
8/7/2022 4:00:00 PM 25.44 77.792 0.195 7.38 108.91 0.24
8/7/2022 4:15:00 PM 25.55 77.99 0.196 7.39 108.79 0.24
8/7/2022 4:30:00 PM 25.6 78.08 0.194 7.4 108.62 0.24
8/7/2022 4:45:00 PM 25.64 78.152 0.195 7.37 109.44 0.24
8/7/2022 5:00:00 PM 25.59 78.062 0.196 7.36 109.73 0.24
8/7/2022 5:15:00 PM 25.57 78.026 0.196 7.37 110.12 0.24
8/7/2022 5:30:00 PM 25.52 77.936 0.196 7.37 110.4 0.24
8/7/2022 5:45:00 PM 25.47 77.846 0.195 7.36 110.42 0.24
8/7/2022 6:00:00 PM 25.41 77.738 0.195 7.37 110.73 0.24
8/7/2022 6:15:00 PM 25.34 77.612 0.195 7.37 110.93 0.24
8/7/2022 6:30:00 PM 25.24 77.432 0.195 7.38 110.99 0.24
8/7/2022 6:45:00 PM 25.16 77.288 0.195 7.4 111.18 0.24
8/7/2022 7:00:00 PM 25.04 77.07201 0.195 7.39 111.16 0.25
8/7/2022 7:15:00 PM 24.88 76.784 0.192 7.4 110.93 0.25
8/7/2022 7:30:00 PM 24.71 76.478 0.195 7.42 111.26 0.25
8/7/2022 7:45:00 PM 24.55 76.19 0.194 7.41 111.01 0.25
8/7/2022 8:00:00 PM 24.38 75.884 0.194 7.42 111.05 0.25
8/7/2022 8:15:00 PM 24.21 75.578 0.194 7.42 110.91 0.25
8/7/2022 8:30:00 PM 24.06 75.308 0.192 7.42 110.92 0.25
8/7/2022 8:45:00 PM 23.93 75.074 0.191 7.44 111.11 0.26
8/7/2022 9:00:00 PM 23.8 74.84 0.19 7.42 111.36 0.26
8/7/2022 9:15:00 PM 23.68 74.624 0.191 7.39 111.3 0.26
8/7/2022 9:30:00 PM 23.56 74.408 0.193 7.45 111.08 0.26
8/7/2022 9:45:00 PM 23.45 74.21 0.192 7.39 111.72 0.26
8/7/2022 10:00:00 PM 23.35 74.03 0.191 7.42 111.15 0.26
8/7/2022 10:15:00 PM 23.25 73.85 0.192 7.41 112.22 0.26
8/7/2022 10:30:00 PM 23.16 73.688 0.193 7.38 111.94 0.26
8/7/2022 10:45:00 PM 23.08 73.544 0.193 7.39 112.42 0.26
8/7/2022 11:00:00 PM 23 73.4 0.192 7.39 112.67 0.26
8/7/2022 11:15:00 PM 22.92 73.256 0.192 7.41 112.76 0.26
8/7/2022 11:30:00 PM 22.84 73.112 0.193 7.42 112.82 0.26
8/7/2022 11:45:00 PM 22.76 72.968 0.192 7.38 112.56 0.26
8/8/2022 12:00:00 AM 22.69 72.842 0.194 7.46 112.58 0.26
8/8/2022 12:15:00 AM 22.62 72.716 0.194 7.39 112.73 0.26
8/8/2022 12:30:00 AM 22.55 72.59 0.193 7.4 112.85 0.26
8/8/2022 12:45:00 AM 22.47 72.446 0.19 7.43 112.58 0.26
8/8/2022 1:00:00 AM 22.4 72.32 0.192 7.38 112.81 0.27
8/8/2022 1:15:00 AM 22.32 72.176 0.193 7.43 112.83 0.27
8/8/2022 1:30:00 AM 22.25 72.05 0.194 7.42 112.71 0.27
8/8/2022 1:45:00 AM 22.17 71.906 0.194 7.44 112.52 0.27
8/8/2022 2:00:00 AM 22.1 71.78 0.194 7.41 112.56 0.27
8/8/2022 2:15:00 AM 22.02 71.636 0.193 7.43 112.52 0.27
8/8/2022 2:30:00 AM 21.94 71.492 0.193 7.41 112.63 0.27
8/8/2022 2:45:00 AM 21.87 71.366 0.193 7.42 112.18 0.27
8/8/2022 3:00:00 AM 21.79 71.222 0.192 7.44 112.44 0.27
8/8/2022 3:15:00 AM 21.71 71.078 0.191 7.41 112.46 0.27
8/8/2022 3:30:00 AM 21.64 70.952 0.188 7.45 112.28 0.27
8/8/2022 3:45:00 AM 21.56 70.808 0.191 7.43 112.66 0.27
8/8/2022 4:00:00 AM 21.49 70.682 0.192 7.44 112.88 0.27
8/8/2022 4:15:00 AM 21.42 70.556 0.192 7.39 113.16 0.27
8/8/2022 4:30:00 AM 21.36 70.448 0.191 7.44 113.12 0.27
8/8/2022 4:45:00 AM 21.29 70.32201 0.192 7.42 113.41 0.27
8/8/2022 5:00:00 AM 21.24 70.232 0.192 7.44 113.21 0.27
8/8/2022 5:15:00 AM 21.2 70.16 0.192 7.39 113.09 0.27
8/8/2022 5:30:00 AM 21.15 70.07 0.192 7.45 112.84 0.27
8/8/2022 5:45:00 AM 21.1 69.98 0.192 7.44 112.84 0.27
8/8/2022 6:00:00 AM 21.05 69.89 0.192 7.43 112.83 0.27
8/8/2022 6:15:00 AM 21 69.8 0.191 7.47 112.37 0.27
8/8/2022 6:30:00 AM 20.96 69.728 0.193 7.43 112.92 0.27
8/8/2022 6:45:00 AM 20.91 69.638 0.193 7.4 113 0.27
8/8/2022 7:00:00 AM 20.89 69.602 0.193 7.42 112.91 0.27
8/8/2022 7:15:00 AM 20.88 69.584 0.194 7.39 112.7 0.27
8/8/2022 7:30:00 AM 20.89 69.602 0.193 7.42 112.44 0.27
8/8/2022 7:45:00 AM 20.92 69.656 0.194 7.44 112.38 0.27
8/8/2022 8:00:00 AM 20.96 69.728 0.196 7.44 112.61 0.27
8/8/2022 8:15:00 AM 21.01 69.818 0.194 7.46 112.59 0.27
8/8/2022 8:30:00 AM 21.09 69.962 0.193 7.41 112.42 0.27
8/8/2022 8:45:00 AM 21.2 70.16 0.194 7.4 112.5 0.27
8/8/2022 9:00:00 AM 21.32 70.376 0.192 7.48 112.19 0.27
8/8/2022 9:15:00 AM 21.47 70.646 0.194 7.48 112.41 0.27
8/8/2022 9:30:00 AM 21.63 70.934 0.194 7.46 112.54 0.27
8/8/2022 9:45:00 AM 21.8 71.24 0.194 7.47 112.42 0.26
8/8/2022 10:00:00 AM 21.99 71.582 0.195 7.46 112.25 0.26
8/8/2022 10:15:00 AM 22.2 71.96 0.194 7.45 112.62 0.26
8/8/2022 10:30:00 AM 22.43 72.374 0.193 7.46 112.47 0.26
8/8/2022 10:45:00 AM 22.62 72.716 0.197 7.44 112.37 0.26
8/8/2022 11:00:00 AM 22.82 73.076 0.195 7.47 112.3 0.25
8/8/2022 11:15:00 AM 23.02 73.436 0.195 7.44 112.2 0.25
8/8/2022 11:30:00 AM 23.25 73.85 0.195 7.37 112.15 0.25
8/8/2022 11:45:00 AM 23.52 74.336 0.192 7.44 111.88 0.25
8/8/2022 12:00:00 PM 23.73 74.714 0.196 7.43 112.35 0.25
8/8/2022 12:15:00 PM 23.94 75.092 0.196 7.44 111.88 0.25
8/8/2022 12:30:00 PM 24.23 75.614 0.197 7.44 111.63 0.25
8/8/2022 12:45:00 PM 24.46 76.028 0.196 7.41 111.39 0.25
8/8/2022 1:00:00 PM 24.59 76.262 0.196 7.4 111.32 0.25
8/8/2022 1:15:00 PM 24.78 76.604 0.195 7.42 111.16 0.25
8/8/2022 1:30:00 PM 25.02 77.036 0.195 7.4 111.09 0.24
8/8/2022 1:45:00 PM 25.36 77.648 0.198 7.37 111 0.24
8/8/2022 2:00:00 PM 25.72 78.296 0.199 7.36 111.06 0.24
8/8/2022 2:15:00 PM 25.97 78.746 0.2 7.36 110.91 0.24
8/8/2022 2:30:00 PM 26.17 79.106 0.197 7.39 110.47 0.24
8/8/2022 2:45:00 PM 26.42 79.556 0.198 7.35 110.5 0.24
8/8/2022 3:00:00 PM 26.62 79.916 0.199 7.37 110.41 0.24
8/8/2022 3:15:00 PM 26.75 80.15 0.199 7.36 110.26 0.24
8/8/2022 3:30:00 PM 26.76 80.168 0.198 7.36 109.99 0.24
8/8/2022 3:45:00 PM 26.81 80.258 0.198 7.35 109.81 0.24
8/8/2022 4:00:00 PM 26.84 80.312 0.197 7.35 109.78 0.24
8/8/2022 4:15:00 PM 26.85 80.33 0.201 7.35 109.64 0.24
8/8/2022 4:30:00 PM 26.78 80.204 0.2 7.34 109.81 0.24
8/8/2022 4:45:00 PM 26.68 80.024 0.199 7.36 109.28 0.24
8/8/2022 5:00:00 PM 26.52 79.736 0.199 7.34 109.09 0.24
8/8/2022 5:15:00 PM 26.4 79.52 0.196 7.36 108.85 0.24
8/8/2022 5:30:00 PM 26.18 79.124 0.198 7.36 108.55 0.24
8/8/2022 5:45:00 PM 26.12 79.016 0.197 7.35 108.59 0.24
8/8/2022 6:00:00 PM 26.26 79.268 0.194 7.36 108.41 0.24
8/8/2022 6:15:00 PM 26.05 78.89 0.193 7.36 108.09 0.24
8/8/2022 6:30:00 PM 25.78 78.404 0.192 7.38 107.89 0.25
8/8/2022 6:45:00 PM 25.51 77.918 0.194 7.36 107.64 0.25
8/8/2022 7:00:00 PM 25.35 77.63 0.194 7.37 107.56 0.25
8/8/2022 7:15:00 PM 25.23 77.414 0.194 7.39 107.31 0.25
8/8/2022 7:30:00 PM 25.13 77.234 0.195 7.39 107 0.25
8/8/2022 7:45:00 PM 25.04 77.07201 0.195 7.37 106.83 0.25
8/8/2022 8:00:00 PM 24.94 76.892 0.191 7.4 106.54 0.25
8/8/2022 8:15:00 PM 24.83 76.694 0.194 7.38 106.48 0.25
8/8/2022 8:30:00 PM 24.7 76.46 0.193 7.38 106.42 0.25
8/8/2022 8:45:00 PM 24.56 76.208 0.192 7.39 106.3 0.25
8/8/2022 9:00:00 PM 24.42 75.956 0.192 7.4 105.99 0.25
8/8/2022 9:15:00 PM 24.28 75.704 0.191 7.4 105.78 0.26
8/8/2022 9:30:00 PM 24.15 75.47 0.193 7.41 105.72 0.26
8/8/2022 9:45:00 PM 24.01 75.218 0.194 7.38 105.56 0.26
8/8/2022 10:00:00 PM 23.89 75.002 0.194 7.4 105.26 0.26
8/8/2022 10:15:00 PM 23.77 74.786 0.194 7.4 105.07 0.26
8/8/2022 10:30:00 PM 23.66 74.588 0.193 7.4 104.85 0.26
8/8/2022 10:45:00 PM 23.56 74.408 0.189 7.41 104.73 0.26
8/8/2022 11:00:00 PM 23.46 74.228 0.196 7.38 104.71 0.26
8/8/2022 11:15:00 PM 23.36 74.048 0.194 7.39 104.4 0.26
8/8/2022 11:30:00 PM 23.26 73.868 0.194 7.39 103.98 0.26
8/8/2022 11:45:00 PM 23.17 73.706 0.195 7.37 103.83 0.26
8/9/2022 12:00:00 AM 23.07 73.526 0.195 7.38 103.69 0.26
8/9/2022 12:15:00 AM 22.98 73.364 0.194 7.44 103.43 0.26
8/9/2022 12:30:00 AM 22.89 73.202 0.193 7.38 103.16 0.26
8/9/2022 12:45:00 AM 22.81 73.058 0.194 7.39 102.92 0.26
8/9/2022 1:00:00 AM 22.72 72.896 0.195 7.38 102.85 0.26
8/9/2022 1:15:00 AM 22.65 72.77 0.195 7.38 102.77 0.26
8/9/2022 1:30:00 AM 22.58 72.644 0.192 7.4 102.91 0.26
8/9/2022 1:45:00 AM 22.52 72.536 0.194 7.41 102.82 0.27
8/9/2022 2:00:00 AM 22.46 72.42799 0.194 7.42 102.45 0.27
8/9/2022 2:15:00 AM 22.42 72.356 0.193 7.4 102.27 0.27
8/9/2022 2:30:00 AM 22.37 72.266 0.194 7.39 101.95 0.27
8/9/2022 2:45:00 AM 22.33 72.194 0.195 7.39 101.72 0.27
8/9/2022 3:00:00 AM 22.28 72.104 0.194 7.38 101.6 0.27
8/9/2022 3:15:00 AM 22.24 72.032 0.195 7.39 101.41 0.27
8/9/2022 3:30:00 AM 22.2 71.96 0.195 7.39 101.39 0.27
8/9/2022 3:45:00 AM 22.17 71.906 0.196 7.39 101.08 0.27
8/9/2022 4:00:00 AM 22.13 71.834 0.198 7.44 100.97 0.27
8/9/2022 4:15:00 AM 22.11 71.798 0.194 7.42 100.5 0.27
8/9/2022 4:30:00 AM 22.08 71.744 0.196 7.41 100.58 0.27
8/9/2022 4:45:00 AM 22.06 71.708 0.195 7.38 100.24 0.27
8/9/2022 5:00:00 AM 22.04 71.672 0.197 7.4 100.08 0.27
8/9/2022 5:15:00 AM 22.02 71.636 0.196 7.41 99.97 0.27
8/9/2022 5:30:00 AM 22.01 71.618 0.196 7.42 99.85 0.27
8/9/2022 5:45:00 AM 21.99 71.582 0.196 7.41 99.69 0.27
8/9/2022 6:00:00 AM 21.97 71.546 0.195 7.41 99.55 0.27
8/9/2022 6:15:00 AM 21.95 71.51 0.194 7.39 99.35 0.27
8/9/2022 6:30:00 AM 21.94 71.492 0.197 7.4 99.2 0.27
8/9/2022 6:45:00 AM 21.92 71.456 0.196 7.41 99.1 0.27
8/9/2022 7:00:00 AM 21.91 71.438 0.193 7.41 98.83 0.27
8/9/2022 7:15:00 AM 21.9 71.42 0.194 7.38 98.71 0.27
8/9/2022 7:30:00 AM 21.89 71.402 0.194 7.39 98.66 0.27
8/9/2022 7:45:00 AM 21.9 71.42 0.195 7.37 98.44 0.27
8/9/2022 8:00:00 AM 21.91 71.438 0.195 7.38 98.49 0.27
8/9/2022 8:15:00 AM 21.91 71.438 0.193 7.4 98.55 0.27
8/9/2022 8:30:00 AM 21.91 71.438 0.193 7.4 97.71 0.27
8/9/2022 8:45:00 AM 21.9 71.42 0.193 7.38 97.59 0.27
8/9/2022 9:00:00 AM 21.91 71.438 0.193 7.38 97.34 0.27
8/9/2022 9:15:00 AM 21.92 71.456 0.192 7.37 97.18 0.27
8/9/2022 9:30:00 AM 21.93 71.474 0.193 7.39 97.03 0.27
8/9/2022 9:45:00 AM 21.94 71.492 0.189 7.41 96.59 0.27
8/9/2022 10:00:00 AM 21.95 71.51 0.192 7.38 96.63 0.27
8/9/2022 10:15:00 AM 21.99 71.582 0.193 7.39 96.46 0.27
8/9/2022 10:30:00 AM 22.06 71.708 0.193 7.37 96.24 0.27
8/9/2022 10:45:00 AM 22.16 71.888 0.195 7.38 96.03 0.27
8/9/2022 11:00:00 AM 22.23 72.014 0.196 7.37 95.88 0.27
8/9/2022 11:15:00 AM 22.33 72.194 0.196 7.38 95.74 0.26
8/9/2022 11:30:00 AM 22.62 72.716 0.197 7.37 95.49 0.26
8/9/2022 11:45:00 AM 22.82 73.076 0.197 7.39 95.23 0.26
8/9/2022 12:00:00 PM 22.98 73.364 0.197 7.38 94.78 0.26
8/9/2022 12:15:00 PM 23.23 73.814 0.198 7.37 94.67 0.26
8/9/2022 12:30:00 PM 23.64 74.552 0.196 7.38 94.4 0.25
8/9/2022 12:45:00 PM 23.92 75.056 0.198 7.37 94.32 0.25
8/9/2022 1:00:00 PM 24.1 75.38 0.198 7.36 94.45 0.25
8/9/2022 1:15:00 PM 24.17 75.506 0.199 7.35 94.07 0.25
8/9/2022 1:30:00 PM 24.37 75.866 0.202 7.35 93.9 0.25
8/9/2022 1:45:00 PM 24.54 76.172 0.2 7.33 93.53 0.25
8/9/2022 2:00:00 PM 24.64 76.352 0.202 7.34 96.01 0.25
8/9/2022 2:15:00 PM 24.78 76.604 0.201 7.33 96.71 0.25
8/9/2022 2:30:00 PM 24.94 76.892 0.201 7.34 96.48 0.24
8/9/2022 2:45:00 PM 25.17 77.306 0.201 7.33 95.93 0.24
8/9/2022 3:00:00 PM 25.29 77.522 0.202 7.33 95.44 0.24
8/9/2022 3:15:00 PM 25.28 77.504 0.199 7.35 93.79 0.24
8/9/2022 3:30:00 PM 25.45 77.81 0.202 7.32 94.62 0.24
8/9/2022 3:45:00 PM 25.58 78.044 0.203 7.31 94.72 0.24
8/9/2022 4:00:00 PM 25.51 77.918 0.202 7.31 94.39 0.24
8/9/2022 4:15:00 PM 25.43 77.774 0.203 7.31 93.89 0.24
8/9/2022 4:30:00 PM 25.41 77.738 0.203 7.3 94.09 0.24
8/9/2022 4:45:00 PM 25.48 77.864 0.204 7.31 94.46 0.24
8/9/2022 5:00:00 PM 25.59 78.062 0.202 7.3 93.97 0.24
8/9/2022 5:15:00 PM 25.62 78.116 0.209 7.3 93.76 0.24
8/9/2022 5:30:00 PM 25.58 78.044 0.208 7.3 94.54 0.24
8/9/2022 5:45:00 PM 25.54 77.972 0.207 7.31 94.48 0.24
8/9/2022 6:00:00 PM 25.49 77.882 0.204 7.34 92.29 0.24
8/9/2022 6:15:00 PM 25.43 77.774 0.204 7.32 93.47 0.24
8/9/2022 6:30:00 PM 25.37 77.666 0.202 7.31 93.92 0.25
8/9/2022 6:45:00 PM 25.29 77.522 0.204 7.33 93.49 0.25
8/9/2022 7:00:00 PM 25.2 77.36 0.204 7.31 92.68 0.25
8/9/2022 7:15:00 PM 25.08 77.144 0.203 7.32 92.1 0.25
8/9/2022 7:30:00 PM 24.93 76.874 0.202 7.31 91.73 0.25
8/9/2022 7:45:00 PM 24.77 76.586 0.203 7.32 91.69 0.25
8/9/2022 8:00:00 PM 24.6 76.28 0.202 7.31 91.07 0.25
8/9/2022 8:15:00 PM 24.43 75.974 0.2 7.34 90.64 0.25
8/9/2022 8:30:00 PM 24.27 75.686 0.201 7.33 90.25 0.26
8/9/2022 8:45:00 PM 24.12 75.416 0.197 7.35 88.75 0.26
8/9/2022 9:00:00 PM 23.98 75.164 0.2 7.34 89.15 0.26
8/9/2022 9:15:00 PM 23.85 74.93 0.201 7.32 88.44 0.26
8/9/2022 9:30:00 PM 23.73 74.714 0.2 7.34 88.5 0.26
8/9/2022 9:45:00 PM 23.63 74.534 0.198 7.34 88.43 0.26
8/9/2022 10:00:00 PM 23.52 74.336 0.198 7.33 88.27 0.26
8/9/2022 10:15:00 PM 23.41 74.138 0.197 7.33 88.17 0.26
8/9/2022 10:30:00 PM 23.31 73.958 0.197 7.34 87.83 0.26
8/9/2022 10:45:00 PM 23.21 73.778 0.196 7.34 87.56 0.26
8/9/2022 11:00:00 PM 23.11 73.598 0.197 7.34 87.36 0.26
8/9/2022 11:15:00 PM 23.02 73.436 0.196 7.35 87.17 0.26
8/9/2022 11:30:00 PM 22.94 73.292 0.193 7.36 85.63 0.26
8/9/2022 11:45:00 PM 22.85 73.13 0.194 7.36 86.81 0.26
8/10/2022 12:00:00 AM 22.76 72.968 0.194 7.34 86.61 0.26
8/10/2022 12:15:00 AM 22.68 72.824 0.194 7.35 86.39 0.26
8/10/2022 12:30:00 AM 22.59 72.662 0.195 7.35 85.64 0.27
8/10/2022 12:45:00 AM 22.51 72.518 0.195 7.34 85.61 0.27
8/10/2022 1:00:00 AM 22.44 72.392 0.196 7.34 85.35 0.27
8/10/2022 1:15:00 AM 22.37 72.266 0.195 7.35 85.09 0.27
8/10/2022 1:30:00 AM 22.3 72.14 0.199 7.35 84.58 0.27
8/10/2022 1:45:00 AM 22.23 72.014 0.198 7.36 84.82 0.27
8/10/2022 2:00:00 AM 22.17 71.906 0.197 7.35 84.78 0.27
8/10/2022 2:15:00 AM 22.11 71.798 0.194 7.36 83.54 0.27
8/10/2022 2:30:00 AM 22.05 71.69 0.195 7.37 84.17 0.27
8/10/2022 2:45:00 AM 22 71.6 0.196 7.36 84.43 0.27
8/10/2022 3:00:00 AM 21.95 71.51 0.196 7.35 84.23 0.27
8/10/2022 3:15:00 AM 21.9 71.42 0.195 7.36 84.3 0.27
8/10/2022 3:30:00 AM 21.85 71.33 0.194 7.37 83.92 0.27
8/10/2022 3:45:00 AM 21.8 71.24 0.194 7.37 83.74 0.27
8/10/2022 4:00:00 AM 21.75 71.15 0.194 7.36 83.35 0.27
8/10/2022 4:15:00 AM 21.71 71.078 0.194 7.36 82.79 0.27
8/10/2022 4:30:00 AM 21.66 70.988 0.194 7.37 82.53 0.27
8/10/2022 4:45:00 AM 21.61 70.898 0.195 7.37 82.57 0.27
8/10/2022 5:00:00 AM 21.55 70.79 0.192 7.39 81.81 0.27
8/10/2022 5:15:00 AM 21.5 70.7 0.195 7.37 82.27 0.27
8/10/2022 5:30:00 AM 21.45 70.61 0.198 7.37 81.6 0.27
8/10/2022 5:45:00 AM 21.4 70.52 0.198 7.38 81.55 0.27
8/10/2022 6:00:00 AM 21.35 70.43 0.198 7.39 81.45 0.27
8/10/2022 6:15:00 AM 21.3 70.34 0.198 7.37 81.34 0.27
8/10/2022 6:30:00 AM 21.25 70.25 0.197 7.37 81.29 0.27
8/10/2022 6:45:00 AM 21.21 70.17799 0.197 7.38 81.04 0.27
8/10/2022 7:00:00 AM 21.17 70.106 0.196 7.37 81.21 0.27
8/10/2022 7:15:00 AM 21.13 70.034 0.196 7.36 81.13 0.27
8/10/2022 7:30:00 AM 21.09 69.962 0.198 7.37 81.03 0.27
8/10/2022 7:45:00 AM 21.06 69.908 0.196 7.4 80.03 0.27
8/10/2022 8:00:00 AM 21.05 69.89 0.197 7.36 80.67 0.27
8/10/2022 8:15:00 AM 21.06 69.908 0.197 7.37 80.58 0.27
8/10/2022 8:30:00 AM 21.08 69.944 0.197 7.36 80.46 0.27
8/10/2022 8:45:00 AM 21.1 69.98 0.197 7.36 80.19 0.27
8/10/2022 9:00:00 AM 21.13 70.034 0.198 7.36 80.26 0.27
8/10/2022 9:15:00 AM 21.16 70.088 0.198 7.38 79.75 0.27
8/10/2022 9:30:00 AM 21.2 70.16 0.199 7.36 80.02 0.27
8/10/2022 9:45:00 AM 21.27 70.286 0.198 7.36 79.44 0.27
8/10/2022 10:00:00 AM 21.32 70.376 0.2 7.37 79.34 0.27
8/10/2022 10:15:00 AM 21.35 70.43 0.199 7.38 79.38 0.27
8/10/2022 10:30:00 AM 21.37 70.466 0.198 7.4 78.57 0.27
8/10/2022 10:45:00 AM 21.4 70.52 0.199 7.38 79.04 0.27
8/10/2022 11:00:00 AM 21.47 70.646 0.199 7.36 78.83 0.27
8/10/2022 11:15:00 AM 21.53 70.754 0.198 7.37 78.8 0.27
8/10/2022 11:30:00 AM 21.56 70.808 0.199 7.36 78.42 0.27
8/10/2022 11:45:00 AM 21.57 70.826 0.199 7.35 78.2 0.27
8/10/2022 12:00:00 PM 21.61 70.898 0.198 7.36 78.8 0.27
8/10/2022 12:15:00 PM 21.69 71.042 0.199 7.36 78.37 0.27
8/10/2022 12:30:00 PM 21.78 71.204 0.2 7.36 78.31 0.27
8/10/2022 12:45:00 PM 21.87 71.366 0.2 7.35 78.48 0.27
8/10/2022 1:00:00 PM 21.91 71.438 0.199 7.35 77.84 0.27
8/10/2022 1:15:00 PM 21.94 71.492 0.197 7.39 76.98 0.27
8/10/2022 1:30:00 PM 21.94 71.492 0.199 7.38 77.4 0.27
8/10/2022 1:45:00 PM 21.94 71.492 0.199 7.35 76.67 0.27
8/10/2022 2:00:00 PM 22 71.6 0.2 7.35 76.61 0.27
8/10/2022 2:15:00 PM 22.09 71.762 0.2 7.36 76.53 0.27
8/10/2022 2:30:00 PM 22.29 72.122 0.202 7.35 76.61 0.26
8/10/2022 2:45:00 PM 22.46 72.42799 0.2 7.37 76.27 0.26
8/10/2022 3:00:00 PM 22.58 72.644 0.2 7.37 76.17 0.26
8/10/2022 3:15:00 PM 22.79 73.022 0.2 7.36 75.78 0.26
8/10/2022 3:30:00 PM 22.96 73.328 0.2 7.35 75.59 0.26
8/10/2022 3:45:00 PM 23.04 73.472 0.2 7.35 75.66 0.26
8/10/2022 4:00:00 PM 23.11 73.598 0.197 7.37 74.41 0.26
8/10/2022 4:15:00 PM 23.11 73.598 0.2 7.34 75.21 0.26
8/10/2022 4:30:00 PM 23.07 73.526 0.201 7.35 75.3 0.26
8/10/2022 4:45:00 PM 23.06 73.508 0.201 7.35 75.07 0.26
8/10/2022 5:00:00 PM 23.04 73.472 0.202 7.35 75.07 0.26
8/10/2022 5:15:00 PM 23.13 73.634 0.202 7.34 74.9 0.26
8/10/2022 5:30:00 PM 23.19 73.742 0.202 7.34 74.31 0.26
8/10/2022 5:45:00 PM 23.17 73.706 0.202 7.36 74.37 0.26
8/10/2022 6:00:00 PM 23.18 73.724 0.202 7.34 74.29 0.26
8/10/2022 6:15:00 PM 23.17 73.706 0.202 7.34 73.65 0.26
8/10/2022 6:30:00 PM 23.14 73.652 0.202 7.34 73.5 0.26
8/10/2022 6:45:00 PM 23.09 73.562 0.199 7.37 71.96 0.26
8/10/2022 7:00:00 PM 23.01 73.418 0.202 7.35 72.56 0.26
8/10/2022 7:15:00 PM 22.92 73.256 0.203 7.35 72.31 0.26
8/10/2022 7:30:00 PM 22.83 73.094 0.201 7.35 72.09 0.26
8/10/2022 7:45:00 PM 22.73 72.914 0.202 7.36 72.12 0.26
8/10/2022 8:00:00 PM 22.63 72.734 0.204 7.35 71.81 0.27
8/10/2022 8:15:00 PM 22.52 72.536 0.205 7.36 71.51 0.27
8/10/2022 8:30:00 PM 22.39 72.302 0.204 7.35 71.44 0.27
8/10/2022 8:45:00 PM 22.25 72.05 0.204 7.36 71.18 0.27
8/10/2022 9:00:00 PM 22.11 71.798 0.204 7.35 71.13 0.27
8/10/2022 9:15:00 PM 21.97 71.546 0.202 7.36 70.74 0.27
8/10/2022 9:30:00 PM 21.84 71.312 0.2 7.37 69.29 0.27
8/10/2022 9:45:00 PM 21.72 71.096 0.202 7.37 70.51 0.27
8/10/2022 10:00:00 PM 21.62 70.916 0.202 7.36 69.98 0.27
8/10/2022 10:15:00 PM 21.52 70.736 0.201 7.36 70.01 0.27
8/10/2022 10:30:00 PM 21.42 70.556 0.199 7.36 69.79 0.27
8/10/2022 10:45:00 PM 21.33 70.394 0.198 7.37 69.68 0.27
8/10/2022 11:00:00 PM 21.26 70.268 0.198 7.38 69.51 0.27
8/10/2022 11:15:00 PM 21.19 70.142 0.198 7.38 68.89 0.27
8/10/2022 11:30:00 PM 21.11 69.998 0.199 7.36 68.96 0.27
8/10/2022 11:45:00 PM 21.02 69.836 0.199 7.36 68.88 0.27
8/11/2022 12:00:00 AM 20.92 69.656 0.199 7.36 69.1 0.28
8/11/2022 12:15:00 AM 20.82 69.476 0.196 7.39 67.95 0.28
8/11/2022 12:30:00 AM 20.73 69.314 0.198 7.38 68.79 0.28
8/11/2022 12:45:00 AM 20.64 69.152 0.196 7.36 69.46 0.28
8/11/2022 1:00:00 AM 20.55 68.99 0.198 7.38 68.6 0.28
8/11/2022 1:15:00 AM 20.45 68.81 0.198 7.37 68.08 0.28
8/11/2022 1:30:00 AM 20.36 68.648 0.199 7.39 68.03 0.28
8/11/2022 1:45:00 AM 20.26 68.468 0.2 7.37 67.81 0.28
8/11/2022 2:00:00 AM 20.17 68.306 0.199 7.37 68.21 0.28
8/11/2022 2:15:00 AM 20.09 68.162 0.199 7.36 68.5 0.28
8/11/2022 2:30:00 AM 20.01 68.018 0.198 7.36 67.99 0.28
8/11/2022 2:45:00 AM 19.93 67.874 0.198 7.37 67.62 0.28
8/11/2022 3:00:00 AM 19.85 67.73 0.192 7.37 66.97 0.28
8/11/2022 3:15:00 AM 19.77 67.586 0.195 7.39 67.25 0.28
8/11/2022 3:30:00 AM 19.68 67.424 0.195 7.37 67.2 0.28
8/11/2022 3:45:00 AM 19.59 67.262 0.194 7.42 67.08 0.28
8/11/2022 4:00:00 AM 19.5 67.1 0.193 7.44 66.9 0.28
8/11/2022 4:15:00 AM 19.41 66.938 0.192 7.44 66.86 0.28
8/11/2022 4:30:00 AM 19.32 66.776 0.191 7.45 66.57 0.28
8/11/2022 4:45:00 AM 19.23 66.614 0.185 7.45 66.12 0.29
8/11/2022 5:00:00 AM 19.15 66.47 0.181 7.37 66.42 0.29
8/11/2022 5:15:00 AM 19.05 66.29 0.175 7.38 66.48 0.29
8/11/2022 5:30:00 AM 18.97 66.146 0.168 7.38 66.03 0.29
8/11/2022 5:45:00 AM 18.87 65.966 0.161 7.43 65.46 0.29
8/11/2022 6:00:00 AM 18.79 65.82201 0.14 7.43 65.48 0.29
8/11/2022 6:15:00 AM 18.67 65.606 0.155 7.46 95.88 0.29
8/11/2022 6:30:00 AM 18.62 65.516 0.158 7.47 440.97 0.29
8/11/2022 6:45:00 AM 18.53 65.354 0.152 7.47 468.35 0.29
8/11/2022 7:00:00 AM 18.44 65.192 0.147 7.46 54.4 0.29
8/11/2022 7:15:00 AM 18.37 65.066 0.142 7.47 47.35 0.29
8/11/2022 7:30:00 AM 18.32 64.976 0.138 7.47 29.52 0.29
8/11/2022 7:45:00 AM 18.31 64.958 0.137 7.47 32.83 0.29
8/11/2022 8:00:00 AM 18.32 64.976 0.136 7.48 33.38 0.29
8/11/2022 8:15:00 AM 18.36 65.048 0.136 7.48 70.07 0.29
8/11/2022 8:30:00 AM 18.42 65.156 0.136 7.48 106.62 0.29
8/11/2022 8:45:00 AM 18.51 65.318 0.139 7.45 105.9 0.29
8/11/2022 9:00:00 AM 18.64 65.552 0.139 7.48 88.11 0.29
8/11/2022 9:15:00 AM 18.79 65.82201 0.139 7.47 91.01 0.29
8/11/2022 9:30:00 AM 19 66.2 0.139 7.47 87.34 0.29
8/11/2022 9:45:00 AM 19.22 66.596 0.139 7.47 100.12 0.28
8/11/2022 10:00:00 AM 19.47 67.046 0.139 7.46 100.54 0.28
8/11/2022 10:15:00 AM 19.73 67.514 0.138 7.46 93.32 0.28
8/11/2022 10:30:00 AM 20.01 68.018 0.139 7.45 62.09 0.28
8/11/2022 10:45:00 AM 20.3 68.54 0.14 7.44 40.36 0.28
8/11/2022 11:00:00 AM 20.58 69.044 0.139 7.43 38.52 0.27
8/11/2022 11:15:00 AM 20.89 69.602 0.139 7.44 69.38 0.27
8/11/2022 11:30:00 AM 21.21 70.17799 0.14 7.4 79.79 0.27
8/11/2022 11:45:00 AM 21.45 70.61 0.14 7.42 38.69 0.27
8/11/2022 12:00:00 PM 21.76 71.168 0.14 7.41 33.64 0.26
8/11/2022 12:15:00 PM 22.01 71.618 0.14 7.4 48.57 0.26
8/11/2022 12:30:00 PM 22.21 71.978 0.139 7.4 47.34 0.26
8/11/2022 12:45:00 PM 22.5 72.5 0.14 7.39 47.19 0.26
8/11/2022 1:00:00 PM 22.85 73.13 0.14 7.38 53.39 0.26
8/11/2022 1:15:00 PM 23.21 73.778 0.14 7.36 52.64 0.25
8/11/2022 1:30:00 PM 23.36 74.048 0.139 7.37 57.31 0.25
8/11/2022 1:45:00 PM 23.31 73.958 0.139 7.36 52.73 0.25
8/11/2022 2:00:00 PM 23.32 73.976 0.138 7.34 117.31 0.25
8/11/2022 2:15:00 PM 23.24 73.832 0.138 7.34 115.86 0.25
8/11/2022 2:30:00 PM 23.2 73.76 0.139 7.36 114.97 0.25
8/11/2022 2:45:00 PM 23.27 73.886 0.138 7.37 112.1 0.25
8/11/2022 3:00:00 PM 23.26 73.868 0.138 7.33 113.34 0.25
8/11/2022 3:15:00 PM 23.2 73.76 0.136 7.35 111.03 0.26
8/11/2022 3:30:00 PM 23.24 73.832 0.137 7.35 109.37 0.25
8/11/2022 3:45:00 PM 23.42 74.156 0.137 7.35 107.28 0.25
8/11/2022 4:00:00 PM 23.55 74.39 0.138 7.35 107.67 0.25
8/11/2022 4:15:00 PM 23.65 74.57 0.136 7.34 107.46 0.25
8/11/2022 4:30:00 PM 23.81 74.858 0.135 7.33 108.22 0.25
8/11/2022 4:45:00 PM 23.87 74.966 0.137 7.33 109.38 0.25
8/11/2022 5:00:00 PM 23.89 75.002 0.138 7.33 107.94 0.25
8/11/2022 5:15:00 PM 23.86 74.948 0.137 7.33 106.16 0.25
8/11/2022 5:30:00 PM 23.82 74.876 0.137 7.33 104.99 0.25
8/11/2022 5:45:00 PM 23.82 74.876 0.137 7.31 108.57 0.25
8/11/2022 6:00:00 PM 23.83 74.894 0.135 7.32 111.06 0.25
8/11/2022 6:15:00 PM 23.82 74.876 0.135 7.32 110.8 0.25
8/11/2022 6:30:00 PM 23.71 74.67799 0.153 7.34 107.14 0.25
8/11/2022 6:45:00 PM 23.55 74.39 0.942 7.31 109.65 0.25
8/11/2022 7:00:00 PM 23.36 74.048 0.474 7.32 103.72 0.26
8/11/2022 7:15:00 PM 23.15 73.67 0.393 7.33 101.61 0.26
8/11/2022 7:30:00 PM 22.93 73.274 0.374 7.32 101.31 0.26
8/11/2022 7:45:00 PM 22.71 72.878 0.47 7.33 97.25 0.26
8/11/2022 8:00:00 PM 22.5 72.5 0.33 7.33 98.74 0.27
8/11/2022 8:15:00 PM 22.27 72.086 0.591 7.33 95.9 0.27
8/11/2022 8:30:00 PM 22.07 71.726 0.483 7.34 95.08 0.27
8/11/2022 8:45:00 PM 21.88 71.384 0.584 7.34 94.78 0.27
8/11/2022 9:00:00 PM 21.69 71.042 0.397 7.34 91.18 0.27
8/11/2022 9:15:00 PM 21.51 70.718 0.42 7.35 90.65 0.27
8/11/2022 9:30:00 PM 21.34 70.412 0.481 7.35 89.12 0.27
8/11/2022 9:45:00 PM 21.17 70.106 0.631 7.35 90.85 0.27
8/11/2022 10:00:00 PM 21 69.8 0.354 7.36 95.06 0.28
8/11/2022 10:15:00 PM 20.84 69.512 0.782 7.36 85.54 0.28
8/11/2022 10:30:00 PM 20.7 69.26 0.633 7.36 81.63 0.28
8/11/2022 10:45:00 PM 20.55 68.99 0.689 7.37 79.52 0.28
8/11/2022 11:00:00 PM 20.38 68.684 0.695 7.37 94.89 0.28
8/11/2022 11:15:00 PM 20.22 68.396 0.723 7.37 102.42 0.28
8/11/2022 11:30:00 PM 20.08 68.144 0.99 7.35 99.94 0.28
8/11/2022 11:45:00 PM 19.92 67.856 0.845 7.37 106.76 0.28
8/12/2022 12:00:00 AM 19.77 67.586 0.907 7.38 107.72 0.28
8/12/2022 12:15:00 AM 19.62 67.316 0.937 7.39 114.99 0.28
8/12/2022 12:30:00 AM 19.48 67.064 0.969 7.4 101.65 0.28
8/12/2022 12:45:00 AM 19.34 66.812 0.893 7.37 103.36 0.29
8/12/2022 1:00:00 AM 19.2 66.56 1.002 7.4 106.4 0.29
8/12/2022 1:15:00 AM 19.08 66.344 0.927 7.4 100.05 0.29
8/12/2022 1:30:00 AM 18.96 66.128 0.787 7.4 97.18 0.29
8/12/2022 1:45:00 AM 18.84 65.912 1.122 7.4 99.56 0.29
8/12/2022 2:00:00 AM 18.72 65.696 1.349 7.41 97.65 0.29
8/12/2022 2:15:00 AM 18.61 65.498 1.4 7.41 102.04 0.29
8/12/2022 2:30:00 AM 18.5 65.3 1.253 7.42 106.51 0.29
8/12/2022 2:45:00 AM 18.39 65.102 1.28 7.42 108.73 0.29
8/12/2022 3:00:00 AM 18.28 64.904 1.298 7.42 107.31 0.29
8/12/2022 3:15:00 AM 18.18 64.724 1.272 7.42 107.27 0.29
8/12/2022 3:30:00 AM 18.07 64.526 1.216 7.42 103.05 0.29
8/12/2022 3:45:00 AM 17.98 64.364 1.273 7.45 94.29 0.29
8/12/2022 4:00:00 AM 17.89 64.202 1.239 7.46 95.88 0.29
8/12/2022 4:15:00 AM 17.79 64.022 1.217 7.45 91.76 0.3
8/12/2022 4:30:00 AM 17.71 63.878 1.291 7.45 102.59 0.3
8/12/2022 4:45:00 AM 17.62 63.716 1.205 7.47 111.17 0.3
8/12/2022 5:00:00 AM 17.53 63.554 1.263 7.46 109.69 0.3
8/12/2022 5:15:00 AM 17.45 63.41 1.302 7.45 110.99 0.3
8/12/2022 5:30:00 AM 17.36 63.248 1.383 7.45 111.87 0.3
8/12/2022 5:45:00 AM 17.28 63.104 1.336 7.49 112.53 0.3
8/12/2022 6:00:00 AM 17.21 62.978 1.331 7.46 114.7 0.3
8/12/2022 6:15:00 AM 17.12 62.816 1.345 7.48 116.39 0.3
8/12/2022 6:30:00 AM 17.04 62.672 1.382 7.49 119.34 0.3
8/12/2022 6:45:00 AM 16.97 62.546 1.42 7.48 119.07 0.3
8/12/2022 7:00:00 AM 16.9 62.42 1.42 7.49 119.67 0.3
8/12/2022 7:15:00 AM 16.85 62.33 1.335 7.5 117.19 0.3
8/12/2022 7:30:00 AM 16.82 62.276 1.349 7.47 116.92 0.3
8/12/2022 7:45:00 AM 16.82 62.276 1.379 7.5 119.08 0.3
8/12/2022 8:00:00 AM 16.85 62.33 1.412 7.49 117.21 0.3
8/12/2022 8:15:00 AM 16.91 62.438 1.371 7.5 117.4 0.3
8/12/2022 8:30:00 AM 16.98 62.564 1.351 7.5 115.99 0.3
8/12/2022 8:45:00 AM 17.08 62.744 1.381 7.49 114.87 0.3
8/12/2022 9:00:00 AM 17.21 62.978 1.341 7.49 115.56 0.3
8/12/2022 9:15:00 AM 17.37 63.266 1.338 7.48 115.03 0.3
8/12/2022 9:30:00 AM 17.55 63.59 1.344 7.48 114.14 0.29
8/12/2022 9:45:00 AM 17.76 63.968 1.188 7.47 113.34 0.29
8/12/2022 10:00:00 AM 17.99 64.382 1.513 7.47 112.68 0.29
8/12/2022 10:15:00 AM 18.24 64.832 1.544 7.46 109.71 0.29
8/12/2022 10:30:00 AM 18.51 65.318 1.429 7.45 108.15 0.29
8/12/2022 10:45:00 AM 18.78 65.804 1.461 7.45 108.44 0.28
8/12/2022 11:00:00 AM 19.08 66.344 1.455 7.44 107.87 0.28
8/12/2022 11:15:00 AM 19.44 66.992 1.408 7.43 107.23 0.28
8/12/2022 11:30:00 AM 19.96 67.92799 1.319 7.42 111.03 0.27
8/12/2022 11:45:00 AM 20.23 68.414 1.336 7.4 113.87 0.27
8/12/2022 12:00:00 PM 20.62 69.116 1.373 7.41 115.4 0.27
8/12/2022 12:15:00 PM 21 69.8 1.377 7.39 116.22 0.27
8/12/2022 12:30:00 PM 21.37 70.466 1.554 7.38 120.45 0.26
8/12/2022 12:45:00 PM 21.78 71.204 1.468 7.38 120.35 0.26
8/12/2022 1:00:00 PM 22.15 71.87 1.423 7.37 121.55 0.26
8/12/2022 1:15:00 PM 22.63 72.734 1.435 7.34 121.65 0.25
8/12/2022 1:30:00 PM 23.09 73.562 1.832 7.36 118.78 0.25
8/12/2022 1:45:00 PM 23.41 74.138 1.791 7.34 116.15 0.25
8/12/2022 2:00:00 PM 23.67 74.606 1.841 7.34 117.56 0.25
8/12/2022 2:15:00 PM 23.97 75.146 1.811 7.33 118.87 0.25
8/12/2022 2:30:00 PM 24.23 75.614 1.805 7.32 119.74 0.25
8/12/2022 2:45:00 PM 24.48 76.064 1.82 7.32 121.51 0.25
8/12/2022 3:00:00 PM 24.71 76.478 1.938 7.31 125 0.25
8/12/2022 3:15:00 PM 24.85 76.73 2.016 7.31 125.26 0.25
8/12/2022 3:30:00 PM 24.91 76.838 1.921 7.31 126 0.25
8/12/2022 3:45:00 PM 25.03 77.054 1.783 7.3 124.32 0.25
8/12/2022 4:00:00 PM 25.15 77.27 1.788 7.3 123.18 0.25
8/12/2022 4:15:00 PM 25.18 77.324 1.705 7.3 126.39 0.25
8/12/2022 4:30:00 PM 25.1 77.18 1.725 7.27 126.55 0.25
8/12/2022 4:45:00 PM 24.94 76.892 1.795 7.29 125.39 0.25
8/12/2022 5:00:00 PM 24.88 76.784 1.741 7.29 122.81 0.25
8/12/2022 5:15:00 PM 24.81 76.658 1.814 7.28 118.56 0.25
8/12/2022 5:30:00 PM 24.66 76.388 1.677 7.29 121.01 0.25
8/12/2022 5:45:00 PM 24.47 76.046 1.6 7.3 121.65 0.25
8/12/2022 6:00:00 PM 24.35 75.83 1.865 7.29 122.54 0.25
8/12/2022 6:15:00 PM 24.15 75.47 1.857 7.3 122.48 0.25
8/12/2022 6:30:00 PM 23.93 75.074 1.821 7.31 121.5 0.25
8/12/2022 6:45:00 PM 23.68 74.624 1.9 7.31 121.12 0.26
8/12/2022 7:00:00 PM 23.41 74.138 1.929 7.3 124.21 0.26
8/12/2022 7:15:00 PM 23.16 73.688 1.828 7.32 119.38 0.26
8/12/2022 7:30:00 PM 22.88 73.184 1.772 7.29 116.73 0.26
8/12/2022 7:45:00 PM 22.59 72.662 1.775 7.3 118.48 0.26
8/12/2022 8:00:00 PM 22.31 72.158 1.813 7.3 117.36 0.27
8/12/2022 8:15:00 PM 22.01 71.618 1.813 7.27 115.54 0.27
8/12/2022 8:30:00 PM 21.69 71.042 1.797 7.28 121.43 0.27
8/12/2022 8:45:00 PM 21.39 70.502 1.725 7.27 120.63 0.27
8/12/2022 9:00:00 PM 21.11 69.998 1.641 7.27 124.54 0.28
8/12/2022 9:15:00 PM 20.86 69.548 1.396 7.27 126.38 0.28
8/12/2022 9:30:00 PM 20.64 69.152 1.826 7.26 128.27 0.28
8/12/2022 9:45:00 PM 20.43 68.774 1.826 7.27 125.23 0.28
8/12/2022 10:00:00 PM 20.25 68.45 2.345 7.27 125.75 0.28
8/12/2022 10:15:00 PM 20.08 68.144 2.242 7.26 127.28 0.28
8/12/2022 10:30:00 PM 19.9 67.82 2.231 7.27 129.17 0.28
8/12/2022 10:45:00 PM 19.72 67.496 2.278 7.26 138.04 0.28
8/12/2022 11:00:00 PM 19.54 67.172 2.214 7.27 138.45 0.28
8/12/2022 11:15:00 PM 19.38 66.884 2.189 7.26 129.67 0.28
8/12/2022 11:30:00 PM 19.22 66.596 2.135 7.28 130.08 0.29
8/12/2022 11:45:00 PM 19.06 66.308 2.106 7.25 129.28 0.29
8/13/2022 12:00:00 AM 18.9 66.02 1.995 7.28 130.43 0.29
8/13/2022 12:15:00 AM 18.74 65.732 1.77 7.28 128.46 0.29
8/13/2022 12:30:00 AM 18.58 65.444 1.784 7.28 129.38 0.29
8/13/2022 12:45:00 AM 18.41 65.138 1.726 7.3 129.55 0.29
8/13/2022 1:00:00 AM 18.28 64.904 1.72 7.3 134.87 0.29
8/13/2022 1:15:00 AM 18.12 64.616 1.641 7.3 140 0.29
8/13/2022 1:30:00 AM 17.97 64.346 1.678 7.32 139.88 0.29
8/13/2022 1:45:00 AM 17.84 64.112 1.743 7.32 148.53 0.3
8/13/2022 2:00:00 AM 17.7 63.86 1.742 7.33 187.18 0.3
8/13/2022 2:15:00 AM 17.57 63.626 1.519 7.32 171.1 0.3
8/13/2022 2:30:00 AM 17.43 63.374 1.495 7.33 175.08 0.3
8/13/2022 2:45:00 AM 17.32 63.176 1.472 7.34 182.52 0.3
8/13/2022 3:00:00 AM 17.19 62.942 1.736 7.33 172.17 0.3
8/13/2022 3:15:00 AM 17.07 62.726 1.752 7.33 165.45 0.3
8/13/2022 3:30:00 AM 16.96 62.528 1.729 7.34 151.87 0.3
8/13/2022 3:45:00 AM 16.85 62.33 1.675 7.35 151.86 0.3
8/13/2022 4:00:00 AM 16.74 62.132 1.686 7.36 149.66 0.3
8/13/2022 4:15:00 AM 16.63 61.934 1.663 7.39 148.35 0.3
8/13/2022 4:30:00 AM 16.52 61.736 1.641 7.4 154.45 0.3
8/13/2022 4:45:00 AM 16.42 61.556 1.667 7.41 152.21 0.31
8/13/2022 5:00:00 AM 16.32 61.376 1.661 7.41 152.87 0.31
8/13/2022 5:15:00 AM 16.23 61.214 1.613 7.42 150.58 0.31
8/13/2022 5:30:00 AM 16.14 61.052 1.58 7.42 147.78 0.31
8/13/2022 5:45:00 AM 16.04 60.872 1.577 7.43 148.6 0.31
8/13/2022 6:00:00 AM 15.95 60.71 1.594 7.43 148.6 0.31
8/13/2022 6:15:00 AM 15.87 60.566 1.565 7.44 149.49 0.31
8/13/2022 6:30:00 AM 15.79 60.422 1.524 7.44 145.55 0.31
8/13/2022 6:45:00 AM 15.71 60.278 1.442 7.44 142.97 0.31
8/13/2022 7:00:00 AM 15.63 60.134 1.257 7.43 139.07 0.31
8/13/2022 7:15:00 AM 15.58 60.044 1.327 7.44 136.54 0.31
8/13/2022 7:30:00 AM 15.57 60.026 1.268 7.44 133.39 0.31
8/13/2022 7:45:00 AM 15.59 60.062 1.269 7.44 130.15 0.31
8/13/2022 8:00:00 AM 15.64 60.152 1.274 7.43 126.27 0.31
8/13/2022 8:15:00 AM 15.72 60.296 1.28 7.44 123.19 0.31
8/13/2022 8:30:00 AM 15.82 60.476 1.254 7.43 116.84 0.31
8/13/2022 8:45:00 AM 15.98 60.764 1.243 7.42 114.41 0.31
8/13/2022 9:00:00 AM 16.18 61.124 1.302 7.41 116.55 0.3
8/13/2022 9:15:00 AM 16.42 61.556 1.299 7.41 113.46 0.3
8/13/2022 9:30:00 AM 16.68 62.024 1.207 7.4 113.35 0.3
8/13/2022 9:45:00 AM 16.96 62.528 1.101 7.4 115.82 0.3
8/13/2022 10:00:00 AM 17.25 63.05 1.073 7.4 118.16 0.3
8/13/2022 10:15:00 AM 17.56 63.608 1.097 7.39 120.45 0.29
8/13/2022 10:30:00 AM 17.89 64.202 1.107 7.39 122.48 0.29
8/13/2022 10:45:00 AM 18.22 64.796 1.088 7.38 121.84 0.29
8/13/2022 11:00:00 AM 18.52 65.336 1.068 7.39 123.05 0.28
8/13/2022 11:15:00 AM 18.9 66.02 1.048 7.38 125.43 0.28
8/13/2022 11:30:00 AM 19.25 66.65 1.157 7.39 126.7 0.28
8/13/2022 11:45:00 AM 19.65 67.37 1.204 7.38 128.63 0.27
8/13/2022 12:00:00 PM 20.05 68.09 1.178 7.37 128.61 0.27
8/13/2022 12:15:00 PM 20.48 68.864 1.138 7.36 127.94 0.27
8/13/2022 12:30:00 PM 20.89 69.602 1.141 7.36 126.83 0.26
8/13/2022 12:45:00 PM 21.3 70.34 1.141 7.35 126.53 0.26
8/13/2022 1:00:00 PM 21.73 71.114 1.077 7.35 141.45 0.26
8/13/2022 1:15:00 PM 22.12 71.816 1.103 7.34 144.97 0.26
8/13/2022 1:30:00 PM 22.48 72.464 1.142 7.33 141.92 0.25
8/13/2022 1:45:00 PM 22.79 73.022 1.189 7.33 140.24 0.25
8/13/2022 2:00:00 PM 23.07 73.526 1.15 7.32 140.82 0.25
8/13/2022 2:15:00 PM 23.34 74.012 1.184 7.32 141.02 0.25
8/13/2022 2:30:00 PM 23.55 74.39 1.193 7.31 138.11 0.25
8/13/2022 2:45:00 PM 23.83 74.894 1.188 7.31 132.97 0.25
8/13/2022 3:00:00 PM 24.11 75.398 1.142 7.3 129.7 0.24
8/13/2022 3:15:00 PM 24.38 75.884 1.228 7.3 127.54 0.24
8/13/2022 3:30:00 PM 24.45 76.01 1.171 7.29 128.24 0.24
8/13/2022 3:45:00 PM 24.38 75.884 1.19 7.29 126.58 0.25
8/13/2022 4:00:00 PM 24.46 76.028 1.182 7.3 122.12 0.25
8/13/2022 4:15:00 PM 24.43 75.974 1.212 7.29 121.6 0.25
8/13/2022 4:30:00 PM 24.39 75.902 1.236 7.28 121.13 0.25
8/13/2022 4:45:00 PM 24.29 75.722 1.208 7.3 119.32 0.25
8/13/2022 5:00:00 PM 24.23 75.614 1.228 7.29 117.61 0.25
8/13/2022 5:15:00 PM 24.13 75.434 1.156 7.29 118.82 0.25
8/13/2022 5:30:00 PM 24.02 75.236 1.209 7.3 118.7 0.25
8/13/2022 5:45:00 PM 23.98 75.164 1.104 7.3 116.65 0.25
8/13/2022 6:00:00 PM 23.86 74.948 1.103 7.29 116.52 0.25
8/13/2022 6:15:00 PM 23.61 74.498 1.099 7.3 116.4 0.25
8/13/2022 6:30:00 PM 23.37 74.066 0.992 7.3 115.5 0.25
8/13/2022 6:45:00 PM 23.2 73.76 0.871 7.29 115.45 0.26
8/13/2022 7:00:00 PM 23.02 73.436 0.801 7.31 114.84 0.26
8/13/2022 7:15:00 PM 22.8 73.04 0.775 7.31 114.05 0.26
8/13/2022 7:30:00 PM 22.57 72.626 0.728 7.31 114.45 0.26
8/13/2022 7:45:00 PM 22.34 72.212 0.787 7.32 114.45 0.26
8/13/2022 8:00:00 PM 22.11 71.798 0.758 7.3 112.61 0.27
8/13/2022 8:15:00 PM 21.87 71.366 0.536 7.32 111.6 0.27
8/13/2022 8:30:00 PM 21.63 70.934 0.301 7.33 111.88 0.27
8/13/2022 8:45:00 PM 21.42 70.556 1.09 7.33 111.45 0.27
8/13/2022 9:00:00 PM 21.21 70.17799 1.308 7.34 108.31 0.27
8/13/2022 9:15:00 PM 21.01 69.818 0.875 7.35 107.17 0.27
8/13/2022 9:30:00 PM 20.82 69.476 0.292 7.34 107.49 0.28
8/13/2022 9:45:00 PM 20.63 69.134 0.283 7.34 107.05 0.28
8/13/2022 10:00:00 PM 20.44 68.792 0.276 7.33 106.35 0.28
8/13/2022 10:15:00 PM 20.24 68.432 0.326 7.35 103.97 0.28
8/13/2022 10:30:00 PM 20.1 68.18 0.376 7.36 105.52 0.28
8/13/2022 10:45:00 PM 19.92 67.856 0.326 7.37 106.51 0.28
8/13/2022 11:00:00 PM 19.76 67.568 1.871 7.37 107.82 0.28
8/13/2022 11:15:00 PM 19.61 67.298 1.772 7.37 107.4 0.28
8/13/2022 11:30:00 PM 19.47 67.046 1.646 7.37 109.27 0.28
8/13/2022 11:45:00 PM 19.33 66.794 1.808 7.37 110.6 0.28
8/14/2022 12:00:00 AM 19.2 66.56 1.802 7.38 111.25 0.28
8/14/2022 12:15:00 AM 19.08 66.344 1.575 7.38 110.69 0.28
8/14/2022 12:30:00 AM 18.95 66.11 1.727 7.37 111.15 0.29
8/14/2022 12:45:00 AM 18.84 65.912 1.696 7.38 110.87 0.29
8/14/2022 1:00:00 AM 18.72 65.696 1.574 7.37 110.75 0.29
8/14/2022 1:15:00 AM 18.62 65.516 1.59 7.38 110.88 0.29
8/14/2022 1:30:00 AM 18.52 65.336 1.583 7.38 109.46 0.29
8/14/2022 1:45:00 AM 18.41 65.138 1.536 7.38 107.9 0.29
8/14/2022 2:00:00 AM 18.3 64.94 1.515 7.38 108.28 0.29
8/14/2022 2:15:00 AM 18.19 64.742 1.453 7.38 108.15 0.29
8/14/2022 2:30:00 AM 18.1 64.58 1.5 7.39 107.87 0.29
8/14/2022 2:45:00 AM 18 64.4 1.493 7.39 108.09 0.29
8/14/2022 3:00:00 AM 17.9 64.22 1.411 7.39 107.67 0.29
8/14/2022 3:15:00 AM 17.79 64.022 1.434 7.39 107.48 0.29
8/14/2022 3:30:00 AM 17.69 63.842 0.361 7.38 108.06 0.3
8/14/2022 3:45:00 AM 17.59 63.662 1.252 7.39 109.67 0.3
8/14/2022 4:00:00 AM 17.49 63.482 1.154 7.39 110.25 0.3
8/14/2022 4:15:00 AM 17.41 63.338 1.132 7.39 111.77 0.3
8/14/2022 4:30:00 AM 17.33 63.194 1.109 7.39 114.54 0.3
8/14/2022 4:45:00 AM 17.26 63.068 1.07 7.4 116.93 0.3
8/14/2022 5:00:00 AM 17.2 62.96 1.056 7.4 119.39 0.3
8/14/2022 5:15:00 AM 17.13 62.834 1.015 7.41 122.48 0.3
8/14/2022 5:30:00 AM 17.07 62.726 0.982 7.4 123.99 0.3
8/14/2022 5:45:00 AM 17.01 62.618 0.954 7.4 127.47 0.3
8/14/2022 6:00:00 AM 16.95 62.51 0.929 7.4 131.25 0.3
8/14/2022 6:15:00 AM 16.9 62.42 0.9 7.41 133.64 0.3
8/14/2022 6:30:00 AM 16.84 62.312 0.845 7.41 138.13 0.3
8/14/2022 6:45:00 AM 16.78 62.204 0.855 7.41 143.44 0.3
8/14/2022 7:00:00 AM 16.73 62.114 0.817 7.41 145.34 0.3
8/14/2022 7:15:00 AM 16.71 62.078 0.819 7.41 142.96 0.3
8/14/2022 7:30:00 AM 16.71 62.078 0.76 7.41 140.74 0.3
8/14/2022 7:45:00 AM 16.67 62.006 0.692 7.41 139.92 0.3
8/14/2022 8:00:00 AM 16.64 61.952 0.657 7.41 141.04 0.3
8/14/2022 8:15:00 AM 16.71 62.078 0.574 7.41 139.21 0.3
8/14/2022 8:30:00 AM 16.84 62.312 0.553 7.41 139.13 0.3
8/14/2022 8:45:00 AM 16.98 62.564 0.485 7.41 138.16 0.3
8/14/2022 9:00:00 AM 17.16 62.888 0.491 7.38 137.58 0.3
8/14/2022 9:15:00 AM 17.44 63.392 0.369 7.42 131.52 0.3
8/14/2022 9:30:00 AM 17.56 63.608 0.352 7.41 129.53 0.29
8/14/2022 9:45:00 AM 17.61 63.698 0.351 7.41 127.95 0.29
8/14/2022 10:00:00 AM 17.74 63.932 0.329 7.41 133.01 0.29
8/14/2022 10:15:00 AM 17.89 64.202 0.323 7.41 137.77 0.29
8/14/2022 10:30:00 AM 18.16 64.688 0.32 7.38 137.58 0.29
8/14/2022 10:45:00 AM 18.55 65.39 0.318 7.41 139.16 0.29
8/14/2022 11:00:00 AM 18.88 65.984 0.318 7.4 137.31 0.28
8/14/2022 11:15:00 AM 19.05 66.29 0.319 7.36 138.71 0.28
8/14/2022 11:30:00 AM 19.33 66.794 0.318 7.39 136.84 0.28
8/14/2022 11:45:00 AM 19.66 67.388 0.964 7.39 136.33 0.27
8/14/2022 12:00:00 PM 19.98 67.964 0.932 7.39 136.77 0.27
8/14/2022 12:15:00 PM 20.26 68.468 0.901 7.38 135.91 0.27
8/14/2022 12:30:00 PM 20.45 68.81 0.813 7.34 134.93 0.27
8/14/2022 12:45:00 PM 20.65 69.17 0.829 7.35 138.3 0.27
8/14/2022 1:00:00 PM 20.9 69.62 0.799 7.33 138.17 0.26
8/14/2022 1:15:00 PM 21.04 69.872 0.819 7.34 137.7 0.26
8/14/2022 1:30:00 PM 21.16 70.088 0.764 7.34 138.93 0.26
8/14/2022 1:45:00 PM 21.3 70.34 0.784 7.3 139.75 0.26
8/14/2022 2:00:00 PM 21.52 70.736 0.766 7.32 139.53 0.26
8/14/2022 2:15:00 PM 21.75 71.15 0.754 7.33 140.68 0.26
8/14/2022 2:30:00 PM 21.93 71.474 0.33 7.3 143.61 0.26
8/14/2022 2:45:00 PM 22.04 71.672 0.328 7.31 143.87 0.26
8/14/2022 3:00:00 PM 22.03 71.654 1.48 7.29 144.4 0.26
8/14/2022 3:15:00 PM 21.98 71.564 0.96 7.31 144.22 0.26
8/14/2022 3:30:00 PM 21.97 71.546 0.967 7.3 146.23 0.26
8/14/2022 3:45:00 PM 21.9 71.42 0.803 7.31 145.34 0.26
8/14/2022 4:00:00 PM 21.82 71.276 0.982 7.31 146.22 0.26
8/14/2022 4:15:00 PM 21.78 71.204 0.915 7.31 150.15 0.26
8/14/2022 4:30:00 PM 21.72 71.096 0.902 7.31 147.17 0.26
8/14/2022 4:45:00 PM 21.6 70.88 0.881 7.31 154.45 0.26
8/14/2022 5:00:00 PM 21.48 70.664 0.821 7.32 155.97 0.26
8/14/2022 5:15:00 PM 21.38 70.484 0.854 7.32 145.4 0.27
8/14/2022 5:30:00 PM 21.27 70.286 1.148 7.31 138.46 0.27
8/14/2022 5:45:00 PM 21.19 70.142 0.339 7.29 140.98 0.27
8/14/2022 6:00:00 PM 21.12 70.016 0.334 7.31 144.49 0.27
8/14/2022 6:15:00 PM 21.03 69.854 0.901 7.32 143.66 0.27
8/14/2022 6:30:00 PM 20.9 69.62 0.896 7.32 139.84 0.27
8/14/2022 6:45:00 PM 20.76 69.368 0.896 7.32 138.84 0.27
8/14/2022 7:00:00 PM 20.61 69.098 0.761 7.33 140.27 0.27
8/14/2022 7:15:00 PM 20.48 68.864 0.766 7.31 116.27 0.28
8/14/2022 7:30:00 PM 20.36 68.648 0.732 7.32 120.57 0.28
8/14/2022 7:45:00 PM 20.23 68.414 0.708 7.31 126.68 0.28
8/14/2022 8:00:00 PM 20.09 68.162 0.753 7.33 124.69 0.28
8/14/2022 8:15:00 PM 19.95 67.91 0.663 7.34 140.44 0.28
8/14/2022 8:30:00 PM 19.84 67.712 0.643 7.31 113.02 0.28
8/14/2022 8:45:00 PM 19.73 67.514 0.674 7.32 124.44 0.28
8/14/2022 9:00:00 PM 19.63 67.334 0.673 7.33 116.84 0.28
8/14/2022 9:15:00 PM 19.52 67.136 0.526 7.33 138.31 0.28
8/14/2022 9:30:00 PM 19.41 66.938 0.621 7.33 144.95 0.28
8/14/2022 9:45:00 PM 19.29 66.722 0.593 7.33 188.6 0.29
8/14/2022 10:00:00 PM 19.19 66.542 0.597 7.34 156.97 0.29
8/14/2022 10:15:00 PM 19.08 66.344 0.517 7.34 204.32 0.29
8/14/2022 10:30:00 PM 18.98 66.164 0.422 7.34 171.6 0.29
8/14/2022 10:45:00 PM 18.88 65.984 0.342 7.35 228.52 0.29
8/14/2022 11:00:00 PM 18.78 65.804 0.339 7.34 235.75 0.29
8/14/2022 11:15:00 PM 18.69 65.642 1.381 7.34 207.86 0.29
8/14/2022 11:30:00 PM 18.61 65.498 1.014 7.35 195.93 0.29
8/14/2022 11:45:00 PM 18.54 65.372 0.929 7.35 232.4 0.29
8/15/2022 12:00:00 AM 18.48 65.264 0.908 7.35 172.49 0.29
8/15/2022 12:15:00 AM 18.41 65.138 0.849 7.36 189.83 0.29
8/15/2022 12:30:00 AM 18.33 64.994 0.835 7.36 180.61 0.29
8/15/2022 12:45:00 AM 18.25 64.85 0.812 7.36 195.98 0.29
8/15/2022 1:00:00 AM 18.16 64.688 0.81 7.37 184.4 0.29
8/15/2022 1:15:00 AM 18.08 64.544 0.793 7.37 155.89 0.29
8/15/2022 1:30:00 AM 18.01 64.418 0.753 7.37 240.82 0.3
8/15/2022 1:45:00 AM 17.95 64.31 0.822 7.37 188.82 0.3
8/15/2022 2:00:00 AM 17.89 64.202 0.808 7.37 151.88 0.3
8/15/2022 2:15:00 AM 17.83 64.094 0.753 7.35 159.02 0.3
8/15/2022 2:30:00 AM 17.78 64.004 0.755 7.38 148.59 0.3
8/15/2022 2:45:00 AM 17.72 63.896 0.708 7.38 200.85 0.3
8/15/2022 3:00:00 AM 17.64 63.752 0.699 7.38 197.16 0.3
8/15/2022 3:15:00 AM 17.57 63.626 0.29 7.38 210.53 0.3
8/15/2022 3:30:00 AM 17.49 63.482 0.869 7.38 177.58 0.3
8/15/2022 3:45:00 AM 17.42 63.356 0.582 7.38 183.46 0.3
8/15/2022 4:00:00 AM 17.36 63.248 0.373 7.39 164.3 0.3
8/15/2022 4:15:00 AM 17.31 63.158 0.313 7.4 186.31 0.3
8/15/2022 4:30:00 AM 17.27 63.086 0.617 7.36 182.42 0.3
8/15/2022 4:45:00 AM 17.21 62.978 0.537 7.39 181.88 0.3
8/15/2022 5:00:00 AM 17.17 62.906 0.293 7.36 185.48 0.3
8/15/2022 5:15:00 AM 17.14 62.852 0.221 7.38 218.87 0.3
8/15/2022 5:30:00 AM 17.11 62.798 0.217 7.39 242.31 0.3
8/15/2022 5:45:00 AM 17.08 62.744 0.697 7.36 205.18 0.3
8/15/2022 6:00:00 AM 17.06 62.708 0.634 7.39 252.05 0.3
8/15/2022 6:15:00 AM 17.04 62.672 0.574 7.4 218.76 0.3
8/15/2022 6:30:00 AM 17.02 62.636 0.581 7.39 219.54 0.3
8/15/2022 6:45:00 AM 17 62.6 0.537 7.4 254.61 0.3
8/15/2022 7:00:00 AM 16.98 62.564 0.489 7.39 211 0.3
8/15/2022 7:15:00 AM 16.97 62.546 0.514 7.4 190.85 0.3
8/15/2022 7:30:00 AM 16.96 62.528 0.467 7.36 166.13 0.3
8/15/2022 7:45:00 AM 16.95 62.51 0.459 7.37 182.31 0.3
8/15/2022 8:00:00 AM 16.95 62.51 0.444 7.36 192.49 0.3
8/15/2022 8:15:00 AM 16.96 62.528 0.431 7.36 166.29 0.3
8/15/2022 8:30:00 AM 16.97 62.546 0.407 7.4 179.08 0.3
8/15/2022 8:45:00 AM 16.96 62.528 0.176 7.4 168.42 0.3
8/15/2022 9:00:00 AM 16.96 62.528 0.172 7.4 174.69 0.3
8/15/2022 9:15:00 AM 16.96 62.528 0.17 7.4 185.47 0.3
8/15/2022 9:30:00 AM 16.96 62.528 0.168 7.4 181.84 0.3
8/15/2022 9:45:00 AM 16.96 62.528 0.469 7.4 186.57 0.3
8/15/2022 10:00:00 AM 16.97 62.546 0.392 7.4 189.83 0.3
8/15/2022 10:15:00 AM 16.98 62.564 0.439 7.39 184.1 0.3
8/15/2022 10:30:00 AM 17 62.6 0.164 7.4 171.12 0.3
8/15/2022 10:45:00 AM 17.03 62.654 0.16 7.4 184.16 0.3
8/15/2022 11:00:00 AM 17.06 62.708 0.158 7.4 175.26 0.3
8/15/2022 11:15:00 AM 17.08 62.744 0.362 7.4 173.61 0.3
8/15/2022 11:30:00 AM 17.11 62.798 0.191 7.4 180.09 0.3
8/15/2022 11:45:00 AM 17.13 62.834 0.154 7.4 168.13 0.3
8/15/2022 12:00:00 PM 17.16 62.888 0.152 7.4 169.18 0.3
8/15/2022 12:15:00 PM 17.19 62.942 0.151 7.41 177.03 0.3
8/15/2022 12:30:00 PM 17.26 63.068 0.149 7.4 177.17 0.3
8/15/2022 12:45:00 PM 17.36 63.248 0.148 7.4 165.03 0.3
8/15/2022 1:00:00 PM 17.43 63.374 0.147 7.4 166.52 0.3
8/15/2022 1:15:00 PM 17.47 63.446 0.145 7.4 152.33 0.3
8/15/2022 1:30:00 PM 17.49 63.482 0.568 7.4 145.58 0.3
8/15/2022 1:45:00 PM 17.54 63.572 0.525 7.39 148.41 0.3
8/15/2022 2:00:00 PM 17.58 63.644 0.445 7.38 143.41 0.3
8/15/2022 2:15:00 PM 17.61 63.698 0.394 7.36 137.28 0.3
8/15/2022 2:30:00 PM 17.62 63.716 0.334 7.36 133.31 0.3
8/15/2022 2:45:00 PM 17.63 63.734 0.319 7.37 132.47 0.3
8/15/2022 3:00:00 PM 17.62 63.716 0.31 7.38 138.39 0.3
8/15/2022 3:15:00 PM 17.61 63.698 0.256 7.38 129.15 0.3
8/15/2022 3:30:00 PM 17.6 63.68 0.354 7.37 120.33 0.3
8/15/2022 3:45:00 PM 17.61 63.698 0.363 7.38 115.48 0.3
8/15/2022 4:00:00 PM 17.62 63.716 0.373 7.36 156.5 0.3
8/15/2022 4:15:00 PM 17.63 63.734 0.36 7.37 166.38 0.3
8/15/2022 4:30:00 PM 17.66 63.788 0.354 7.36 156.5 0.3
8/15/2022 4:45:00 PM 17.74 63.932 0.314 7.37 149.48 0.3
8/15/2022 5:00:00 PM 17.77 63.986 0.322 7.37 142.95 0.3
8/15/2022 5:15:00 PM 17.75 63.95 0.334 7.37 139.05 0.3
8/15/2022 5:30:00 PM 17.72 63.896 0.299 7.37 113.63 0.3
8/15/2022 5:45:00 PM 17.69 63.842 0.278 7.37 105.49 0.3
8/15/2022 6:00:00 PM 17.66 63.788 0.227 7.37 111.45 0.3
8/15/2022 6:15:00 PM 17.66 63.788 0.242 7.37 108.98 0.3
8/15/2022 6:30:00 PM 17.71 63.878 0.132 7.37 110.1 0.3
8/15/2022 6:45:00 PM 17.75 63.95 0.131 7.36 87.3 0.3
8/15/2022 7:00:00 PM 17.75 63.95 0.321 7.37 95.98 0.3
8/15/2022 7:15:00 PM 17.71 63.878 0.273 7.37 92.18 0.3
8/15/2022 7:30:00 PM 17.67 63.806 0.273 7.36 95.71 0.3
8/15/2022 7:45:00 PM 17.62 63.716 0.29 7.37 68.24 0.3
8/15/2022 8:00:00 PM 17.57 63.626 0.306 7.37 71.31 0.3
8/15/2022 8:15:00 PM 17.53 63.554 0.303 7.37 72.8 0.3
8/15/2022 8:30:00 PM 17.5 63.5 0.263 7.37 76.26 0.3
8/15/2022 8:45:00 PM 17.47 63.446 0.212 7.38 79.39 0.3
8/15/2022 9:00:00 PM 17.43 63.374 0.183 7.38 74.76 0.3
8/15/2022 9:15:00 PM 17.4 63.32 0.177 7.38 69.71 0.3
8/15/2022 9:30:00 PM 17.37 63.266 0.168 7.38 66.6 0.3
8/15/2022 9:45:00 PM 17.32 63.176 0.161 7.38 65.09 0.3
8/15/2022 10:00:00 PM 17.27 63.086 0.157 7.38 74.7 0.3
8/15/2022 10:15:00 PM 17.22 62.996 0.148 7.39 70.1 0.3
8/15/2022 10:30:00 PM 17.17 62.906 0.13 7.39 74.58 0.3
8/15/2022 10:45:00 PM 17.14 62.852 0.129 7.39 80.19 0.3
8/15/2022 11:00:00 PM 17.1 62.78 0.125 7.39 81.26 0.3
8/15/2022 11:15:00 PM 17.07 62.726 0.124 7.39 77.93 0.3
8/15/2022 11:30:00 PM 17.04 62.672 0.124 7.39 69.29 0.3
8/15/2022 11:45:00 PM 17 62.6 0.124 7.39 76.04 0.3
8/16/2022 12:00:00 AM 16.97 62.546 0.124 7.39 77.29 0.3
8/16/2022 12:15:00 AM 16.93 62.474 0.124 7.39 74.98 0.3
8/16/2022 12:30:00 AM 16.9 62.42 0.123 7.38 77.07 0.3
8/16/2022 12:45:00 AM 16.86 62.348 0.123 7.37 89.23 0.3
8/16/2022 1:00:00 AM 16.81 62.258 0.123 7.38 91.14 0.3
8/16/2022 1:15:00 AM 16.78 62.204 0.122 7.39 92.85 0.3
8/16/2022 1:30:00 AM 16.75 62.15 0.122 7.39 87.48 0.3
8/16/2022 1:45:00 AM 16.72 62.096 0.122 7.38 93.64 0.3
8/16/2022 2:00:00 AM 16.69 62.042 0.121 7.41 85.49 0.3
8/16/2022 2:15:00 AM 16.66 61.988 0.121 7.43 92.85 0.3
8/16/2022 2:30:00 AM 16.63 61.934 0.121 7.4 117.18 0.31
8/16/2022 2:45:00 AM 16.59 61.862 0.121 7.43 101.45 0.31
8/16/2022 3:00:00 AM 16.55 61.79 0.388 7.43 106.05 0.31
8/16/2022 3:15:00 AM 16.52 61.736 0.4 7.43 116.2 0.31
8/16/2022 3:30:00 AM 16.49 61.682 0.419 7.43 121.96 0.31
8/16/2022 3:45:00 AM 16.47 61.646 0.437 7.43 98.6 0.31
8/16/2022 4:00:00 AM 16.44 61.592 0.431 7.43 111.54 0.31
8/16/2022 4:15:00 AM 16.41 61.538 0.423 7.43 99.95 0.31
8/16/2022 4:30:00 AM 16.38 61.484 0.386 7.4 98.83 0.31
8/16/2022 4:45:00 AM 16.35 61.43 0.335 7.44 90.89 0.31
8/16/2022 5:00:00 AM 16.32 61.376 0.324 7.43 101.95 0.31
8/16/2022 5:15:00 AM 16.3 61.34 0.376 7.44 94.87 0.31
8/16/2022 5:30:00 AM 16.27 61.286 0.369 7.41 82.13 0.31
8/16/2022 5:45:00 AM 16.23 61.214 0.363 7.45 87.67 0.31
8/16/2022 6:00:00 AM 16.2 61.16 0.336 7.44 79.4 0.31
8/16/2022 6:15:00 AM 16.18 61.124 0.331 7.44 79.68 0.31
8/16/2022 6:30:00 AM 16.15 61.07 0.327 7.44 95.53 0.31
8/16/2022 6:45:00 AM 16.13 61.034 0.319 7.45 109.83 0.31
8/16/2022 7:00:00 AM 16.11 60.998 0.306 7.45 88.26 0.31
8/16/2022 7:15:00 AM 16.1 60.98 0.29 7.45 92.78 0.31
8/16/2022 7:30:00 AM 16.11 60.998 0.263 7.45 96.01 0.31
8/16/2022 7:45:00 AM 16.14 61.052 0.282 7.45 98.23 0.31
8/16/2022 8:00:00 AM 16.18 61.124 0.275 7.45 100.68 0.31
8/16/2022 8:15:00 AM 16.2 61.16 0.247 7.44 103.92 0.31
8/16/2022 8:30:00 AM 16.22 61.196 0.245 7.45 95.45 0.31
8/16/2022 8:45:00 AM 16.24 61.232 0.249 7.44 100.98 0.31
8/16/2022 9:00:00 AM 16.29 61.322 0.241 7.41 102.23 0.31
8/16/2022 9:15:00 AM 16.34 61.412 0.217 7.45 113.56 0.31
8/16/2022 9:30:00 AM 16.39 61.502 0.215 7.44 113.6 0.31
8/16/2022 9:45:00 AM 16.49 61.682 0.199 7.44 105.68 0.31
8/16/2022 10:00:00 AM 16.69 62.042 0.191 7.44 95.51 0.31
8/16/2022 10:15:00 AM 17.06 62.708 0.189 7.43 96.54 0.3
8/16/2022 10:30:00 AM 17.36 63.248 0.199 7.43 123 0.29
8/16/2022 10:45:00 AM 17.55 63.59 0.16 7.43 157.3 0.29
8/16/2022 11:00:00 AM 17.9 64.22 0.161 7.42 126.2 0.29
8/16/2022 11:15:00 AM 18.34 65.012 0.125 7.42 135.04 0.29
8/16/2022 11:30:00 AM 18.78 65.804 0.125 7.41 118.3 0.28
8/16/2022 11:45:00 AM 19.1 66.38 0.124 7.41 145.02 0.28
8/16/2022 12:00:00 PM 19.46 67.028 0.15 7.4 225.42 0.28
8/16/2022 12:15:00 PM 19.94 67.892 0.125 7.39 145.63 0.27
8/16/2022 12:30:00 PM 20.17 68.306 0.123 7.37 117.87 0.27
8/16/2022 12:45:00 PM 20.44 68.792 0.143 7.38 115.43 0.27
8/16/2022 1:00:00 PM 20.9 69.62 0.129 7.37 136.1 0.26
8/16/2022 1:15:00 PM 21.33 70.394 0.123 7.37 175.79 0.26
8/16/2022 1:30:00 PM 21.61 70.898 0.263 7.36 116.52 0.27
8/16/2022 1:45:00 PM 21.95 71.51 0.242 7.34 115.31 0.26
8/16/2022 2:00:00 PM 22.24 72.032 0.234 7.34 110.33 0.26
8/16/2022 2:15:00 PM 22.54 72.57201 0.234 7.33 107.84 0.26
8/16/2022 2:30:00 PM 22.7 72.86 0.225 7.33 108.35 0.26
8/16/2022 2:45:00 PM 22.66 72.788 0.212 7.33 106.1 0.26
8/16/2022 3:00:00 PM 22.54 72.57201 0.176 7.32 109.07 0.26
8/16/2022 3:15:00 PM 22.47 72.446 0.172 7.32 110.39 0.26
8/16/2022 3:30:00 PM 22.37 72.266 0.123 7.33 110.44 0.26
8/16/2022 3:45:00 PM 22.44 72.392 0.122 7.3 109.27 0.26
8/16/2022 4:00:00 PM 22.52 72.536 0.122 7.32 105.88 0.26
8/16/2022 4:15:00 PM 22.72 72.896 0.122 7.3 105.52 0.26
8/16/2022 4:30:00 PM 22.82 73.076 0.123 7.3 103.04 0.26
8/16/2022 4:45:00 PM 22.83 73.094 0.124 7.31 103.92 0.26
8/16/2022 5:00:00 PM 22.86 73.148 0.124 7.3 101.72 0.26
8/16/2022 5:15:00 PM 22.73 72.914 0.124 7.31 102.69 0.27
8/16/2022 5:30:00 PM 22.54 72.57201 0.124 7.32 98.69 0.27
8/16/2022 5:45:00 PM 22.36 72.248 0.125 7.31 103.31 0.27
8/16/2022 6:00:00 PM 22.25 72.05 0.126 7.32 105.53 0.27
8/16/2022 6:15:00 PM 22.18 71.924 0.125 7.29 99.69 0.27
8/16/2022 6:30:00 PM 22.09 71.762 0.125 7.32 95.46 0.26
8/16/2022 6:45:00 PM 21.96 71.528 0.124 7.31 101.83 0.27
8/16/2022 7:00:00 PM 21.82 71.276 0.125 7.32 103.57 0.27
8/16/2022 7:15:00 PM 21.67 71.006 0.125 7.31 97.83 0.27
8/16/2022 7:30:00 PM 21.49 70.682 0.125 7.3 95.77 0.27
8/16/2022 7:45:00 PM 21.32 70.376 0.126 7.3 95.44 0.27
8/16/2022 8:00:00 PM 21.15 70.07 0.125 7.31 98.98 0.29
8/16/2022 8:15:00 PM 20.98 69.764 0.125 7.32 93.91 0.29
8/16/2022 8:30:00 PM 20.8 69.44 0.124 7.32 93.05 0.3
8/16/2022 8:45:00 PM 20.62 69.116 0.124 7.32 97.43 0.29
8/16/2022 9:00:00 PM 20.45 68.81 0.124 7.3 97.2 0.31
8/16/2022 9:15:00 PM 20.27 68.486 0.124 7.32 99.41 0.3
8/16/2022 9:30:00 PM 20.09 68.162 0.124 7.32 97.14 0.29
8/16/2022 9:45:00 PM 19.94 67.892 0.124 7.31 98.82 0.31
8/16/2022 10:00:00 PM 19.81 67.658 0.124 7.31 96.2 0.31
8/16/2022 10:15:00 PM 19.67 67.406 0.124 7.32 100.72 0.3
8/16/2022 10:30:00 PM 19.55 67.19 0.124 7.31 103.13 0.29
8/16/2022 10:45:00 PM 19.45 67.01 0.124 7.32 104.18 0.29
8/16/2022 11:00:00 PM 19.36 66.848 0.124 7.3 104.01 0.3
8/16/2022 11:15:00 PM 19.25 66.65 0.125 7.3 111.11 0.3
8/16/2022 11:30:00 PM 19.14 66.452 0.125 7.3 107.06 0.31
8/16/2022 11:45:00 PM 19.04 66.272 0.125 7.31 102.85 0.3
8/17/2022 12:00:00 AM 18.94 66.092 0.125 7.3 114.37 0.33
8/17/2022 12:15:00 AM 18.84 65.912 0.125 7.3 116.5 0.31
8/17/2022 12:30:00 AM 18.74 65.732 0.125 7.33 116 0.29
8/17/2022 12:45:00 AM 18.65 65.57 0.126 7.33 116.21 0.29
8/17/2022 1:00:00 AM 18.57 65.426 0.126 7.33 124.19 0.29
8/17/2022 1:15:00 AM 18.5 65.3 0.126 7.33 124.16 0.29
8/17/2022 1:30:00 AM 18.44 65.192 0.127 7.33 118.4 0.3
8/17/2022 1:45:00 AM 18.39 65.102 0.127 7.34 121.91 0.29
8/17/2022 2:00:00 AM 18.33 64.994 0.127 7.34 131.56 0.29
8/17/2022 2:15:00 AM 18.27 64.886 0.127 7.34 129.65 0.3
8/17/2022 2:30:00 AM 18.22 64.796 0.129 7.35 128.36 0.3
8/17/2022 2:45:00 AM 18.16 64.688 0.129 7.35 121.38 0.3
8/17/2022 3:00:00 AM 18.09 64.562 0.131 7.34 128.63 0.31
8/17/2022 3:15:00 AM 18.03 64.454 0.131 7.33 134.47 0.31
8/17/2022 3:30:00 AM 17.96 64.328 0.131 7.34 132.62 0.3
8/17/2022 3:45:00 AM 17.9 64.22 0.132 7.33 133 0.31
8/17/2022 4:00:00 AM 17.84 64.112 0.131 7.34 132.25 0.31
8/17/2022 4:15:00 AM 17.78 64.004 0.131 7.34 139.36 0.3
8/17/2022 4:30:00 AM 17.73 63.914 0.131 7.34 148.55 0.32
8/17/2022 4:45:00 AM 17.67 63.806 0.131 7.34 145.77 0.31
8/17/2022 5:00:00 AM 17.62 63.716 0.132 7.34 147.46 0.31
8/17/2022 5:15:00 AM 17.56 63.608 0.133 7.34 169.23 0.33
8/17/2022 5:30:00 AM 17.5 63.5 0.133 7.33 178.95 0.31
8/17/2022 5:45:00 AM 17.45 63.41 0.134 7.35 173.24 0.3
8/17/2022 6:00:00 AM 17.39 63.302 0.135 7.35 180.41 0.31
8/17/2022 6:15:00 AM 17.35 63.23 0.136 7.35 170.29 0.31
8/17/2022 6:30:00 AM 17.31 63.158 0.136 7.35 184.55 0.3
8/17/2022 6:45:00 AM 17.27 63.086 0.136 7.37 174.15 0.3
8/17/2022 7:00:00 AM 17.24 63.032 0.137 7.35 150.46 0.31
8/17/2022 7:15:00 AM 17.21 62.978 0.138 7.38 157.49 0.3
8/17/2022 7:30:00 AM 17.2 62.96 0.138 7.38 163.87 0.31
8/17/2022 7:45:00 AM 17.2 62.96 0.138 7.38 163.63 0.31
8/17/2022 8:00:00 AM 17.22 62.996 0.139 7.38 159.29 0.31
8/17/2022 8:15:00 AM 17.26 63.068 0.139 7.38 157.19 0.32
8/17/2022 8:30:00 AM 17.3 63.14 0.14 7.38 156.96 0.31
8/17/2022 8:45:00 AM 17.35 63.23 0.139 7.36 151.26 0.32
8/17/2022 9:00:00 AM 17.41 63.338 0.139 7.38 163.35 0.32
8/17/2022 9:15:00 AM 17.52 63.536 0.139 7.38 168.44 0.32
8/17/2022 9:30:00 AM 17.68 63.824 0.14 7.37 162.79 0.33
8/17/2022 9:45:00 AM 17.77 63.986 0.14 7.37 160.41 0.35
8/17/2022 10:00:00 AM 18.02 64.436 0.14 7.35 151.02 0.32
8/17/2022 10:15:00 AM 18.26 64.868 0.141 7.34 152.98 0.32
8/17/2022 10:30:00 AM 18.36 65.048 0.141 7.33 160.37 0.33
8/17/2022 10:45:00 AM 18.48 65.264 0.141 7.32 165.99 0.37
8/17/2022 11:00:00 AM 18.62 65.516 0.141 7.3 184.43 0.35
8/17/2022 11:15:00 AM 18.74 65.732 0.141 7.3 169.34 0.33
8/17/2022 11:30:00 AM 18.88 65.984 0.141 7.31 164.13 0.35
8/17/2022 11:45:00 AM 19.06 66.308 0.14 7.3 163.71 0.36
8/17/2022 12:00:00 PM 19.28 66.704 0.14 7.31 163.92 0.36
8/17/2022 12:15:00 PM 19.52 67.136 0.14 7.31 163.91 0.37
8/17/2022 12:30:00 PM 19.69 67.442 0.141 7.31 164.17 0.38
8/17/2022 12:45:00 PM 19.93 67.874 0.141 7.32 164.07 0.37
8/17/2022 1:00:00 PM 20.22 68.396 0.141 7.31 164.41 0.4
8/17/2022 1:15:00 PM 20.35 68.63 0.141 7.32 164.36 0.38
8/17/2022 1:30:00 PM 20.46 68.828 0.14 7.31 164.89 0.38
8/17/2022 1:45:00 PM 20.6 69.08 0.14 7.31 164.96 0.38
8/17/2022 2:00:00 PM 20.77 69.386 0.14 7.31 165.16 0.38
8/17/2022 2:15:00 PM 20.93 69.674 0.139 7.32 165.2 0.38
8/17/2022 2:30:00 PM 21.3 70.34 0.138 7.31 165.46 0.4
8/17/2022 2:45:00 PM 21.65 70.97 0.138 7.3 165.63 0.38
8/17/2022 3:00:00 PM 21.79 71.222 0.137 7.29 165.95 0.4
8/17/2022 3:15:00 PM 21.7 71.06 0.137 7.3 166.36 0.39
8/17/2022 3:30:00 PM 21.5 70.7 0.136 7.29 166.59 0.41
8/17/2022 3:45:00 PM 21.33 70.394 0.137 7.3 166.66 0.4
8/17/2022 4:00:00 PM 21.24 70.232 0.137 7.29 166.74 0.45
8/17/2022 4:15:00 PM 21.23 70.214 0.137 7.26 166.82 0.47
8/17/2022 4:30:00 PM 21.38 70.484 0.137 7.27 166.89 0.42
8/17/2022 4:45:00 PM 21.67 71.006 0.138 7.27 166.9 0.4
8/17/2022 5:00:00 PM 21.9 71.42 0.138 7.25 166.95 0.41
8/17/2022 5:15:00 PM 21.96 71.528 0.138 7.25 167.12 0.41
8/17/2022 5:30:00 PM 21.85 71.33 0.138 7.25 167.44 0.43
8/17/2022 5:45:00 PM 21.7 71.06 0.138 7.25 167.4 0.45
8/17/2022 6:00:00 PM 21.54 70.772 0.139 7.25 167.39 0.47
8/17/2022 6:15:00 PM 21.42 70.556 0.139 7.25 167.54 0.47
8/17/2022 6:30:00 PM 21.34 70.412 0.139 7.24 167.58 0.5
8/17/2022 6:45:00 PM 21.26 70.268 0.138 7.24 167.57 0.47
8/17/2022 7:00:00 PM 21.13 70.034 0.138 7.24 167.63 0.47
8/17/2022 7:15:00 PM 20.99 69.782 0.138 7.24 167.58 0.46
8/17/2022 7:30:00 PM 20.84 69.512 0.138 7.24 167.69 0.4
8/17/2022 7:45:00 PM 20.69 69.242 0.139 7.24 167.8 0.36
8/17/2022 8:00:00 PM 20.54 68.972 0.139 7.25 167.69 0.37
8/17/2022 8:15:00 PM 20.38 68.684 0.14 7.26 167.8 0.34
8/17/2022 8:30:00 PM 20.2 68.36 0.14 7.25 167.85 0.33
8/17/2022 8:45:00 PM 20.02 68.036 0.14 7.26 167.86 0.33
8/17/2022 9:00:00 PM 19.86 67.748 0.14 7.25 167.7 0.35
8/17/2022 9:15:00 PM 19.71 67.478 0.14 7.26 167.74 0.34
8/17/2022 9:30:00 PM 19.58 67.244 0.139 7.26 168.08 0.37
8/17/2022 9:45:00 PM 19.46 67.028 0.14 7.26 168.16 0.38
8/17/2022 10:00:00 PM 19.34 66.812 0.14 7.25 168.19 0.33
8/17/2022 10:15:00 PM 19.24 66.632 0.14 7.26 168.19 0.31
8/17/2022 10:30:00 PM 19.13 66.434 0.14 7.26 168.52 0.37
8/17/2022 10:45:00 PM 19 66.2 0.141 7.27 168.62 0.34
8/17/2022 11:00:00 PM 18.87 65.966 0.14 7.27 168.57 0.36
8/17/2022 11:15:00 PM 18.75 65.75 0.14 7.27 168.66 0.37
8/17/2022 11:30:00 PM 18.64 65.552 0.141 7.27 168.53 0.39
8/17/2022 11:45:00 PM 18.52 65.336 0.142 7.26 168.7 0.41
8/18/2022 12:00:00 AM 18.41 65.138 0.143 7.27 168.98 0.38
8/18/2022 12:15:00 AM 18.3 64.94 0.143 7.26 169 0.42
8/18/2022 12:30:00 AM 18.19 64.742 0.143 7.27 169 0.39
8/18/2022 12:45:00 AM 18.07 64.526 0.143 7.27 169.16 0.4
8/18/2022 1:00:00 AM 17.96 64.328 0.143 7.26 169.24 0.45
8/18/2022 1:15:00 AM 17.85 64.13 0.143 7.28 169.32 0.44
8/18/2022 1:30:00 AM 17.75 63.95 0.143 7.27 169.51 0.44
8/18/2022 1:45:00 AM 17.65 63.77 0.143 7.29 169.58 0.39
8/18/2022 2:00:00 AM 17.55 63.59 0.143 7.28 169.83 0.41
8/18/2022 2:15:00 AM 17.46 63.428 0.143 7.29 169.79 0.41
8/18/2022 2:30:00 AM 17.36 63.248 0.143 7.29 169.95 0.38
8/18/2022 2:45:00 AM 17.27 63.086 0.143 7.3 170.02 0.43
8/18/2022 3:00:00 AM 17.18 62.924 0.143 7.3 170.05 0.41
8/18/2022 3:15:00 AM 17.1 62.78 0.143 7.3 170.19 0.43
8/18/2022 3:30:00 AM 17.02 62.636 0.143 7.3 170.21 0.45
8/18/2022 3:45:00 AM 16.94 62.492 0.143 7.3 170.42 0.48
8/18/2022 4:00:00 AM 16.86 62.348 0.143 7.3 170.65 0.5
8/18/2022 4:15:00 AM 16.79 62.222 0.143 7.3 170.66 0.45
8/18/2022 4:30:00 AM 16.73 62.114 0.143 7.31 170.75 0.44
8/18/2022 4:45:00 AM 16.67 62.006 0.143 7.31 170.84 0.4
8/18/2022 5:00:00 AM 16.61 61.898 0.143 7.3 170.92 0.43
8/18/2022 5:15:00 AM 16.53 61.754 0.143 7.31 171.01 0.44
8/18/2022 5:30:00 AM 16.46 61.628 0.143 7.3 171.08 0.44
8/18/2022 5:45:00 AM 16.4 61.52 0.143 7.31 171.13 0.51
8/18/2022 6:00:00 AM 16.33 61.394 0.143 7.31 171.04 0.57
8/18/2022 6:15:00 AM 16.26 61.268 0.143 7.31 170.98 0.49
8/18/2022 6:30:00 AM 16.19 61.142 0.144 7.31 171.14 0.49
8/18/2022 6:45:00 AM 16.13 61.034 0.144 7.31 171.2 0.54
8/18/2022 7:00:00 AM 16.06 60.908 0.145 7.31 171.3 0.5
8/18/2022 7:15:00 AM 16.01 60.818 0.145 7.31 171.33 0.49
8/18/2022 7:30:00 AM 15.98 60.764 0.146 7.32 171.37 0.46
8/18/2022 7:45:00 AM 15.96 60.728 0.146 7.31 171.46 0.5
8/18/2022 8:00:00 AM 15.97 60.746 0.147 7.31 171.55 0.44
8/18/2022 8:15:00 AM 16 60.8 0.147 7.31 171.56 0.44
8/18/2022 8:30:00 AM 16.06 60.908 0.147 7.3 171.67 0.44
8/18/2022 8:45:00 AM 16.14 61.052 0.147 7.3 171.86 0.53
8/18/2022 9:00:00 AM 16.26 61.268 0.146 7.29 171.93 0.43
8/18/2022 9:15:00 AM 16.41 61.538 0.146 7.29 172.07 0.43
8/18/2022 9:30:00 AM 16.6 61.88 0.145 7.29 172.26 0.34
8/18/2022 9:45:00 AM 16.82 62.276 0.145 7.28 172.42 0.39
8/18/2022 10:00:00 AM 17.06 62.708 0.144 7.28 172.48 0.37
8/18/2022 10:15:00 AM 17.32 63.176 0.143 7.27 172.71 0.34
8/18/2022 10:30:00 AM 17.59 63.662 0.143 7.27 172.72 0.34
8/18/2022 10:45:00 AM 17.88 64.184 0.143 7.27 172.91 0.31
8/18/2022 11:00:00 AM 18.19 64.742 0.142 7.26 173.15 0.3
8/18/2022 11:15:00 AM 18.51 65.318 0.142 7.26 173.3 0.35
8/18/2022 11:30:00 AM 18.84 65.912 0.142 7.25 173.55 0.35
8/18/2022 11:45:00 AM 19.19 66.542 0.142 7.24 173.72 0.35
8/18/2022 12:00:00 PM 19.55 67.19 0.143 7.24 174.03 0.4
8/18/2022 12:15:00 PM 19.95 67.91 0.143 7.23 174.37 0.36
8/18/2022 12:30:00 PM 20.31 68.558 0.143 7.22 174.59 0.31
8/18/2022 12:45:00 PM 20.68 69.224 0.143 7.22 175.09 0.32
8/18/2022 1:00:00 PM 21.06 69.908 0.144 7.21 175.7 0.31
8/18/2022 1:15:00 PM 21.47 70.646 0.144 7.2 176.29 0.3
8/18/2022 1:30:00 PM 21.69 71.042 0.145 7.2 176.17 0.3
8/18/2022 1:45:00 PM 21.89 71.402 0.146 7.2 176.49 0.28
8/18/2022 2:00:00 PM 22.06 71.708 0.146 7.19 176.75 0.26
8/18/2022 2:15:00 PM 22.32 72.176 0.148 7.19 177.09 0.26
8/18/2022 2:30:00 PM 22.6 72.68 0.148 7.18 177.68 0.26
8/18/2022 2:45:00 PM 22.77 72.986 0.147 7.17 177.75 0.27
8/18/2022 3:00:00 PM 22.96 73.328 0.147 7.17 178.18 0.26
8/18/2022 3:15:00 PM 23.2 73.76 0.148 7.17 178.81 0.25
8/18/2022 3:30:00 PM 23.27 73.886 0.148 7.16 178.79 0.25
8/18/2022 3:45:00 PM 23.42 74.156 0.147 7.16 179.38 0.25
8/18/2022 4:00:00 PM 23.54 74.372 0.147 7.16 188.72 0.25
8/18/2022 4:15:00 PM 23.67 74.606 0.147 7.15 188.97 0.25
8/18/2022 4:30:00 PM 23.78 74.804 0.147 7.14 189.09 0.25
8/18/2022 4:45:00 PM 23.83 74.894 0.147 7.14 189.14 0.25
8/18/2022 5:00:00 PM 23.87 74.966 0.149 7.15 189.2 0.26
8/18/2022 5:15:00 PM 23.89 75.002 0.149 7.15 189.39 0.26
8/18/2022 5:30:00 PM 23.91 75.038 0.15 7.14 189.7 0.25
8/18/2022 5:45:00 PM 23.91 75.038 0.151 7.14 189.74 0.25
8/18/2022 6:00:00 PM 23.85 74.93 0.152 7.15 189.86 0.25
8/18/2022 6:15:00 PM 23.76 74.768 0.151 7.14 190.01 0.25
8/18/2022 6:30:00 PM 23.64 74.552 0.151 7.14 190.03 0.25
8/18/2022 6:45:00 PM 23.49 74.282 0.15 7.15 190.11 0.25
8/18/2022 7:00:00 PM 23.31 73.958 0.15 7.16 190 0.25
8/18/2022 7:15:00 PM 23.11 73.598 0.15 7.16 189.95 0.25
8/18/2022 7:30:00 PM 22.91 73.238 0.15 7.17 189.77 0.26
8/18/2022 7:45:00 PM 22.7 72.86 0.151 7.16 189.63 0.32
8/18/2022 8:00:00 PM 22.48 72.464 0.15 7.16 189.48 0.27
8/18/2022 8:15:00 PM 22.25 72.05 0.151 7.16 189.34 0.27
8/18/2022 8:30:00 PM 22.01 71.618 0.152 7.16 189.22 0.28
8/18/2022 8:45:00 PM 21.77 71.186 0.152 7.16 188.97 0.3
8/18/2022 9:00:00 PM 21.53 70.754 0.152 7.17 188.82 0.33
8/18/2022 9:15:00 PM 21.3 70.34 0.153 7.16 188.63 0.32
8/18/2022 9:30:00 PM 21.08 69.944 0.153 7.17 188.61 0.28
8/18/2022 9:45:00 PM 20.88 69.584 0.154 7.17 188.59 0.28
8/18/2022 10:00:00 PM 20.68 69.224 0.154 7.18 188.53 0.28
8/18/2022 10:15:00 PM 20.5 68.9 0.154 7.18 188.43 0.28
8/18/2022 10:30:00 PM 20.32 68.576 0.154 7.18 188.43 0.28
8/18/2022 10:45:00 PM 20.15 68.27 0.154 7.19 188.43 0.28
8/18/2022 11:00:00 PM 19.98 67.964 0.155 7.19 188.46 0.28
8/18/2022 11:15:00 PM 19.82 67.676 0.155 7.19 188.45 0.28
8/18/2022 11:30:00 PM 19.66 67.388 0.156 7.18 188.74 0.28
8/18/2022 11:45:00 PM 19.5 67.1 0.156 7.19 188.76 0.28
8/19/2022 12:00:00 AM 19.36 66.848 0.157 7.19 188.65 0.28
8/19/2022 12:15:00 AM 19.21 66.578 0.157 7.19 188.65 0.28
8/19/2022 12:30:00 AM 19.07 66.326 0.157 7.19 188.73 0.28
8/19/2022 12:45:00 AM 18.92 66.056 0.158 7.2 188.67 0.29
8/19/2022 1:00:00 AM 18.79 65.82201 0.158 7.2 188.74 0.29
8/19/2022 1:15:00 AM 18.65 65.57 0.159 7.19 188.95 0.29
8/19/2022 1:30:00 AM 18.52 65.336 0.159 7.2 188.98 0.29
8/19/2022 1:45:00 AM 18.4 65.12 0.16 7.2 189.06 0.29
8/19/2022 2:00:00 AM 18.27 64.886 0.16 7.2 188.95 0.29
8/19/2022 2:15:00 AM 18.15 64.67 0.16 7.2 188.82 0.29
8/19/2022 2:30:00 AM 18.02 64.436 0.16 7.2 188.91 0.29
8/19/2022 2:45:00 AM 17.9 64.22 0.16 7.2 189.01 0.29
8/19/2022 3:00:00 AM 17.79 64.022 0.161 7.2 189.08 0.29
8/19/2022 3:15:00 AM 17.68 63.824 0.161 7.2 189.14 0.29
8/19/2022 3:30:00 AM 17.58 63.644 0.161 7.2 189.13 0.3
8/19/2022 3:45:00 AM 17.49 63.482 0.161 7.2 189.12 0.3
8/19/2022 4:00:00 AM 17.39 63.302 0.161 7.2 189.17 0.3
8/19/2022 4:15:00 AM 17.3 63.14 0.161 7.2 189.23 0.3
8/19/2022 4:30:00 AM 17.21 62.978 0.161 7.2 189.37 0.3
8/19/2022 4:45:00 AM 17.12 62.816 0.161 7.21 189.37 0.3
8/19/2022 5:00:00 AM 17.04 62.672 0.161 7.21 189.42 0.3
8/19/2022 5:15:00 AM 16.96 62.528 0.16 7.21 189.48 0.3
8/19/2022 5:30:00 AM 16.88 62.384 0.16 7.22 189.49 0.3
8/19/2022 5:45:00 AM 16.8 62.24 0.16 7.23 189.53 0.3
8/19/2022 6:00:00 AM 16.72 62.096 0.16 7.23 189.6 0.3
8/19/2022 6:15:00 AM 16.65 61.97 0.159 7.24 189.67 0.3
8/19/2022 6:30:00 AM 16.58 61.844 0.159 7.24 189.78 0.3
8/19/2022 6:45:00 AM 16.52 61.736 0.159 7.24 189.82 0.3
8/19/2022 7:00:00 AM 16.46 61.628 0.159 7.24 189.84 0.3
8/19/2022 7:15:00 AM 16.41 61.538 0.159 7.24 189.95 0.3
8/19/2022 7:30:00 AM 16.37 61.466 0.159 7.23 189.98 0.3
8/19/2022 7:45:00 AM 16.35 61.43 0.159 7.23 190 0.3
8/19/2022 8:00:00 AM 16.37 61.466 0.159 7.24 190.07 0.3
8/19/2022 8:15:00 AM 16.42 61.556 0.16 7.23 190.22 0.3
8/19/2022 8:30:00 AM 16.48 61.664 0.16 7.22 190.27 0.3
8/19/2022 8:45:00 AM 16.57 61.826 0.161 7.22 190.32 0.3
8/19/2022 9:00:00 AM 16.7 62.06 0.161 7.22 190.45 0.3
8/19/2022 9:15:00 AM 16.86 62.348 0.16 7.21 190.53 0.3
8/19/2022 9:30:00 AM 17.05 62.69 0.161 7.21 190.58 0.3
8/19/2022 9:45:00 AM 17.28 63.104 0.161 7.21 190.77 0.29
8/19/2022 10:00:00 AM 17.54 63.572 0.161 7.2 190.78 0.29
8/19/2022 10:15:00 AM 17.81 64.058 0.162 7.2 190.96 0.29
8/19/2022 10:30:00 AM 18.06 64.508 0.162 7.2 191 0.29
8/19/2022 10:45:00 AM 18.36 65.048 0.163 7.2 191.13 0.29
8/19/2022 11:00:00 AM 18.7 65.66 0.163 7.19 191.18 0.28
8/19/2022 11:15:00 AM 19.06 66.308 0.164 7.19 183.34 0.28
8/19/2022 11:30:00 AM 19.25 66.65 0.164 7.17 183.37 0.28
8/19/2022 11:45:00 AM 19.43 66.974 0.165 7.17 183.5 0.27
8/19/2022 12:00:00 PM 19.78 67.604 0.164 7.16 183.79 0.27
8/19/2022 12:15:00 PM 20.17 68.306 0.163 7.17 183.87 0.27
8/19/2022 12:30:00 PM 20.57 69.026 0.162 7.16 184.23 0.26
8/19/2022 12:45:00 PM 20.78 69.404 0.164 7.16 184.25 0.26
8/19/2022 1:00:00 PM 20.82 69.476 0.165 7.15 184.2 0.26
8/19/2022 1:15:00 PM 20.82 69.476 0.166 7.16 184.28 0.27
8/19/2022 1:30:00 PM 21.01 69.818 0.166 7.16 186.35 0.26
8/19/2022 1:45:00 PM 21.34 70.412 0.166 7.16 186.77 0.26
8/19/2022 2:00:00 PM 21.51 70.718 0.167 7.15 186.97 0.26
8/19/2022 2:15:00 PM 21.83 71.294 0.165 7.15 187.81 0.26
8/19/2022 2:30:00 PM 22.25 72.05 0.163 7.14 188.87 0.25
8/19/2022 2:45:00 PM 22.45 72.41 0.163 7.13 189.02 0.25
8/19/2022 3:00:00 PM 22.62 72.716 0.165 7.13 189.42 0.25
8/19/2022 3:15:00 PM 22.83 73.094 0.166 7.12 191.27 0.25
8/19/2022 3:30:00 PM 23.05 73.49 0.167 7.13 191.81 0.25
8/19/2022 3:45:00 PM 23.31 73.958 0.168 7.13 192.45 0.25
8/19/2022 4:00:00 PM 23.49 74.282 0.169 7.13 192.66 0.25
8/19/2022 4:15:00 PM 23.62 74.516 0.17 7.13 192.98 0.25
8/19/2022 4:30:00 PM 23.6 74.48 0.17 7.13 192.67 0.25
8/19/2022 4:45:00 PM 23.53 74.354 0.17 7.13 192.54 0.25
8/19/2022 5:00:00 PM 23.51 74.318 0.17 7.13 192.4 0.25
8/19/2022 5:15:00 PM 23.47 74.246 0.17 7.13 192.24 0.25
8/19/2022 5:30:00 PM 23.43 74.174 0.17 7.14 191.99 0.25
8/19/2022 5:45:00 PM 23.35 74.03 0.171 7.14 191.7 0.25
8/19/2022 6:00:00 PM 23.28 73.904 0.171 7.14 191.55 0.25
8/19/2022 6:15:00 PM 23.26 73.868 0.171 7.14 191.39 0.25
8/19/2022 6:30:00 PM 23.2 73.76 0.171 7.13 191.22 0.25
8/19/2022 6:45:00 PM 23.08 73.544 0.171 7.13 191.05 0.25
8/19/2022 7:00:00 PM 22.92 73.256 0.171 7.12 190.79 0.26
8/19/2022 7:15:00 PM 22.76 72.968 0.171 7.13 190.64 0.26
8/19/2022 7:30:00 PM 22.58 72.644 0.171 7.12 190.64 0.26
8/19/2022 7:45:00 PM 22.4 72.32 0.17 7.12 190.27 0.26
8/19/2022 8:00:00 PM 22.21 71.978 0.17 7.12 190.1 0.26
8/19/2022 8:15:00 PM 22.02 71.636 0.169 7.13 189.93 0.26
8/19/2022 8:30:00 PM 21.83 71.294 0.169 7.13 189.57 0.26
8/19/2022 8:45:00 PM 21.64 70.952 0.169 7.14 189.36 0.27
8/19/2022 9:00:00 PM 21.47 70.646 0.169 7.14 188.9 0.27
8/19/2022 9:15:00 PM 21.3 70.34 0.169 7.15 188.72 0.27
8/19/2022 9:30:00 PM 21.13 70.034 0.169 7.15 188.34 0.27
8/19/2022 9:45:00 PM 20.97 69.746 0.17 7.15 188.49 0.27
8/19/2022 10:00:00 PM 20.8 69.44 0.17 7.15 188.37 0.27
8/19/2022 10:15:00 PM 20.64 69.152 0.17 7.16 188.05 0.27
8/19/2022 10:30:00 PM 20.47 68.846 0.17 7.16 188.01 0.28
8/19/2022 10:45:00 PM 20.32 68.576 0.17 7.17 187.87 0.28
8/19/2022 11:00:00 PM 20.17 68.306 0.171 7.17 187.68 0.28
8/19/2022 11:15:00 PM 20.03 68.054 0.171 7.17 187.59 0.28
8/19/2022 11:30:00 PM 19.88 67.784 0.172 7.17 187.43 0.28
8/19/2022 11:45:00 PM 19.74 67.532 0.172 7.17 187.48 0.28
8/20/2022 12:00:00 AM 19.6 67.28 0.172 7.17 187.03 0.28
8/20/2022 12:15:00 AM 19.46 67.028 0.171 7.17 186.92 0.28
8/20/2022 12:30:00 AM 19.33 66.794 0.17 7.18 186.79 0.28
8/20/2022 12:45:00 AM 19.21 66.578 0.169 7.18 186.89 0.28
8/20/2022 1:00:00 AM 19.08 66.344 0.169 7.17 186.77 0.28
8/20/2022 1:15:00 AM 18.96 66.128 0.169 7.18 186.71 0.29
8/20/2022 1:30:00 AM 18.84 65.912 0.169 7.19 186.65 0.29
8/20/2022 1:45:00 AM 18.73 65.714 0.169 7.19 186.6 0.29
8/20/2022 2:00:00 AM 18.62 65.516 0.169 7.18 186.56 0.29
8/20/2022 2:15:00 AM 18.51 65.318 0.169 7.17 186.53 0.29
8/20/2022 2:30:00 AM 18.4 65.12 0.169 7.17 186.53 0.29
8/20/2022 2:45:00 AM 18.31 64.958 0.169 7.17 186.43 0.29
8/20/2022 3:00:00 AM 18.21 64.778 0.17 7.17 186.56 0.29
8/20/2022 3:15:00 AM 18.12 64.616 0.17 7.18 186.53 0.29
8/20/2022 3:30:00 AM 18.04 64.472 0.17 7.18 186.45 0.29
8/20/2022 3:45:00 AM 17.96 64.328 0.17 7.18 186.43 0.29
8/20/2022 4:00:00 AM 17.88 64.184 0.17 7.19 186.52 0.29
8/20/2022 4:15:00 AM 17.8 64.04 0.17 7.19 186.51 0.29
8/20/2022 4:30:00 AM 17.72 63.896 0.17 7.19 186.37 0.29
8/20/2022 4:45:00 AM 17.64 63.752 0.17 7.19 186.5 0.29
8/20/2022 5:00:00 AM 17.56 63.608 0.17 7.19 186.52 0.29
8/20/2022 5:15:00 AM 17.5 63.5 0.17 7.2 186.62 0.29
8/20/2022 5:30:00 AM 17.44 63.392 0.17 7.19 186.55 0.29
8/20/2022 5:45:00 AM 17.39 63.302 0.17 7.19 186.58 0.29
8/20/2022 6:00:00 AM 17.35 63.23 0.171 7.2 186.52 0.29
8/20/2022 6:15:00 AM 17.31 63.158 0.171 7.2 186.59 0.3
8/20/2022 6:30:00 AM 17.27 63.086 0.171 7.2 186.65 0.3
8/20/2022 6:45:00 AM 17.23 63.014 0.171 7.2 186.66 0.3
8/20/2022 7:00:00 AM 17.19 62.942 0.171 7.21 186.73 0.3
8/20/2022 7:15:00 AM 17.15 62.87 0.171 7.22 186.76 0.3
8/20/2022 7:30:00 AM 17.13 62.834 0.171 7.23 186.95 0.3
8/20/2022 7:45:00 AM 17.12 62.816 0.171 7.23 186.93 0.3
8/20/2022 8:00:00 AM 17.13 62.834 0.171 7.23 186.87 0.3
8/20/2022 8:15:00 AM 17.17 62.906 0.171 7.23 186.98 0.3
8/20/2022 8:30:00 AM 17.24 63.032 0.171 7.23 188.29 0.3
8/20/2022 8:45:00 AM 17.33 63.194 0.171 7.23 188.65 0.3
8/20/2022 9:00:00 AM 17.46 63.428 0.171 7.22 188.58 0.29
8/20/2022 9:15:00 AM 17.62 63.716 0.172 7.23 188.36 0.29
8/20/2022 9:30:00 AM 17.81 64.058 0.172 7.23 188.51 0.29
8/20/2022 9:45:00 AM 18.04 64.472 0.173 7.22 188.38 0.29
8/20/2022 10:00:00 AM 18.29 64.922 0.174 7.22 188.43 0.29
8/20/2022 10:15:00 AM 18.56 65.408 0.175 7.23 188.48 0.29
8/20/2022 10:30:00 AM 18.85 65.93 0.175 7.22 189.9 0.28
8/20/2022 10:45:00 AM 19.1 66.38 0.176 7.22 189.9 0.28
8/20/2022 11:00:00 AM 19.28 66.704 0.176 7.22 189.92 0.28
8/20/2022 11:15:00 AM 19.3 66.74 0.176 7.22 189.62 0.28
8/20/2022 11:30:00 AM 19.3 66.74 0.176 7.22 189.35 0.27
8/20/2022 11:45:00 AM 19.33 66.794 0.176 7.22 189.27 0.28
8/20/2022 12:00:00 PM 19.39 66.902 0.176 7.22 189.12 0.27
8/20/2022 12:15:00 PM 19.67 67.406 0.177 7.22 189.53 0.27
8/20/2022 12:30:00 PM 20.14 68.252 0.178 7.22 190.01 0.27
8/20/2022 12:45:00 PM 20.63 69.134 0.178 7.22 190.46 0.26
8/20/2022 1:00:00 PM 21.08 69.944 0.179 7.21 190.96 0.26
8/20/2022 1:15:00 PM 21.48 70.664 0.18 7.2 191.52 0.26
8/20/2022 1:30:00 PM 21.79 71.222 0.178 7.2 192.1 0.26
8/20/2022 1:45:00 PM 22.15 71.87 0.176 7.2 192.08 0.25
8/20/2022 2:00:00 PM 22.5 72.5 0.174 7.19 192.66 0.25
8/20/2022 2:15:00 PM 22.82 73.076 0.174 7.19 194.97 0.25
8/20/2022 2:30:00 PM 23.11 73.598 0.172 7.18 194.96 0.25
8/20/2022 2:45:00 PM 23.36 74.048 0.172 7.17 194.78 0.25
8/20/2022 3:00:00 PM 23.52 74.336 0.171 7.18 194.33 0.25
8/20/2022 3:15:00 PM 23.76 74.768 0.171 7.17 194.26 0.24
8/20/2022 3:30:00 PM 24.01 75.218 0.171 7.17 194.66 0.24
8/20/2022 3:45:00 PM 24.26 75.668 0.171 7.17 194.91 0.24
8/20/2022 4:00:00 PM 24.48 76.064 0.17 7.17 195.04 0.24
8/20/2022 4:15:00 PM 24.65 76.37 0.17 7.16 195.55 0.24
8/20/2022 4:30:00 PM 24.78 76.604 0.17 7.16 195.37 0.24
8/20/2022 4:45:00 PM 24.85 76.73 0.169 7.16 195.27 0.24
8/20/2022 5:00:00 PM 24.87 76.766 0.17 7.15 194.6 0.24
8/20/2022 5:15:00 PM 24.84 76.712 0.17 7.16 194.22 0.24
8/20/2022 5:30:00 PM 24.82 76.676 0.17 7.16 193.96 0.24
8/20/2022 5:45:00 PM 24.78 76.604 0.171 7.16 193.54 0.24
8/20/2022 6:00:00 PM 24.73 76.514 0.171 7.16 193.24 0.24
8/20/2022 6:15:00 PM 24.66 76.388 0.171 7.16 192.86 0.24
8/20/2022 6:30:00 PM 24.55 76.19 0.171 7.16 192.56 0.25
8/20/2022 6:45:00 PM 24.41 75.938 0.172 7.16 191.86 0.25
8/20/2022 7:00:00 PM 24.26 75.668 0.171 7.16 191.11 0.25
8/20/2022 7:15:00 PM 24.1 75.38 0.172 7.16 190.44 0.25
8/20/2022 7:30:00 PM 23.94 75.092 0.172 7.17 190.03 0.25
8/20/2022 7:45:00 PM 23.77 74.786 0.171 7.16 189.72 0.25
8/20/2022 8:00:00 PM 23.6 74.48 0.171 7.17 189.32 0.25
8/20/2022 8:15:00 PM 23.44 74.192 0.171 7.18 189.02 0.25
8/20/2022 8:30:00 PM 23.26 73.868 0.171 7.18 188.65 0.25
8/20/2022 8:45:00 PM 23.09 73.562 0.171 7.18 188.24 0.26
8/20/2022 9:00:00 PM 22.91 73.238 0.173 7.18 188.04 0.26
8/20/2022 9:15:00 PM 22.73 72.914 0.173 7.19 187.82 0.26
8/20/2022 9:30:00 PM 22.54 72.57201 0.173 7.19 187.48 0.26
8/20/2022 9:45:00 PM 22.37 72.266 0.173 7.19 187.07 0.26
8/20/2022 10:00:00 PM 22.18 71.924 0.173 7.2 186.75 0.26
8/20/2022 10:15:00 PM 22 71.6 0.173 7.2 186.45 0.26
8/20/2022 10:30:00 PM 21.83 71.294 0.174 7.2 186.23 0.27
8/20/2022 10:45:00 PM 21.68 71.024 0.173 7.2 186.4 0.27
8/20/2022 11:00:00 PM 21.53 70.754 0.172 7.21 186.1 0.27
8/20/2022 11:15:00 PM 21.4 70.52 0.172 7.21 185.93 0.27
8/20/2022 11:30:00 PM 21.26 70.268 0.172 7.21 185.73 0.27
8/20/2022 11:45:00 PM 21.14 70.052 0.172 7.21 185.28 0.27
8/21/2022 12:00:00 AM 21.02 69.836 0.172 7.21 185.21 0.27
8/21/2022 12:15:00 AM 20.91 69.638 0.172 7.22 185.13 0.27
8/21/2022 12:30:00 AM 20.8 69.44 0.172 7.22 184.9 0.27
8/21/2022 12:45:00 AM 20.68 69.224 0.172 7.22 184.77 0.27
8/21/2022 1:00:00 AM 20.57 69.026 0.172 7.22 184.65 0.27
8/21/2022 1:15:00 AM 20.46 68.828 0.172 7.23 184.57 0.28
8/21/2022 1:30:00 AM 20.36 68.648 0.172 7.23 184.53 0.28
8/21/2022 1:45:00 AM 20.27 68.486 0.171 7.23 184.5 0.28
8/21/2022 2:00:00 AM 20.19 68.342 0.171 7.23 184.41 0.28
8/21/2022 2:15:00 AM 20.11 68.198 0.171 7.23 184.3 0.28
8/21/2022 2:30:00 AM 20.04 68.07201 0.17 7.24 184.18 0.28
8/21/2022 2:45:00 AM 19.97 67.946 0.17 7.24 184.12 0.28
8/21/2022 3:00:00 AM 19.88 67.784 0.17 7.24 183.98 0.28
8/21/2022 3:15:00 AM 19.78 67.604 0.17 7.24 183.92 0.28
8/21/2022 3:30:00 AM 19.69 67.442 0.17 7.24 183.86 0.28
8/21/2022 3:45:00 AM 19.6 67.28 0.169 7.24 183.85 0.28
8/21/2022 4:00:00 AM 19.53 67.154 0.169 7.24 183.77 0.28
8/21/2022 4:15:00 AM 19.46 67.028 0.168 7.24 183.69 0.28
8/21/2022 4:30:00 AM 19.39 66.902 0.167 7.24 183.61 0.28
8/21/2022 4:45:00 AM 19.33 66.794 0.166 7.23 183.59 0.28
8/21/2022 5:00:00 AM 19.3 66.74 0.164 7.23 183.58 0.28
8/21/2022 5:15:00 AM 19.29 66.722 0.162 7.23 183.51 0.28
8/21/2022 5:30:00 AM 19.29 66.722 0.161 7.23 183.53 0.28
8/21/2022 5:45:00 AM 19.24 66.632 0.16 7.22 183.48 0.28
8/21/2022 6:00:00 AM 19.16 66.488 0.159 7.23 183.69 0.28
8/21/2022 6:15:00 AM 19.07 66.326 0.159 7.23 183.7 0.28
8/21/2022 6:30:00 AM 18.98 66.164 0.158 7.23 183.4 0.28
8/21/2022 6:45:00 AM 18.89 66.002 0.158 7.23 183.4 0.28
8/21/2022 7:00:00 AM 18.82 65.876 0.158 7.23 183.35 0.29
8/21/2022 7:15:00 AM 18.77 65.786 0.158 7.23 183.36 0.29
8/21/2022 7:30:00 AM 18.73 65.714 0.158 7.24 183.34 0.28
8/21/2022 7:45:00 AM 18.71 65.67799 0.158 7.24 183.38 0.29
8/21/2022 8:00:00 AM 18.71 65.67799 0.159 7.24 183.39 0.29
8/21/2022 8:15:00 AM 18.72 65.696 0.159 7.24 183.44 0.29
8/21/2022 8:30:00 AM 18.75 65.75 0.159 7.24 183.45 0.29
8/21/2022 8:45:00 AM 18.82 65.876 0.159 7.24 183.47 0.29
8/21/2022 9:00:00 AM 18.92 66.056 0.159 7.25 183.42 0.29
8/21/2022 9:15:00 AM 19.05 66.29 0.159 7.25 183.4 0.28
8/21/2022 9:30:00 AM 19.2 66.56 0.159 7.24 183.58 0.28
8/21/2022 9:45:00 AM 19.32 66.776 0.159 7.25 183.65 0.28
8/21/2022 10:00:00 AM 19.38 66.884 0.159 7.24 183.59 0.28
8/21/2022 10:15:00 AM 19.47 67.046 0.159 7.25 183.61 0.28
8/21/2022 10:30:00 AM 19.58 67.244 0.159 7.25 183.69 0.28
8/21/2022 10:45:00 AM 19.68 67.424 0.159 7.25 183.7 0.28
8/21/2022 11:00:00 AM 19.8 67.64 0.159 7.25 183.72 0.28
8/21/2022 11:15:00 AM 19.85 67.73 0.158 7.25 183.65 0.28
8/21/2022 11:30:00 AM 19.81 67.658 0.152 7.22 183.75 0.27
8/21/2022 11:45:00 AM 20.06 68.108 0.135 7.19 184.14 0.28
8/21/2022 12:00:00 PM 20.14 68.252 0.133 7.16 184.12 0.29
8/21/2022 12:15:00 PM 19.93 67.874 0.132 7.14 184.1 0.28
8/21/2022 12:30:00 PM 19.82 67.676 0.134 7.14 184.16 0.28
8/21/2022 12:45:00 PM 19.84 67.712 0.135 7.14 184.21 0.28
8/21/2022 1:00:00 PM 19.96 67.92799 0.136 7.14 184.16 0.27
8/21/2022 1:15:00 PM 20.22 68.396 0.137 7.14 184.21 0.27
8/21/2022 1:30:00 PM 20.53 68.954 0.137 7.14 184.25 0.27
8/21/2022 1:45:00 PM 20.82 69.476 0.137 7.15 184.46 0.27
8/21/2022 2:00:00 PM 21.09 69.962 0.137 7.16 185.01 0.26
8/21/2022 2:15:00 PM 21.4 70.52 0.136 7.16 185.07 0.26
8/21/2022 2:30:00 PM 21.73 71.114 0.136 7.16 185.38 0.26
8/21/2022 2:45:00 PM 22.02 71.636 0.136 7.16 185.35 0.26
8/21/2022 3:00:00 PM 22.21 71.978 0.136 7.16 185.09 0.26
8/21/2022 3:15:00 PM 22.41 72.338 0.135 7.16 185.3 0.25
8/21/2022 3:30:00 PM 22.56 72.608 0.135 7.16 185.35 0.25
8/21/2022 3:45:00 PM 22.65 72.77 0.136 7.16 185.28 0.25
8/21/2022 4:00:00 PM 22.69 72.842 0.137 7.17 185.15 0.25
8/21/2022 4:15:00 PM 22.62 72.716 0.138 7.17 185.01 0.25
8/21/2022 4:30:00 PM 22.49 72.482 0.138 7.17 184.93 0.26
8/21/2022 4:45:00 PM 22.34 72.212 0.137 7.18 184.97 0.26
8/21/2022 5:00:00 PM 22.46 72.42799 0.106 7.18 186.41 0.33
8/21/2022 5:15:00 PM 22.03 71.654 0.103 7.12 186.49 0.31
8/21/2022 5:30:00 PM 21.75 71.15 0.083 7.14 187.49 0.32
8/21/2022 5:45:00 PM 21.43 70.574 0.08 7.14 187.88 0.32
8/21/2022 6:00:00 PM 21 69.8 0.083 7.14 189.91 0.28
8/21/2022 6:15:00 PM 20.61 69.098 0.078 7.2 193.27 0.28
8/21/2022 6:30:00 PM 20.39 68.702 0.074 7.22 194.66 0.28
8/21/2022 6:45:00 PM 20.24 68.432 0.075 7.22 196.21 0.28
8/21/2022 7:00:00 PM 20.15 68.27 0.078 7.25 198.69 0.28
8/21/2022 7:15:00 PM 20.06 68.108 0.079 7.28 196.15 0.28
8/21/2022 7:30:00 PM 19.98 67.964 0.078 7.28 196.39 0.28
8/21/2022 7:45:00 PM 19.94 67.892 0.079 7.29 196.29 0.28
8/21/2022 8:00:00 PM 19.9 67.82 0.08 7.29 196.36 0.28
8/21/2022 8:15:00 PM 19.87 67.766 0.08 7.29 196.58 0.28
8/21/2022 8:30:00 PM 19.83 67.694 0.081 7.28 196.9 0.28
8/21/2022 8:45:00 PM 19.78 67.604 0.082 7.29 197.07 0.28
8/21/2022 9:00:00 PM 19.73 67.514 0.082 7.28 197.62 0.28
8/21/2022 9:15:00 PM 19.7 67.46 0.082 7.28 197.86 0.28
8/21/2022 9:30:00 PM 19.66 67.388 0.083 7.29 198.03 0.28
8/21/2022 9:45:00 PM 19.6 67.28 0.084 7.28 198.8 0.28
8/21/2022 10:00:00 PM 19.54 67.172 0.085 7.28 200.01 0.28
8/21/2022 10:15:00 PM 19.46 67.028 0.085 7.28 200.61 0.28
8/21/2022 10:30:00 PM 19.39 66.902 0.086 7.29 200.97 0.28
8/21/2022 10:45:00 PM 19.33 66.794 1.666 7.29 201.39 0.28
8/21/2022 11:00:00 PM 19.3 66.74 1.751 7.29 201.57 0.28
8/21/2022 11:15:00 PM 19.29 66.722 1.689 7.3 201.84 0.28
8/21/2022 11:30:00 PM 19.29 66.722 1.452 7.3 202.31 0.28
8/21/2022 11:45:00 PM 19.28 66.704 0.737 7.3 202.95 0.28
8/22/2022 12:00:00 AM 19.22 66.596 1.007 7.31 204.08 0.28
8/22/2022 12:15:00 AM 19.16 66.488 0.591 7.34 204.51 0.28
8/22/2022 12:30:00 AM 19.12 66.416 0.823 7.37 205.37 0.28
8/22/2022 12:45:00 AM 19.05 66.29 0.213 7.39 208.47 0.28
8/22/2022 1:00:00 AM 18.99 66.182 0.823 7.41 210.74 0.28
8/22/2022 1:15:00 AM 18.96 66.128 0.299 7.41 211.65 0.28
8/22/2022 1:30:00 AM 18.93 66.074 0.42 7.42 211.81 0.29
8/22/2022 1:45:00 AM 18.9 66.02 1.523 7.41 211.49 0.28
8/22/2022 2:00:00 AM 18.87 65.966 1.826 7.4 211.32 0.29
8/22/2022 2:15:00 AM 18.83 65.894 1.727 7.39 211.06 0.29
8/22/2022 2:30:00 AM 18.81 65.858 1.207 7.38 210.9 0.29
8/22/2022 2:45:00 AM 18.78 65.804 1.477 7.37 210.9 0.29
8/22/2022 3:00:00 AM 18.77 65.786 1.602 7.37 210.86 0.29
8/22/2022 3:15:00 AM 18.76 65.768 1.356 7.37 211.14 0.29
8/22/2022 3:30:00 AM 18.75 65.75 1.408 7.36 211.34 0.29
8/22/2022 3:45:00 AM 18.74 65.732 1.398 7.36 211.51 0.29
8/22/2022 4:00:00 AM 18.74 65.732 1.395 7.35 211.63 0.29
8/22/2022 4:15:00 AM 18.72 65.696 1.412 7.35 211.8 0.29
8/22/2022 4:30:00 AM 18.7 65.66 1.391 7.35 211.86 0.29
8/22/2022 4:45:00 AM 18.67 65.606 1.403 7.35 211.93 0.29
8/22/2022 5:00:00 AM 18.64 65.552 1.373 7.34 211.8 0.29
8/22/2022 5:15:00 AM 18.62 65.516 1.444 7.34 211.84 0.29
8/22/2022 5:30:00 AM 18.61 65.498 1.478 7.34 211.99 0.29
8/22/2022 5:45:00 AM 18.59 65.462 1.51 7.35 212.02 0.29
8/22/2022 6:00:00 AM 18.56 65.408 1.571 7.35 212.11 0.29
8/22/2022 6:15:00 AM 18.52 65.336 1.621 7.35 212.3 0.29
8/22/2022 6:30:00 AM 18.48 65.264 1.636 7.36 212.39 0.29
8/22/2022 6:45:00 AM 18.45 65.21 1.648 7.36 212.49 0.29
8/22/2022 7:00:00 AM 18.43 65.174 1.668 7.37 212.51 0.29
8/22/2022 7:15:00 AM 18.43 65.174 1.651 7.37 212.51 0.29
8/22/2022 7:30:00 AM 18.43 65.174 1.701 7.37 212.67 0.29
8/22/2022 7:45:00 AM 18.43 65.174 1.703 7.37 212.76 0.29
8/22/2022 8:00:00 AM 18.43 65.174 1.657 7.37 212.67 0.29
8/22/2022 8:15:00 AM 18.42 65.156 1.527 7.38 212.38 0.29
8/22/2022 8:30:00 AM 18.41 65.138 1.733 7.38 212.24 0.29
8/22/2022 8:45:00 AM 18.41 65.138 1.719 7.38 212.06 0.29
8/22/2022 9:00:00 AM 18.41 65.138 1.706 7.38 211.85 0.29
8/22/2022 9:15:00 AM 18.41 65.138 1.404 7.38 211.71 0.29
8/22/2022 9:30:00 AM 18.42 65.156 0.814 7.38 211.57 0.29
8/22/2022 9:45:00 AM 18.43 65.174 0.13 7.38 211.66 0.29
8/22/2022 10:00:00 AM 18.44 65.192 1.781 7.37 211.5 0.29
8/22/2022 10:15:00 AM 18.44 65.192 1.636 7.38 211.52 0.29
8/22/2022 10:30:00 AM 18.44 65.192 1.537 7.38 211.48 0.29
8/22/2022 10:45:00 AM 18.42 65.156 0.148 7.38 211.33 0.29
8/22/2022 11:00:00 AM 18.4 65.12 1.531 7.37 211.31 0.29
8/22/2022 11:15:00 AM 18.37 65.066 1.573 7.37 211.14 0.29
8/22/2022 11:30:00 AM 18.36 65.048 1.523 7.37 210.9 0.29
8/22/2022 11:45:00 AM 18.35 65.03 1.466 7.37 210.95 0.29
8/22/2022 12:00:00 PM 18.35 65.03 1.553 7.36 210.91 0.29
8/22/2022 12:15:00 PM 18.34 65.012 1.469 7.36 211.01 0.29
8/22/2022 12:30:00 PM 18.34 65.012 1.375 7.36 210.99 0.29
8/22/2022 12:45:00 PM 18.35 65.03 1.425 7.36 210.9 0.29
8/22/2022 1:00:00 PM 18.37 65.066 1.548 7.36 210.88 0.29
8/22/2022 1:15:00 PM 18.39 65.102 1.554 7.35 210.99 0.29
8/22/2022 1:30:00 PM 18.42 65.156 1.487 7.35 211 0.29
8/22/2022 1:45:00 PM 18.45 65.21 1.573 7.35 211.1 0.29
8/22/2022 2:00:00 PM 18.46 65.228 1.475 7.35 214.36 0.29
8/22/2022 2:15:00 PM 18.46 65.228 1.462 7.35 221.45 0.29
8/22/2022 2:30:00 PM 18.45 65.21 1.492 7.35 221.5 0.29
8/22/2022 2:45:00 PM 18.43 65.174 1.958 7.35 221.43 0.29
8/22/2022 3:00:00 PM 18.42 65.156 1.837 7.35 221.75 0.29
8/22/2022 3:15:00 PM 18.43 65.174 1.829 7.35 221.83 0.29
8/22/2022 3:30:00 PM 18.47 65.246 1.857 7.35 222.01 0.29
8/22/2022 3:45:00 PM 18.54 65.372 1.871 7.35 222.05 0.29
8/22/2022 4:00:00 PM 18.6 65.48 1.909 7.34 222.16 0.29
8/22/2022 4:15:00 PM 18.64 65.552 2.109 7.34 222.33 0.29
8/22/2022 4:30:00 PM 18.67 65.606 2.096 7.34 222.49 0.29
8/22/2022 4:45:00 PM 18.68 65.624 2.102 7.34 222.6 0.29
8/22/2022 5:00:00 PM 18.69 65.642 2.092 7.34 222.72 0.29
8/22/2022 5:15:00 PM 18.71 65.67799 2.087 7.34 222.84 0.28
8/22/2022 5:30:00 PM 18.73 65.714 2.064 7.34 222.96 0.29
8/22/2022 5:45:00 PM 18.74 65.732 1.933 7.33 223.08 0.29
8/22/2022 6:00:00 PM 18.76 65.768 1.817 7.33 223.11 0.29
8/22/2022 6:15:00 PM 18.77 65.786 1.735 7.33 223.19 0.28
8/22/2022 6:30:00 PM 18.76 65.768 1.707 7.33 223.3 0.28
8/22/2022 6:45:00 PM 18.75 65.75 1.675 7.32 223.32 0.29
8/22/2022 7:00:00 PM 18.72 65.696 1.666 7.33 223.39 0.29
8/22/2022 7:15:00 PM 18.7 65.66 1.668 7.33 223.35 0.29
8/22/2022 7:30:00 PM 18.67 65.606 1.808 7.33 223.32 0.29
8/22/2022 7:45:00 PM 18.64 65.552 1.663 7.33 223.17 0.29
8/22/2022 8:00:00 PM 18.61 65.498 1.635 7.34 223.26 0.29
8/22/2022 8:15:00 PM 18.58 65.444 1.766 7.34 223.23 0.29
8/22/2022 8:30:00 PM 18.56 65.408 1.595 7.34 223.26 0.29
8/22/2022 8:45:00 PM 18.53 65.354 1.676 7.35 223.32 0.29
8/22/2022 9:00:00 PM 18.51 65.318 1.599 7.34 223.41 0.29
8/22/2022 9:15:00 PM 18.49 65.282 1.632 7.35 223.39 0.29
8/22/2022 9:30:00 PM 18.47 65.246 0.197 7.35 223.4 0.29
8/22/2022 9:45:00 PM 18.45 65.21 1.684 7.35 223.28 0.29
8/22/2022 10:00:00 PM 18.43 65.174 1.81 7.36 223.23 0.29
8/22/2022 10:15:00 PM 18.42 65.156 0.21 7.36 223.19 0.29
8/22/2022 10:30:00 PM 18.4 65.12 2.089 7.36 223.14 0.29
8/22/2022 10:45:00 PM 18.39 65.102 2.016 7.36 223.1 0.29
8/22/2022 11:00:00 PM 18.38 65.084 2.05 7.36 223.05 0.29
8/22/2022 11:15:00 PM 18.36 65.048 2.068 7.36 222.82 0.29
8/22/2022 11:30:00 PM 18.35 65.03 2.087 7.36 222.74 0.29
8/22/2022 11:45:00 PM 18.34 65.012 2.09 7.36 222.67 0.29
8/23/2022 12:00:00 AM 18.33 64.994 2.064 7.36 222.52 0.29
8/23/2022 12:15:00 AM 18.32 64.976 2.038 7.36 222.14 0.29
8/23/2022 12:30:00 AM 18.31 64.958 2.049 7.37 221.74 0.29
8/23/2022 12:45:00 AM 18.29 64.922 2.031 7.36 221.28 0.29
8/23/2022 1:00:00 AM 18.28 64.904 2.043 7.36 220.88 0.29
8/23/2022 1:15:00 AM 18.27 64.886 2.032 7.36 220.52 0.29
8/23/2022 1:30:00 AM 18.26 64.868 1.74 7.36 220.14 0.29
8/23/2022 1:45:00 AM 18.25 64.85 1.513 7.36 219.89 0.29
8/23/2022 2:00:00 AM 18.24 64.832 1.484 7.36 219.54 0.29
8/23/2022 2:15:00 AM 18.22 64.796 1.149 7.35 219.3 0.29
8/23/2022 2:30:00 AM 18.21 64.778 1.181 7.36 218.99 0.29
8/23/2022 2:45:00 AM 18.2 64.76 1.163 7.35 218.7 0.29
8/23/2022 3:00:00 AM 18.18 64.724 1.096 7.35 218.45 0.29
8/23/2022 3:15:00 AM 18.17 64.706 1.063 7.35 218.24 0.29
8/23/2022 3:30:00 AM 18.16 64.688 1.014 7.35 217.99 0.29
8/23/2022 3:45:00 AM 18.15 64.67 0.842 7.34 218.68 0.29
8/23/2022 4:00:00 AM 18.13 64.634 0.822 7.34 217.45 0.29
8/23/2022 4:15:00 AM 18.12 64.616 0.879 7.34 217.12 0.29
8/23/2022 4:30:00 AM 18.11 64.598 0.843 7.33 216.78 0.29
8/23/2022 4:45:00 AM 18.1 64.58 0.713 7.34 216.31 0.29
8/23/2022 5:00:00 AM 18.09 64.562 0.824 7.33 215.99 0.29
8/23/2022 5:15:00 AM 18.08 64.544 0.906 7.33 215.67 0.29
8/23/2022 5:30:00 AM 18.07 64.526 0.963 7.3 215.26 0.29
8/23/2022 5:45:00 AM 18.05 64.49 1.015 7.26 214.88 0.29
8/23/2022 6:00:00 AM 18.04 64.472 1.093 7.24 214.56 0.29
8/23/2022 6:15:00 AM 18.03 64.454 1.074 7.23 214.21 0.29
8/23/2022 6:30:00 AM 18.02 64.436 1.578 7.23 213.92 0.29
8/23/2022 6:45:00 AM 18.01 64.418 1.928 7.23 213.53 0.29
8/23/2022 7:00:00 AM 18 64.4 1.936 7.19 213.16 0.29
8/23/2022 7:15:00 AM 17.99 64.382 1.952 7.18 212.86 0.29
8/23/2022 7:30:00 AM 17.98 64.364 1.957 7.15 212.65 0.29
8/23/2022 7:45:00 AM 17.97 64.346 2.061 7.14 212.35 0.29
8/23/2022 8:00:00 AM 17.97 64.346 1.882 7.12 212.07 0.29
8/23/2022 8:15:00 AM 17.96 64.328 1.936 7.12 211.81 0.29
8/23/2022 8:30:00 AM 17.96 64.328 1.973 7.09 211.54 0.29
8/23/2022 8:45:00 AM 17.96 64.328 1.954 7.07 211.3 0.29
8/23/2022 9:00:00 AM 17.96 64.328 1.952 7.05 211.54 0.29
8/23/2022 9:15:00 AM 17.96 64.328 1.949 7.04 210.79 0.29
8/23/2022 9:30:00 AM 17.96 64.328 1.931 7.03 210.11 0.29
8/23/2022 9:45:00 AM 17.98 64.364 1.92 7.01 211.43 0.29
8/23/2022 10:00:00 AM 17.99 64.382 1.919 7.01 210.48 0.29
8/23/2022 10:15:00 AM 18 64.4 1.889 6.99 210.7 0.29
8/23/2022 10:30:00 AM 18.02 64.436 1.855 6.98 210.72 0.29
8/23/2022 10:45:00 AM 18.03 64.454 1.81 6.97 210.82 0.29
8/23/2022 11:00:00 AM 18.05 64.49 1.778 6.97 210.82 0.29
8/23/2022 11:15:00 AM 18.08 64.544 1.797 6.96 210.77 0.29
8/23/2022 11:30:00 AM 18.13 64.634 1.802 6.95 210.81 0.29
8/23/2022 11:45:00 AM 18.16 64.688 1.787 6.93 210.74 0.29
8/23/2022 12:00:00 PM 18.2 64.76 1.778 6.93 210.72 0.29
8/23/2022 12:15:00 PM 18.25 64.85 1.794 6.93 210.75 0.29
8/23/2022 12:30:00 PM 18.36 65.048 1.824 6.93 210.93 0.29
8/23/2022 12:45:00 PM 18.43 65.174 1.788 6.91 211.01 0.29
8/23/2022 1:00:00 PM 18.48 65.264 1.785 6.9 209.2 0.29
8/23/2022 1:15:00 PM 18.56 65.408 1.808 6.89 215.58 0.28
8/23/2022 1:30:00 PM 18.65 65.57 1.792 6.88 215.17 0.28
8/23/2022 1:45:00 PM 18.77 65.786 1.767 6.88 215.06 0.28
8/23/2022 2:00:00 PM 18.89 66.002 1.819 6.87 215.1 0.28
8/23/2022 2:15:00 PM 19.05 66.29 1.754 6.86 215.03 0.28
8/23/2022 2:30:00 PM 19.17 66.506 1.627 6.86 215.35 0.27
8/23/2022 2:45:00 PM 19.3 66.74 1.812 6.85 212.97 0.27
8/23/2022 3:00:00 PM 19.38 66.884 1.834 6.84 212.79 0.27
8/23/2022 3:15:00 PM 19.46 67.028 1.807 6.83 212.67 0.27
8/23/2022 3:30:00 PM 19.51 67.118 1.793 6.82 212.59 0.27
8/23/2022 3:45:00 PM 19.54 67.172 1.718 6.81 212.65 0.27
8/23/2022 4:00:00 PM 19.58 67.244 1.824 6.8 212.62 0.27
8/23/2022 4:15:00 PM 19.58 67.244 1.791 6.8 212.6 0.27
8/23/2022 4:30:00 PM 19.57 67.226 1.76 6.8 212.84 0.27
8/23/2022 4:45:00 PM 19.54 67.172 1.774 6.78 212.83 0.27
8/23/2022 5:00:00 PM 19.49 67.082 1.911 6.78 211.85 0.27
8/23/2022 5:15:00 PM 19.47 67.046 2.218 6.78 209.43 0.27
8/23/2022 5:30:00 PM 19.44 66.992 1.88 6.78 208.91 0.27
8/23/2022 5:45:00 PM 19.41 66.938 2.23 6.77 209.04 0.27
8/23/2022 6:00:00 PM 19.37 66.866 2.322 6.76 209.18 0.27
8/23/2022 6:15:00 PM 19.34 66.812 2.38 6.75 208.76 0.27
8/23/2022 6:30:00 PM 19.3 66.74 2.377 6.74 208.79 0.27
8/23/2022 6:45:00 PM 19.26 66.668 2.413 6.73 208.78 0.27
8/23/2022 7:00:00 PM 19.22 66.596 2.441 6.73 208.97 0.28
8/23/2022 7:15:00 PM 19.19 66.542 2.491 6.72 208.86 0.28
8/23/2022 7:30:00 PM 19.15 66.47 2.521 6.71 208.86 0.28
8/23/2022 7:45:00 PM 19.1 66.38 2.538 6.71 208.84 0.28
8/23/2022 8:00:00 PM 19.06 66.308 2.48 6.7 208.69 0.28
8/23/2022 8:15:00 PM 19.02 66.236 2.522 6.69 208.61 0.28
8/23/2022 8:30:00 PM 18.97 66.146 2.505 6.68 208.83 0.28
8/23/2022 8:45:00 PM 18.92 66.056 2.437 6.69 206.92 0.28
8/23/2022 9:00:00 PM 18.87 65.966 2.414 6.69 208.71 0.28
8/23/2022 9:15:00 PM 18.82 65.876 2.404 6.68 208.15 0.28
8/23/2022 9:30:00 PM 18.76 65.768 2.337 6.67 208.15 0.28
8/23/2022 9:45:00 PM 18.71 65.67799 2.41 6.67 207.78 0.29
8/23/2022 10:00:00 PM 18.65 65.57 2.44 6.67 207.77 0.29
8/23/2022 10:15:00 PM 18.6 65.48 2.445 6.66 207.79 0.29
8/23/2022 10:30:00 PM 18.55 65.39 2.492 6.66 207.73 0.29
8/23/2022 10:45:00 PM 18.5 65.3 2.483 6.65 207.78 0.29
8/23/2022 11:00:00 PM 18.45 65.21 2.504 6.65 207.81 0.29
8/23/2022 11:15:00 PM 18.4 65.12 2.487 6.65 207.8 0.29
8/23/2022 11:30:00 PM 18.35 65.03 2.451 6.64 207.79 0.29
8/23/2022 11:45:00 PM 18.3 64.94 2.444 6.64 207.78 0.29
8/24/2022 12:00:00 AM 18.26 64.868 2.519 6.64 207.88 0.29
8/24/2022 12:15:00 AM 18.21 64.778 0.23 6.62 207.86 0.29
8/24/2022 12:30:00 AM 18.17 64.706 3.338 6.62 207.89 0.29
8/24/2022 12:45:00 AM 18.13 64.634 2.612 6.63 207.8 0.29
8/24/2022 1:00:00 AM 18.09 64.562 2.664 6.63 207.89 0.29
8/24/2022 1:15:00 AM 18.05 64.49 2.681 6.62 207.9 0.29
8/24/2022 1:30:00 AM 18 64.4 2.708 6.62 207.87 0.29
8/24/2022 1:45:00 AM 17.96 64.328 2.694 6.61 207.75 0.29
8/24/2022 2:00:00 AM 17.92 64.256 2.693 6.62 207.76 0.29
8/24/2022 2:15:00 AM 17.88 64.184 2.683 6.61 207.77 0.29
8/24/2022 2:30:00 AM 17.84 64.112 2.685 6.61 207.73 0.29
8/24/2022 2:45:00 AM 17.8 64.04 2.724 6.6 207.86 0.29
8/24/2022 3:00:00 AM 17.77 63.986 2.636 6.6 207.87 0.29
8/24/2022 3:15:00 AM 17.73 63.914 2.751 6.59 207.9 0.29
8/24/2022 3:30:00 AM 17.69 63.842 2.701 6.59 207.91 0.29
8/24/2022 3:45:00 AM 17.65 63.77 2.632 6.59 208 0.29
8/24/2022 4:00:00 AM 17.61 63.698 2.702 6.6 207.94 0.29
8/24/2022 4:15:00 AM 17.58 63.644 2.572 6.6 207.93 0.29
8/24/2022 4:30:00 AM 17.54 63.572 2.422 6.58 207.9 0.29
8/24/2022 4:45:00 AM 17.5 63.5 2.357 6.57 207.87 0.29
8/24/2022 5:00:00 AM 17.46 63.428 2.34 6.57 207.91 0.3
8/24/2022 5:15:00 AM 17.43 63.374 2.329 6.56 207.96 0.3
8/24/2022 5:30:00 AM 17.38 63.284 2.307 6.56 207.98 0.3
8/24/2022 5:45:00 AM 17.34 63.212 2.31 6.55 207.9 0.3
8/24/2022 6:00:00 AM 17.3 63.14 2.289 6.55 207.95 0.3
8/24/2022 6:15:00 AM 17.26 63.068 2.248 6.55 208.18 0.3
8/24/2022 6:30:00 AM 17.22 62.996 2.172 6.57 208.35 0.3
8/24/2022 6:45:00 AM 17.18 62.924 2.178 6.57 208.47 0.3
8/24/2022 7:00:00 AM 17.14 62.852 2.166 6.57 208.47 0.3
8/24/2022 7:15:00 AM 17.1 62.78 2.168 6.71 208.61 0.3
8/24/2022 7:30:00 AM 17.07 62.726 2.204 6.73 208.66 0.3
8/24/2022 7:45:00 AM 17.05 62.69 2.148 6.78 208.75 0.3
8/24/2022 8:00:00 AM 17.03 62.654 0.285 6.79 208.75 0.3
8/24/2022 8:15:00 AM 17.02 62.636 2.358 6.67 208.72 0.3
8/24/2022 8:30:00 AM 17.02 62.636 2.122 6.64 208.65 0.3
8/24/2022 8:45:00 AM 17.03 62.654 2.054 6.62 208.53 0.3
8/24/2022 9:00:00 AM 17.05 62.69 1.881 6.7 208.41 0.32
8/24/2022 9:15:00 AM 17.09 62.762 1.906 6.68 208.43 0.3
8/24/2022 9:30:00 AM 17.14 62.852 1.915 6.62 208.44 0.3
8/24/2022 9:45:00 AM 17.21 62.978 1.819 6.58 208.37 0.3
8/24/2022 10:00:00 AM 17.29 63.122 0.269 6.6 208.39 0.3
8/24/2022 10:15:00 AM 17.38 63.284 2.135 6.61 208.39 0.29
8/24/2022 10:30:00 AM 17.48 63.464 2.169 6.59 208.35 0.29
8/24/2022 10:45:00 AM 17.6 63.68 2.2 6.62 208.52 0.29
8/24/2022 11:00:00 AM 17.73 63.914 2.167 6.66 208.67 0.29
8/24/2022 11:15:00 AM 17.87 64.166 2.161 6.7 208.83 0.29
8/24/2022 11:30:00 AM 18 64.4 2.144 6.62 209.05 0.29
8/24/2022 11:45:00 AM 18.16 64.688 2.021 6.58 209.03 0.28
8/24/2022 12:00:00 PM 18.33 64.994 1.87 6.69 209.05 0.36
8/24/2022 12:15:00 PM 18.55 65.39 2.012 6.71 209.26 0.38
8/24/2022 12:30:00 PM 18.77 65.786 2.037 6.74 209.31 0.42
8/24/2022 12:45:00 PM 18.96 66.128 2.128 6.79 209.52 0.55
8/24/2022 1:00:00 PM 19.17 66.506 2.147 6.81 209.91 0.6
8/24/2022 1:15:00 PM 19.4 66.92 2.184 6.82 210.39 0.63
8/24/2022 1:30:00 PM 19.67 67.406 2.126 6.82 210.49 0.59
8/24/2022 1:45:00 PM 19.91 67.838 2.126 6.81 210.92 0.58
8/24/2022 2:00:00 PM 20.09 68.162 0.258 6.79 212.01 0.46
8/24/2022 2:15:00 PM 20.27 68.486 2.192 6.8 212.92 0.45
8/24/2022 2:30:00 PM 20.41 68.738 2.159 6.65 213.34 0.27
8/24/2022 2:45:00 PM 20.47 68.846 2.132 6.58 213.33 0.27
8/24/2022 3:00:00 PM 20.51 68.918 2.046 6.56 213.25 0.27
8/24/2022 3:15:00 PM 20.54 68.972 1.636 6.54 206.25 0.27
8/24/2022 3:30:00 PM 20.56 69.008 1.852 6.52 197.3 0.26
8/24/2022 3:45:00 PM 20.59 69.062 1.377 6.51 197.33 0.26
8/24/2022 4:00:00 PM 20.61 69.098 1.474 6.5 197.38 0.26
8/24/2022 4:15:00 PM 20.65 69.17 1.733 6.49 197.16 0.26
8/24/2022 4:30:00 PM 20.69 69.242 0.216 6.5 197.28 0.26
8/24/2022 4:45:00 PM 20.7 69.26 1.662 6.49 197.25 0.26
8/24/2022 5:00:00 PM 20.71 69.278 1.53 6.54 197.18 0.27
8/24/2022 5:15:00 PM 20.69 69.242 1.444 6.53 197.17 0.27
8/24/2022 5:30:00 PM 20.67 69.206 0.209 6.5 197.18 0.27
8/24/2022 5:45:00 PM 20.63 69.134 0.826 6.5 197.17 0.27
8/24/2022 6:00:00 PM 20.59 69.062 0.883 6.52 197.09 0.27
8/24/2022 6:15:00 PM 20.54 68.972 0.858 6.51 197.02 0.27
8/24/2022 6:30:00 PM 20.46 68.828 0.854 6.58 196.96 0.29
8/24/2022 6:45:00 PM 20.37 68.666 0.916 6.6 197.03 0.3
8/24/2022 7:00:00 PM 20.26 68.468 0.886 6.53 197.17 0.27
8/24/2022 7:15:00 PM 20.14 68.252 0.889 6.51 197.13 0.27
8/24/2022 7:30:00 PM 20.03 68.054 0.923 6.53 197.16 0.27
8/24/2022 7:45:00 PM 19.92 67.856 0.938 6.49 197.13 0.27
8/24/2022 8:00:00 PM 19.81 67.658 0.925 6.47 197.03 0.27
8/24/2022 8:15:00 PM 19.7 67.46 1.126 6.46 197.01 0.27
8/24/2022 8:30:00 PM 19.6 67.28 1.086 6.46 197.1 0.27
8/24/2022 8:45:00 PM 19.5 67.1 1.116 6.46 197.25 0.28
8/24/2022 9:00:00 PM 19.41 66.938 1.255 6.46 197.34 0.28
8/24/2022 9:15:00 PM 19.33 66.794 1.215 6.46 197.39 0.28
8/24/2022 9:30:00 PM 19.25 66.65 1.202 6.45 197.58 0.28
8/24/2022 9:45:00 PM 19.18 66.524 1.082 6.45 197.66 0.28
8/24/2022 10:00:00 PM 19.11 66.398 1.062 6.44 197.5 0.28
8/24/2022 10:15:00 PM 19.04 66.272 1.023 6.44 197.57 0.28
8/24/2022 10:30:00 PM 18.98 66.164 1.232 6.44 197.69 0.28
8/24/2022 10:45:00 PM 18.91 66.038 1.325 6.5 197.65 0.28
8/24/2022 11:00:00 PM 18.85 65.93 1.187 6.63 197.68 0.45
8/24/2022 11:15:00 PM 18.78 65.804 1.214 6.66 197.73 0.47
8/24/2022 11:30:00 PM 18.71 65.67799 1.201 6.69 197.76 0.5
8/24/2022 11:45:00 PM 18.64 65.552 1.252 6.71 197.35 0.53
8/25/2022 12:00:00 AM 18.57 65.426 1.159 6.73 197.4 0.56
8/25/2022 12:15:00 AM 18.5 65.3 1.012 6.74 197.83 0.58
8/25/2022 12:30:00 AM 18.43 65.174 1.335 6.75 198.22 0.6
8/25/2022 12:45:00 AM 18.35 65.03 1.575 6.76 198.56 0.62
8/25/2022 1:00:00 AM 18.28 64.904 1.694 6.77 198.87 0.62
8/25/2022 1:15:00 AM 18.21 64.778 1.675 6.79 199 0.72
8/25/2022 1:30:00 AM 18.14 64.652 1.67 6.79 199.21 0.75
8/25/2022 1:45:00 AM 18.07 64.526 1.649 6.8 199.35 0.74
8/25/2022 2:00:00 AM 18 64.4 1.498 6.8 199.56 0.76
8/25/2022 2:15:00 AM 17.94 64.292 1.459 6.8 199.75 0.76
8/25/2022 2:30:00 AM 17.88 64.184 1.574 6.81 200.2 0.76
8/25/2022 2:45:00 AM 17.82 64.076 1.53 6.81 200.43 0.77
8/25/2022 3:00:00 AM 17.77 63.986 0.92 6.81 200.4 0.76
8/25/2022 3:15:00 AM 17.72 63.896 1.161 6.81 200.7 0.77
8/25/2022 3:30:00 AM 17.67 63.806 1.11 6.82 201.17 0.78
8/25/2022 3:45:00 AM 17.63 63.734 1.185 6.82 201.27 0.87
8/25/2022 4:00:00 AM 17.58 63.644 1.116 6.82 201.32 0.86
8/25/2022 4:15:00 AM 17.54 63.572 1.338 6.83 201.47 0.91
8/25/2022 4:30:00 AM 17.49 63.482 1.476 6.83 201.66 0.9
8/25/2022 4:45:00 AM 17.45 63.41 1.328 6.83 201.77 0.9
8/25/2022 5:00:00 AM 17.41 63.338 0.217 6.83 201.88 0.92
8/25/2022 5:15:00 AM 17.37 63.266 2.066 6.84 201.96 0.91
8/25/2022 5:30:00 AM 17.33 63.194 2.057 6.84 202.08 0.92
8/25/2022 5:45:00 AM 17.29 63.122 2.164 6.85 202.25 0.93
8/25/2022 6:00:00 AM 17.25 63.05 1.889 6.85 202.39 0.89
8/25/2022 6:15:00 AM 17.21 62.978 1.762 6.84 202.48 0.89
8/25/2022 6:30:00 AM 17.17 62.906 1.756 6.85 202.65 0.92
8/25/2022 6:45:00 AM 17.14 62.852 2.192 6.85 202.71 0.84
8/25/2022 7:00:00 AM 17.1 62.78 1.714 6.84 202.76 0.86
8/25/2022 7:15:00 AM 17.07 62.726 1.841 6.85 202.83 0.88
8/25/2022 7:30:00 AM 17.04 62.672 1.847 6.86 202.95 0.95
8/25/2022 7:45:00 AM 17.02 62.636 1.841 6.86 203.09 1
8/25/2022 8:00:00 AM 17 62.6 1.817 6.86 203.28 0.97
8/25/2022 8:15:00 AM 17 62.6 1.775 6.86 203.32 0.97
8/25/2022 8:30:00 AM 17.01 62.618 1.758 6.86 203.45 1